<?xml version="1.0" encoding="UTF-8" standalone="no" ?>
<gpx xmlns="http://www.topografix.com/GPX/1/1" xmlns:xsi="http://www.w3.org/2001/XMLSchema-instance" xsi:schemaLocation="http://www.topografix.com/GPX/1/1 http://www.topografix.com/GPX/1/1/gpx.xsd" version="1.1" creator="VisuGPX - https://www.visugpx.com">
  <metadata>
    <name>Riez-Roumoule</name>
    <desc><![CDATA[balade sur les plateaux de Riez et Roumoules belle vue sur le lac de st croix ]]></desc>
  </metadata>
  <trk>
    <name><![CDATA[Riez-Roumoule_1]]></name>
    <trkseg>
      <trkpt lat="43.8042" lon="6.0975">
        <ele>612.7</ele>
        <time>2016-07-31T05:49:12Z</time>
      </trkpt>
      <trkpt lat="43.8042" lon="6.0975">
        <ele>663</ele>
        <time>2016-07-31T05:49:13Z</time>
      </trkpt>
      <trkpt lat="43.80404" lon="6.09731">
        <ele>664</ele>
        <time>2016-07-31T05:52:15Z</time>
      </trkpt>
      <trkpt lat="43.80393" lon="6.09708">
        <ele>663</ele>
        <time>2016-07-31T05:52:21Z</time>
      </trkpt>
      <trkpt lat="43.80387" lon="6.09698">
        <ele>663</ele>
        <time>2016-07-31T05:52:25Z</time>
      </trkpt>
      <trkpt lat="43.80375" lon="6.09695">
        <ele>667</ele>
        <time>2016-07-31T05:52:34Z</time>
      </trkpt>
      <trkpt lat="43.80356" lon="6.09684">
        <ele>665</ele>
        <time>2016-07-31T05:52:47Z</time>
      </trkpt>
      <trkpt lat="43.80354" lon="6.09643">
        <ele>664</ele>
        <time>2016-07-31T05:52:55Z</time>
      </trkpt>
      <trkpt lat="43.80355" lon="6.09622">
        <ele>668</ele>
        <time>2016-07-31T05:53:01Z</time>
      </trkpt>
      <trkpt lat="43.80357" lon="6.096">
        <ele>665</ele>
        <time>2016-07-31T05:53:07Z</time>
      </trkpt>
      <trkpt lat="43.80369" lon="6.09567">
        <ele>665</ele>
        <time>2016-07-31T05:53:14Z</time>
      </trkpt>
      <trkpt lat="43.80373" lon="6.09544">
        <ele>664</ele>
        <time>2016-07-31T05:53:20Z</time>
      </trkpt>
      <trkpt lat="43.8038" lon="6.09524">
        <ele>665</ele>
        <time>2016-07-31T05:53:26Z</time>
      </trkpt>
      <trkpt lat="43.80376" lon="6.09512">
        <ele>664</ele>
        <time>2016-07-31T05:53:32Z</time>
      </trkpt>
      <trkpt lat="43.80365" lon="6.09469">
        <ele>660</ele>
        <time>2016-07-31T05:53:44Z</time>
      </trkpt>
      <trkpt lat="43.80358" lon="6.09451">
        <ele>660</ele>
        <time>2016-07-31T05:53:49Z</time>
      </trkpt>
      <trkpt lat="43.8036" lon="6.09411">
        <ele>654</ele>
        <time>2016-07-31T05:53:59Z</time>
      </trkpt>
      <trkpt lat="43.80373" lon="6.09374">
        <ele>650</ele>
        <time>2016-07-31T05:54:11Z</time>
      </trkpt>
      <trkpt lat="43.80389" lon="6.09313">
        <ele>651</ele>
        <time>2016-07-31T05:54:27Z</time>
      </trkpt>
      <trkpt lat="43.80383" lon="6.09297">
        <ele>650</ele>
        <time>2016-07-31T05:54:33Z</time>
      </trkpt>
      <trkpt lat="43.80388" lon="6.09246">
        <ele>647</ele>
        <time>2016-07-31T05:54:41Z</time>
      </trkpt>
      <trkpt lat="43.80388" lon="6.09188">
        <ele>646</ele>
        <time>2016-07-31T05:54:47Z</time>
      </trkpt>
      <trkpt lat="43.80378" lon="6.09146">
        <ele>640</ele>
        <time>2016-07-31T05:54:53Z</time>
      </trkpt>
      <trkpt lat="43.80378" lon="6.09072">
        <ele>639</ele>
        <time>2016-07-31T05:54:58Z</time>
      </trkpt>
      <trkpt lat="43.80396" lon="6.09014">
        <ele>633</ele>
        <time>2016-07-31T05:55:05Z</time>
      </trkpt>
      <trkpt lat="43.80415" lon="6.08966">
        <ele>633</ele>
        <time>2016-07-31T05:55:10Z</time>
      </trkpt>
      <trkpt lat="43.80426" lon="6.08942">
        <ele>632</ele>
        <time>2016-07-31T05:55:14Z</time>
      </trkpt>
      <trkpt lat="43.80443" lon="6.08888">
        <ele>626</ele>
        <time>2016-07-31T05:55:19Z</time>
      </trkpt>
      <trkpt lat="43.80473" lon="6.08805">
        <ele>625</ele>
        <time>2016-07-31T05:55:25Z</time>
      </trkpt>
      <trkpt lat="43.80488" lon="6.08788">
        <ele>627</ele>
        <time>2016-07-31T05:55:28Z</time>
      </trkpt>
      <trkpt lat="43.80536" lon="6.08737">
        <ele>618</ele>
        <time>2016-07-31T05:55:35Z</time>
      </trkpt>
      <trkpt lat="43.80568" lon="6.08719">
        <ele>621</ele>
        <time>2016-07-31T05:55:40Z</time>
      </trkpt>
      <trkpt lat="43.80601" lon="6.08699">
        <ele>614</ele>
        <time>2016-07-31T05:55:46Z</time>
      </trkpt>
      <trkpt lat="43.8063" lon="6.0869">
        <ele>609</ele>
        <time>2016-07-31T05:55:51Z</time>
      </trkpt>
      <trkpt lat="43.80669" lon="6.08674">
        <ele>601</ele>
        <time>2016-07-31T05:55:57Z</time>
      </trkpt>
      <trkpt lat="43.80708" lon="6.08675">
        <ele>586</ele>
        <time>2016-07-31T05:56:02Z</time>
      </trkpt>
      <trkpt lat="43.80747" lon="6.08681">
        <ele>594</ele>
        <time>2016-07-31T05:56:07Z</time>
      </trkpt>
      <trkpt lat="43.80791" lon="6.08713">
        <ele>590</ele>
        <time>2016-07-31T05:56:13Z</time>
      </trkpt>
      <trkpt lat="43.80812" lon="6.08719">
        <ele>589</ele>
        <time>2016-07-31T05:56:16Z</time>
      </trkpt>
      <trkpt lat="43.80861" lon="6.0871">
        <ele>591</ele>
        <time>2016-07-31T05:56:22Z</time>
      </trkpt>
      <trkpt lat="43.80878" lon="6.08705">
        <ele>596</ele>
        <time>2016-07-31T05:56:26Z</time>
      </trkpt>
      <trkpt lat="43.80896" lon="6.08689">
        <ele>594</ele>
        <time>2016-07-31T05:56:33Z</time>
      </trkpt>
      <trkpt lat="43.80898" lon="6.08662">
        <ele>594</ele>
        <time>2016-07-31T05:56:38Z</time>
      </trkpt>
      <trkpt lat="43.80895" lon="6.08618">
        <ele>594</ele>
        <time>2016-07-31T05:56:44Z</time>
      </trkpt>
      <trkpt lat="43.80886" lon="6.08578">
        <ele>594</ele>
        <time>2016-07-31T05:56:50Z</time>
      </trkpt>
      <trkpt lat="43.80881" lon="6.0853">
        <ele>591</ele>
        <time>2016-07-31T05:56:56Z</time>
      </trkpt>
      <trkpt lat="43.80876" lon="6.08484">
        <ele>590</ele>
        <time>2016-07-31T05:57:03Z</time>
      </trkpt>
      <trkpt lat="43.80884" lon="6.08452">
        <ele>589</ele>
        <time>2016-07-31T05:57:08Z</time>
      </trkpt>
      <trkpt lat="43.80886" lon="6.08429">
        <ele>589</ele>
        <time>2016-07-31T05:57:12Z</time>
      </trkpt>
      <trkpt lat="43.80891" lon="6.08395">
        <ele>590</ele>
        <time>2016-07-31T05:57:17Z</time>
      </trkpt>
      <trkpt lat="43.80896" lon="6.08337">
        <ele>588</ele>
        <time>2016-07-31T05:57:24Z</time>
      </trkpt>
      <trkpt lat="43.809" lon="6.08292">
        <ele>584</ele>
        <time>2016-07-31T05:57:30Z</time>
      </trkpt>
      <trkpt lat="43.80899" lon="6.08256">
        <ele>592</ele>
        <time>2016-07-31T05:57:35Z</time>
      </trkpt>
      <trkpt lat="43.80901" lon="6.0821">
        <ele>586</ele>
        <time>2016-07-31T05:57:42Z</time>
      </trkpt>
      <trkpt lat="43.80901" lon="6.08173">
        <ele>584</ele>
        <time>2016-07-31T05:57:47Z</time>
      </trkpt>
      <trkpt lat="43.80904" lon="6.08135">
        <ele>580</ele>
        <time>2016-07-31T05:57:52Z</time>
      </trkpt>
      <trkpt lat="43.80919" lon="6.08096">
        <ele>580</ele>
        <time>2016-07-31T05:57:58Z</time>
      </trkpt>
      <trkpt lat="43.80933" lon="6.08054">
        <ele>578</ele>
        <time>2016-07-31T05:58:04Z</time>
      </trkpt>
      <trkpt lat="43.80947" lon="6.08022">
        <ele>579</ele>
        <time>2016-07-31T05:58:09Z</time>
      </trkpt>
      <trkpt lat="43.80965" lon="6.07982">
        <ele>572</ele>
        <time>2016-07-31T05:58:15Z</time>
      </trkpt>
      <trkpt lat="43.80976" lon="6.07948">
        <ele>567</ele>
        <time>2016-07-31T05:58:20Z</time>
      </trkpt>
      <trkpt lat="43.80984" lon="6.07926">
        <ele>563</ele>
        <time>2016-07-31T05:58:23Z</time>
      </trkpt>
      <trkpt lat="43.81006" lon="6.07871">
        <ele>560</ele>
        <time>2016-07-31T05:58:30Z</time>
      </trkpt>
      <trkpt lat="43.81012" lon="6.07836">
        <ele>559</ele>
        <time>2016-07-31T05:58:37Z</time>
      </trkpt>
      <trkpt lat="43.81015" lon="6.078">
        <ele>562</ele>
        <time>2016-07-31T05:58:42Z</time>
      </trkpt>
      <trkpt lat="43.81019" lon="6.07754">
        <ele>563</ele>
        <time>2016-07-31T05:58:48Z</time>
      </trkpt>
      <trkpt lat="43.81024" lon="6.0771">
        <ele>562</ele>
        <time>2016-07-31T05:58:54Z</time>
      </trkpt>
      <trkpt lat="43.81049" lon="6.07671">
        <ele>557</ele>
        <time>2016-07-31T05:59:01Z</time>
      </trkpt>
      <trkpt lat="43.81069" lon="6.0765">
        <ele>559</ele>
        <time>2016-07-31T05:59:06Z</time>
      </trkpt>
      <trkpt lat="43.81101" lon="6.0763">
        <ele>559</ele>
        <time>2016-07-31T05:59:12Z</time>
      </trkpt>
      <trkpt lat="43.81125" lon="6.07613">
        <ele>557</ele>
        <time>2016-07-31T05:59:17Z</time>
      </trkpt>
      <trkpt lat="43.81155" lon="6.07594">
        <ele>559</ele>
        <time>2016-07-31T05:59:23Z</time>
      </trkpt>
      <trkpt lat="43.81181" lon="6.07579">
        <ele>560</ele>
        <time>2016-07-31T05:59:28Z</time>
      </trkpt>
      <trkpt lat="43.81214" lon="6.07566">
        <ele>554</ele>
        <time>2016-07-31T05:59:34Z</time>
      </trkpt>
      <trkpt lat="43.81241" lon="6.07562">
        <ele>555</ele>
        <time>2016-07-31T05:59:40Z</time>
      </trkpt>
      <trkpt lat="43.8126" lon="6.07582">
        <ele>556</ele>
        <time>2016-07-31T05:59:45Z</time>
      </trkpt>
      <trkpt lat="43.81267" lon="6.07612">
        <ele>555</ele>
        <time>2016-07-31T05:59:50Z</time>
      </trkpt>
      <trkpt lat="43.81271" lon="6.07636">
        <ele>556</ele>
        <time>2016-07-31T05:59:55Z</time>
      </trkpt>
      <trkpt lat="43.81277" lon="6.07672">
        <ele>554</ele>
        <time>2016-07-31T06:00:02Z</time>
      </trkpt>
      <trkpt lat="43.81282" lon="6.07703">
        <ele>552</ele>
        <time>2016-07-31T06:00:07Z</time>
      </trkpt>
      <trkpt lat="43.81285" lon="6.07725">
        <ele>551</ele>
        <time>2016-07-31T06:00:10Z</time>
      </trkpt>
      <trkpt lat="43.81288" lon="6.07745">
        <ele>549</ele>
        <time>2016-07-31T06:00:13Z</time>
      </trkpt>
      <trkpt lat="43.81293" lon="6.07765">
        <ele>549</ele>
        <time>2016-07-31T06:00:16Z</time>
      </trkpt>
      <trkpt lat="43.81296" lon="6.07799">
        <ele>549</ele>
        <time>2016-07-31T06:00:21Z</time>
      </trkpt>
      <trkpt lat="43.813" lon="6.07843">
        <ele>548</ele>
        <time>2016-07-31T06:00:27Z</time>
      </trkpt>
      <trkpt lat="43.81301" lon="6.07864">
        <ele>549</ele>
        <time>2016-07-31T06:00:30Z</time>
      </trkpt>
      <trkpt lat="43.81305" lon="6.07886">
        <ele>549</ele>
        <time>2016-07-31T06:00:34Z</time>
      </trkpt>
      <trkpt lat="43.81308" lon="6.07928">
        <ele>549</ele>
        <time>2016-07-31T06:00:40Z</time>
      </trkpt>
      <trkpt lat="43.81311" lon="6.07949">
        <ele>550</ele>
        <time>2016-07-31T06:00:43Z</time>
      </trkpt>
      <trkpt lat="43.81318" lon="6.07983">
        <ele>552</ele>
        <time>2016-07-31T06:00:49Z</time>
      </trkpt>
      <trkpt lat="43.81327" lon="6.08011">
        <ele>551</ele>
        <time>2016-07-31T06:00:54Z</time>
      </trkpt>
      <trkpt lat="43.81331" lon="6.08028">
        <ele>551</ele>
        <time>2016-07-31T06:00:57Z</time>
      </trkpt>
      <trkpt lat="43.81341" lon="6.08062">
        <ele>552</ele>
        <time>2016-07-31T06:01:03Z</time>
      </trkpt>
      <trkpt lat="43.81353" lon="6.08099">
        <ele>554</ele>
        <time>2016-07-31T06:01:09Z</time>
      </trkpt>
      <trkpt lat="43.81367" lon="6.08131">
        <ele>555</ele>
        <time>2016-07-31T06:01:15Z</time>
      </trkpt>
      <trkpt lat="43.81383" lon="6.08166">
        <ele>557</ele>
        <time>2016-07-31T06:01:22Z</time>
      </trkpt>
      <trkpt lat="43.81398" lon="6.08195">
        <ele>557</ele>
        <time>2016-07-31T06:01:28Z</time>
      </trkpt>
      <trkpt lat="43.81409" lon="6.08218">
        <ele>558</ele>
        <time>2016-07-31T06:01:33Z</time>
      </trkpt>
      <trkpt lat="43.81422" lon="6.08242">
        <ele>562</ele>
        <time>2016-07-31T06:01:40Z</time>
      </trkpt>
      <trkpt lat="43.81437" lon="6.08275">
        <ele>563</ele>
        <time>2016-07-31T06:01:46Z</time>
      </trkpt>
      <trkpt lat="43.81443" lon="6.0829">
        <ele>564</ele>
        <time>2016-07-31T06:01:49Z</time>
      </trkpt>
      <trkpt lat="43.81458" lon="6.08318">
        <ele>566</ele>
        <time>2016-07-31T06:01:55Z</time>
      </trkpt>
      <trkpt lat="43.81471" lon="6.08345">
        <ele>564</ele>
        <time>2016-07-31T06:02:01Z</time>
      </trkpt>
      <trkpt lat="43.81486" lon="6.08372">
        <ele>567</ele>
        <time>2016-07-31T06:02:07Z</time>
      </trkpt>
      <trkpt lat="43.81498" lon="6.0839">
        <ele>565</ele>
        <time>2016-07-31T06:02:12Z</time>
      </trkpt>
      <trkpt lat="43.81505" lon="6.08417">
        <ele>564</ele>
        <time>2016-07-31T06:02:17Z</time>
      </trkpt>
      <trkpt lat="43.81518" lon="6.08446">
        <ele>564</ele>
        <time>2016-07-31T06:02:23Z</time>
      </trkpt>
      <trkpt lat="43.81532" lon="6.08471">
        <ele>562</ele>
        <time>2016-07-31T06:02:28Z</time>
      </trkpt>
      <trkpt lat="43.81546" lon="6.08503">
        <ele>561</ele>
        <time>2016-07-31T06:02:34Z</time>
      </trkpt>
      <trkpt lat="43.81553" lon="6.08516">
        <ele>560</ele>
        <time>2016-07-31T06:02:37Z</time>
      </trkpt>
      <trkpt lat="43.81568" lon="6.08545">
        <ele>560</ele>
        <time>2016-07-31T06:02:43Z</time>
      </trkpt>
      <trkpt lat="43.81581" lon="6.08574">
        <ele>559</ele>
        <time>2016-07-31T06:02:49Z</time>
      </trkpt>
      <trkpt lat="43.81593" lon="6.08603">
        <ele>560</ele>
        <time>2016-07-31T06:02:55Z</time>
      </trkpt>
      <trkpt lat="43.81604" lon="6.08628">
        <ele>560</ele>
        <time>2016-07-31T06:03:00Z</time>
      </trkpt>
      <trkpt lat="43.81614" lon="6.08653">
        <ele>559</ele>
        <time>2016-07-31T06:03:05Z</time>
      </trkpt>
      <trkpt lat="43.81623" lon="6.08678">
        <ele>558</ele>
        <time>2016-07-31T06:03:10Z</time>
      </trkpt>
      <trkpt lat="43.81634" lon="6.08704">
        <ele>561</ele>
        <time>2016-07-31T06:03:16Z</time>
      </trkpt>
      <trkpt lat="43.81648" lon="6.08721">
        <ele>567</ele>
        <time>2016-07-31T06:03:23Z</time>
      </trkpt>
      <trkpt lat="43.81663" lon="6.08768">
        <ele>563</ele>
        <time>2016-07-31T06:03:32Z</time>
      </trkpt>
      <trkpt lat="43.81669" lon="6.08797">
        <ele>564</ele>
        <time>2016-07-31T06:03:37Z</time>
      </trkpt>
      <trkpt lat="43.81677" lon="6.08825">
        <ele>566</ele>
        <time>2016-07-31T06:03:44Z</time>
      </trkpt>
      <trkpt lat="43.81681" lon="6.0885">
        <ele>567</ele>
        <time>2016-07-31T06:03:49Z</time>
      </trkpt>
      <trkpt lat="43.81682" lon="6.08866">
        <ele>567</ele>
        <time>2016-07-31T06:03:52Z</time>
      </trkpt>
      <trkpt lat="43.81692" lon="6.0889">
        <ele>564</ele>
        <time>2016-07-31T06:04:00Z</time>
      </trkpt>
      <trkpt lat="43.81694" lon="6.08929">
        <ele>563</ele>
        <time>2016-07-31T06:04:09Z</time>
      </trkpt>
      <trkpt lat="43.81693" lon="6.08953">
        <ele>563</ele>
        <time>2016-07-31T06:04:14Z</time>
      </trkpt>
      <trkpt lat="43.81692" lon="6.08971">
        <ele>564</ele>
        <time>2016-07-31T06:04:18Z</time>
      </trkpt>
      <trkpt lat="43.8169" lon="6.09001">
        <ele>564</ele>
        <time>2016-07-31T06:04:25Z</time>
      </trkpt>
      <trkpt lat="43.81698" lon="6.09025">
        <ele>560</ele>
        <time>2016-07-31T06:04:32Z</time>
      </trkpt>
      <trkpt lat="43.81698" lon="6.09025">
        <ele>560</ele>
        <time>2016-07-31T06:04:37Z</time>
      </trkpt>
      <trkpt lat="43.81698" lon="6.09025">
        <ele>560</ele>
        <time>2016-07-31T06:04:38Z</time>
      </trkpt>
      <trkpt lat="43.81712" lon="6.0902">
        <ele>571</ele>
        <time>2016-07-31T06:09:37Z</time>
      </trkpt>
      <trkpt lat="43.81726" lon="6.09022">
        <ele>572</ele>
        <time>2016-07-31T06:09:42Z</time>
      </trkpt>
      <trkpt lat="43.81738" lon="6.09015">
        <ele>570</ele>
        <time>2016-07-31T06:09:47Z</time>
      </trkpt>
      <trkpt lat="43.81752" lon="6.08984">
        <ele>569</ele>
        <time>2016-07-31T06:09:54Z</time>
      </trkpt>
      <trkpt lat="43.81758" lon="6.08953">
        <ele>570</ele>
        <time>2016-07-31T06:10:00Z</time>
      </trkpt>
      <trkpt lat="43.81762" lon="6.0892">
        <ele>570</ele>
        <time>2016-07-31T06:10:06Z</time>
      </trkpt>
      <trkpt lat="43.81778" lon="6.08918">
        <ele>571</ele>
        <time>2016-07-31T06:10:11Z</time>
      </trkpt>
      <trkpt lat="43.81792" lon="6.08931">
        <ele>572</ele>
        <time>2016-07-31T06:10:17Z</time>
      </trkpt>
      <trkpt lat="43.81806" lon="6.08949">
        <ele>575</ele>
        <time>2016-07-31T06:10:24Z</time>
      </trkpt>
      <trkpt lat="43.81826" lon="6.0897">
        <ele>573</ele>
        <time>2016-07-31T06:10:32Z</time>
      </trkpt>
      <trkpt lat="43.81842" lon="6.08984">
        <ele>573</ele>
        <time>2016-07-31T06:10:39Z</time>
      </trkpt>
      <trkpt lat="43.81856" lon="6.0902">
        <ele>575</ele>
        <time>2016-07-31T06:10:49Z</time>
      </trkpt>
      <trkpt lat="43.81863" lon="6.09045">
        <ele>578</ele>
        <time>2016-07-31T06:10:56Z</time>
      </trkpt>
      <trkpt lat="43.81873" lon="6.09065">
        <ele>582</ele>
        <time>2016-07-31T06:11:03Z</time>
      </trkpt>
      <trkpt lat="43.81886" lon="6.09075">
        <ele>584</ele>
        <time>2016-07-31T06:11:10Z</time>
      </trkpt>
      <trkpt lat="43.81899" lon="6.09092">
        <ele>584</ele>
        <time>2016-07-31T06:11:18Z</time>
      </trkpt>
      <trkpt lat="43.81913" lon="6.09106">
        <ele>588</ele>
        <time>2016-07-31T06:11:28Z</time>
      </trkpt>
      <trkpt lat="43.81924" lon="6.09114">
        <ele>589</ele>
        <time>2016-07-31T06:11:41Z</time>
      </trkpt>
      <trkpt lat="43.81939" lon="6.09125">
        <ele>586</ele>
        <time>2016-07-31T06:11:51Z</time>
      </trkpt>
      <trkpt lat="43.81952" lon="6.09135">
        <ele>586</ele>
        <time>2016-07-31T06:11:58Z</time>
      </trkpt>
      <trkpt lat="43.8197" lon="6.09137">
        <ele>585</ele>
        <time>2016-07-31T06:12:06Z</time>
      </trkpt>
      <trkpt lat="43.82006" lon="6.09142">
        <ele>586</ele>
        <time>2016-07-31T06:12:16Z</time>
      </trkpt>
      <trkpt lat="43.82026" lon="6.09152">
        <ele>591</ele>
        <time>2016-07-31T06:12:24Z</time>
      </trkpt>
      <trkpt lat="43.82045" lon="6.09165">
        <ele>592</ele>
        <time>2016-07-31T06:12:31Z</time>
      </trkpt>
      <trkpt lat="43.82062" lon="6.09174">
        <ele>593</ele>
        <time>2016-07-31T06:12:38Z</time>
      </trkpt>
      <trkpt lat="43.82074" lon="6.09185">
        <ele>592</ele>
        <time>2016-07-31T06:12:43Z</time>
      </trkpt>
      <trkpt lat="43.82083" lon="6.09205">
        <ele>592</ele>
        <time>2016-07-31T06:12:51Z</time>
      </trkpt>
      <trkpt lat="43.82069" lon="6.09206">
        <ele>595</ele>
        <time>2016-07-31T06:12:58Z</time>
      </trkpt>
      <trkpt lat="43.82051" lon="6.09204">
        <ele>591</ele>
        <time>2016-07-31T06:13:05Z</time>
      </trkpt>
      <trkpt lat="43.8203" lon="6.09202">
        <ele>590</ele>
        <time>2016-07-31T06:13:13Z</time>
      </trkpt>
      <trkpt lat="43.82013" lon="6.09201">
        <ele>588</ele>
        <time>2016-07-31T06:13:21Z</time>
      </trkpt>
      <trkpt lat="43.82008" lon="6.09203">
        <ele>591</ele>
        <time>2016-07-31T06:13:24Z</time>
      </trkpt>
      <trkpt lat="43.82013" lon="6.09201">
        <ele>588</ele>
        <time>2016-07-31T06:13:32Z</time>
      </trkpt>
      <trkpt lat="43.82035" lon="6.09225">
        <ele>601</ele>
        <time>2016-07-31T06:13:44Z</time>
      </trkpt>
      <trkpt lat="43.8205" lon="6.09239">
        <ele>601</ele>
        <time>2016-07-31T06:13:55Z</time>
      </trkpt>
      <trkpt lat="43.8207" lon="6.09259">
        <ele>603</ele>
        <time>2016-07-31T06:14:09Z</time>
      </trkpt>
      <trkpt lat="43.82085" lon="6.09278">
        <ele>604</ele>
        <time>2016-07-31T06:14:20Z</time>
      </trkpt>
      <trkpt lat="43.82095" lon="6.09292">
        <ele>606</ele>
        <time>2016-07-31T06:14:28Z</time>
      </trkpt>
      <trkpt lat="43.8211" lon="6.09311">
        <ele>608</ele>
        <time>2016-07-31T06:14:40Z</time>
      </trkpt>
      <trkpt lat="43.82123" lon="6.09326">
        <ele>611</ele>
        <time>2016-07-31T06:14:52Z</time>
      </trkpt>
      <trkpt lat="43.82135" lon="6.09347">
        <ele>611</ele>
        <time>2016-07-31T06:15:04Z</time>
      </trkpt>
      <trkpt lat="43.82145" lon="6.09358">
        <ele>615</ele>
        <time>2016-07-31T06:15:13Z</time>
      </trkpt>
      <trkpt lat="43.82143" lon="6.0937">
        <ele>618</ele>
        <time>2016-07-31T06:15:26Z</time>
      </trkpt>
      <trkpt lat="43.82128" lon="6.09358">
        <ele>619</ele>
        <time>2016-07-31T06:15:37Z</time>
      </trkpt>
      <trkpt lat="43.82114" lon="6.09349">
        <ele>621</ele>
        <time>2016-07-31T06:15:47Z</time>
      </trkpt>
      <trkpt lat="43.82103" lon="6.09345">
        <ele>617</ele>
        <time>2016-07-31T06:15:54Z</time>
      </trkpt>
      <trkpt lat="43.82114" lon="6.09362">
        <ele>624</ele>
        <time>2016-07-31T06:16:08Z</time>
      </trkpt>
      <trkpt lat="43.82124" lon="6.0938">
        <ele>626</ele>
        <time>2016-07-31T06:16:18Z</time>
      </trkpt>
      <trkpt lat="43.82132" lon="6.09401">
        <ele>627</ele>
        <time>2016-07-31T06:16:31Z</time>
      </trkpt>
      <trkpt lat="43.82139" lon="6.09425">
        <ele>631</ele>
        <time>2016-07-31T06:16:46Z</time>
      </trkpt>
      <trkpt lat="43.82142" lon="6.09443">
        <ele>631</ele>
        <time>2016-07-31T06:16:56Z</time>
      </trkpt>
      <trkpt lat="43.82147" lon="6.09458">
        <ele>634</ele>
        <time>2016-07-31T06:17:08Z</time>
      </trkpt>
      <trkpt lat="43.82161" lon="6.09471">
        <ele>637</ele>
        <time>2016-07-31T06:17:21Z</time>
      </trkpt>
      <trkpt lat="43.82174" lon="6.09495">
        <ele>639</ele>
        <time>2016-07-31T06:17:37Z</time>
      </trkpt>
      <trkpt lat="43.82183" lon="6.09512">
        <ele>642</ele>
        <time>2016-07-31T06:17:49Z</time>
      </trkpt>
      <trkpt lat="43.8219" lon="6.09535">
        <ele>642</ele>
        <time>2016-07-31T06:18:02Z</time>
      </trkpt>
      <trkpt lat="43.82192" lon="6.09567">
        <ele>639</ele>
        <time>2016-07-31T06:18:18Z</time>
      </trkpt>
      <trkpt lat="43.82191" lon="6.09571">
        <ele>637</ele>
        <time>2016-07-31T06:18:20Z</time>
      </trkpt>
      <trkpt lat="43.82181" lon="6.09563">
        <ele>635</ele>
        <time>2016-07-31T06:18:33Z</time>
      </trkpt>
      <trkpt lat="43.82168" lon="6.09545">
        <ele>639</ele>
        <time>2016-07-31T06:18:45Z</time>
      </trkpt>
      <trkpt lat="43.82158" lon="6.09539">
        <ele>636</ele>
        <time>2016-07-31T06:18:53Z</time>
      </trkpt>
      <trkpt lat="43.82158" lon="6.09539">
        <ele>636</ele>
        <time>2016-07-31T06:19:01Z</time>
      </trkpt>
      <trkpt lat="43.82167" lon="6.09564">
        <ele>645</ele>
        <time>2016-07-31T06:19:08Z</time>
      </trkpt>
      <trkpt lat="43.82168" lon="6.09583">
        <ele>645</ele>
        <time>2016-07-31T06:19:17Z</time>
      </trkpt>
      <trkpt lat="43.82166" lon="6.09604">
        <ele>643</ele>
        <time>2016-07-31T06:19:29Z</time>
      </trkpt>
      <trkpt lat="43.8217" lon="6.09635">
        <ele>647</ele>
        <time>2016-07-31T06:19:47Z</time>
      </trkpt>
      <trkpt lat="43.82172" lon="6.09656">
        <ele>648</ele>
        <time>2016-07-31T06:19:58Z</time>
      </trkpt>
      <trkpt lat="43.82176" lon="6.0967">
        <ele>656</ele>
        <time>2016-07-31T06:20:08Z</time>
      </trkpt>
      <trkpt lat="43.8218" lon="6.09698">
        <ele>657</ele>
        <time>2016-07-31T06:20:25Z</time>
      </trkpt>
      <trkpt lat="43.82183" lon="6.09733">
        <ele>658</ele>
        <time>2016-07-31T06:20:40Z</time>
      </trkpt>
      <trkpt lat="43.82187" lon="6.09752">
        <ele>665</ele>
        <time>2016-07-31T06:20:50Z</time>
      </trkpt>
      <trkpt lat="43.82194" lon="6.09783">
        <ele>671</ele>
        <time>2016-07-31T06:21:07Z</time>
      </trkpt>
      <trkpt lat="43.82194" lon="6.09805">
        <ele>665</ele>
        <time>2016-07-31T06:21:15Z</time>
      </trkpt>
      <trkpt lat="43.82201" lon="6.0983">
        <ele>669</ele>
        <time>2016-07-31T06:21:27Z</time>
      </trkpt>
      <trkpt lat="43.8221" lon="6.09853">
        <ele>669</ele>
        <time>2016-07-31T06:21:40Z</time>
      </trkpt>
      <trkpt lat="43.82212" lon="6.09884">
        <ele>670</ele>
        <time>2016-07-31T06:21:52Z</time>
      </trkpt>
      <trkpt lat="43.82214" lon="6.09914">
        <ele>668</ele>
        <time>2016-07-31T06:22:05Z</time>
      </trkpt>
      <trkpt lat="43.82218" lon="6.09941">
        <ele>667</ele>
        <time>2016-07-31T06:22:17Z</time>
      </trkpt>
      <trkpt lat="43.82219" lon="6.09963">
        <ele>669</ele>
        <time>2016-07-31T06:22:27Z</time>
      </trkpt>
      <trkpt lat="43.82225" lon="6.09986">
        <ele>674</ele>
        <time>2016-07-31T06:22:40Z</time>
      </trkpt>
      <trkpt lat="43.82243" lon="6.0999">
        <ele>681</ele>
        <time>2016-07-31T06:22:54Z</time>
      </trkpt>
      <trkpt lat="43.82253" lon="6.09994">
        <ele>683</ele>
        <time>2016-07-31T06:23:02Z</time>
      </trkpt>
      <trkpt lat="43.82269" lon="6.10008">
        <ele>685</ele>
        <time>2016-07-31T06:23:15Z</time>
      </trkpt>
      <trkpt lat="43.82282" lon="6.10026">
        <ele>691</ele>
        <time>2016-07-31T06:23:28Z</time>
      </trkpt>
      <trkpt lat="43.8229" lon="6.10053">
        <ele>691</ele>
        <time>2016-07-31T06:23:42Z</time>
      </trkpt>
      <trkpt lat="43.82293" lon="6.10076">
        <ele>692</ele>
        <time>2016-07-31T06:23:51Z</time>
      </trkpt>
      <trkpt lat="43.82292" lon="6.10097">
        <ele>684</ele>
        <time>2016-07-31T06:24:00Z</time>
      </trkpt>
      <trkpt lat="43.82293" lon="6.10117">
        <ele>686</ele>
        <time>2016-07-31T06:24:10Z</time>
      </trkpt>
      <trkpt lat="43.82291" lon="6.10118">
        <ele>682</ele>
        <time>2016-07-31T06:24:18Z</time>
      </trkpt>
      <trkpt lat="43.82283" lon="6.10134">
        <ele>688</ele>
        <time>2016-07-31T06:27:19Z</time>
      </trkpt>
      <trkpt lat="43.82286" lon="6.10156">
        <ele>692</ele>
        <time>2016-07-31T06:27:27Z</time>
      </trkpt>
      <trkpt lat="43.82304" lon="6.10165">
        <ele>693</ele>
        <time>2016-07-31T06:27:36Z</time>
      </trkpt>
      <trkpt lat="43.82324" lon="6.10174">
        <ele>696</ele>
        <time>2016-07-31T06:27:45Z</time>
      </trkpt>
      <trkpt lat="43.82337" lon="6.10191">
        <ele>699</ele>
        <time>2016-07-31T06:27:54Z</time>
      </trkpt>
      <trkpt lat="43.82345" lon="6.10207">
        <ele>702</ele>
        <time>2016-07-31T06:28:02Z</time>
      </trkpt>
      <trkpt lat="43.82356" lon="6.10234">
        <ele>703</ele>
        <time>2016-07-31T06:28:13Z</time>
      </trkpt>
      <trkpt lat="43.82361" lon="6.10248">
        <ele>704</ele>
        <time>2016-07-31T06:28:18Z</time>
      </trkpt>
      <trkpt lat="43.82371" lon="6.10272">
        <ele>705</ele>
        <time>2016-07-31T06:28:28Z</time>
      </trkpt>
      <trkpt lat="43.82373" lon="6.10289">
        <ele>705</ele>
        <time>2016-07-31T06:28:34Z</time>
      </trkpt>
      <trkpt lat="43.8238" lon="6.10317">
        <ele>705</ele>
        <time>2016-07-31T06:28:43Z</time>
      </trkpt>
      <trkpt lat="43.8239" lon="6.10352">
        <ele>707</ele>
        <time>2016-07-31T06:28:52Z</time>
      </trkpt>
      <trkpt lat="43.82399" lon="6.10377">
        <ele>707</ele>
        <time>2016-07-31T06:28:58Z</time>
      </trkpt>
      <trkpt lat="43.82409" lon="6.10408">
        <ele>708</ele>
        <time>2016-07-31T06:29:05Z</time>
      </trkpt>
      <trkpt lat="43.82418" lon="6.10434">
        <ele>709</ele>
        <time>2016-07-31T06:29:11Z</time>
      </trkpt>
      <trkpt lat="43.82427" lon="6.10459">
        <ele>711</ele>
        <time>2016-07-31T06:29:17Z</time>
      </trkpt>
      <trkpt lat="43.82437" lon="6.10485">
        <ele>712</ele>
        <time>2016-07-31T06:29:23Z</time>
      </trkpt>
      <trkpt lat="43.82447" lon="6.10517">
        <ele>712</ele>
        <time>2016-07-31T06:29:30Z</time>
      </trkpt>
      <trkpt lat="43.82453" lon="6.1054">
        <ele>711</ele>
        <time>2016-07-31T06:29:35Z</time>
      </trkpt>
      <trkpt lat="43.82463" lon="6.10576">
        <ele>711</ele>
        <time>2016-07-31T06:29:42Z</time>
      </trkpt>
      <trkpt lat="43.82471" lon="6.10605">
        <ele>711</ele>
        <time>2016-07-31T06:29:48Z</time>
      </trkpt>
      <trkpt lat="43.82479" lon="6.10634">
        <ele>710</ele>
        <time>2016-07-31T06:29:54Z</time>
      </trkpt>
      <trkpt lat="43.82483" lon="6.1066">
        <ele>711</ele>
        <time>2016-07-31T06:29:59Z</time>
      </trkpt>
      <trkpt lat="43.82491" lon="6.10687">
        <ele>712</ele>
        <time>2016-07-31T06:30:05Z</time>
      </trkpt>
      <trkpt lat="43.82498" lon="6.10714">
        <ele>715</ele>
        <time>2016-07-31T06:30:11Z</time>
      </trkpt>
      <trkpt lat="43.82505" lon="6.10749">
        <ele>710</ele>
        <time>2016-07-31T06:30:18Z</time>
      </trkpt>
      <trkpt lat="43.82504" lon="6.10784">
        <ele>709</ele>
        <time>2016-07-31T06:30:24Z</time>
      </trkpt>
      <trkpt lat="43.82503" lon="6.10802">
        <ele>708</ele>
        <time>2016-07-31T06:30:27Z</time>
      </trkpt>
      <trkpt lat="43.82501" lon="6.10823">
        <ele>709</ele>
        <time>2016-07-31T06:30:30Z</time>
      </trkpt>
      <trkpt lat="43.825" lon="6.10854">
        <ele>708</ele>
        <time>2016-07-31T06:30:35Z</time>
      </trkpt>
      <trkpt lat="43.8251" lon="6.1089">
        <ele>710</ele>
        <time>2016-07-31T06:30:41Z</time>
      </trkpt>
      <trkpt lat="43.82525" lon="6.10926">
        <ele>711</ele>
        <time>2016-07-31T06:30:48Z</time>
      </trkpt>
      <trkpt lat="43.82542" lon="6.10952">
        <ele>711</ele>
        <time>2016-07-31T06:30:54Z</time>
      </trkpt>
      <trkpt lat="43.82557" lon="6.10973">
        <ele>711</ele>
        <time>2016-07-31T06:30:59Z</time>
      </trkpt>
      <trkpt lat="43.82572" lon="6.10992">
        <ele>711</ele>
        <time>2016-07-31T06:31:04Z</time>
      </trkpt>
      <trkpt lat="43.82587" lon="6.1101">
        <ele>712</ele>
        <time>2016-07-31T06:31:09Z</time>
      </trkpt>
      <trkpt lat="43.826" lon="6.11029">
        <ele>713</ele>
        <time>2016-07-31T06:31:14Z</time>
      </trkpt>
      <trkpt lat="43.8262" lon="6.11054">
        <ele>713</ele>
        <time>2016-07-31T06:31:21Z</time>
      </trkpt>
      <trkpt lat="43.82636" lon="6.11077">
        <ele>713</ele>
        <time>2016-07-31T06:31:27Z</time>
      </trkpt>
      <trkpt lat="43.82644" lon="6.11089">
        <ele>713</ele>
        <time>2016-07-31T06:31:30Z</time>
      </trkpt>
      <trkpt lat="43.82652" lon="6.11101">
        <ele>712</ele>
        <time>2016-07-31T06:31:33Z</time>
      </trkpt>
      <trkpt lat="43.82661" lon="6.11114">
        <ele>713</ele>
        <time>2016-07-31T06:31:36Z</time>
      </trkpt>
      <trkpt lat="43.82675" lon="6.11133">
        <ele>713</ele>
        <time>2016-07-31T06:31:41Z</time>
      </trkpt>
      <trkpt lat="43.82692" lon="6.11158">
        <ele>712</ele>
        <time>2016-07-31T06:31:47Z</time>
      </trkpt>
      <trkpt lat="43.8271" lon="6.11188">
        <ele>712</ele>
        <time>2016-07-31T06:31:54Z</time>
      </trkpt>
      <trkpt lat="43.82722" lon="6.11217">
        <ele>711</ele>
        <time>2016-07-31T06:32:00Z</time>
      </trkpt>
      <trkpt lat="43.82733" lon="6.11247">
        <ele>713</ele>
        <time>2016-07-31T06:32:06Z</time>
      </trkpt>
      <trkpt lat="43.82747" lon="6.1127">
        <ele>712</ele>
        <time>2016-07-31T06:32:12Z</time>
      </trkpt>
      <trkpt lat="43.82758" lon="6.11298">
        <ele>712</ele>
        <time>2016-07-31T06:32:19Z</time>
      </trkpt>
      <trkpt lat="43.82765" lon="6.11324">
        <ele>713</ele>
        <time>2016-07-31T06:32:26Z</time>
      </trkpt>
      <trkpt lat="43.82778" lon="6.11352">
        <ele>714</ele>
        <time>2016-07-31T06:32:34Z</time>
      </trkpt>
      <trkpt lat="43.82787" lon="6.11374">
        <ele>715</ele>
        <time>2016-07-31T06:32:40Z</time>
      </trkpt>
      <trkpt lat="43.82793" lon="6.11388">
        <ele>716</ele>
        <time>2016-07-31T06:32:44Z</time>
      </trkpt>
      <trkpt lat="43.82803" lon="6.11418">
        <ele>716</ele>
        <time>2016-07-31T06:32:51Z</time>
      </trkpt>
      <trkpt lat="43.82809" lon="6.11436">
        <ele>716</ele>
        <time>2016-07-31T06:32:55Z</time>
      </trkpt>
      <trkpt lat="43.82816" lon="6.11464">
        <ele>716</ele>
        <time>2016-07-31T06:33:01Z</time>
      </trkpt>
      <trkpt lat="43.82825" lon="6.11494">
        <ele>716</ele>
        <time>2016-07-31T06:33:07Z</time>
      </trkpt>
      <trkpt lat="43.82833" lon="6.11522">
        <ele>715</ele>
        <time>2016-07-31T06:33:12Z</time>
      </trkpt>
      <trkpt lat="43.82841" lon="6.11556">
        <ele>716</ele>
        <time>2016-07-31T06:33:18Z</time>
      </trkpt>
      <trkpt lat="43.82842" lon="6.11586">
        <ele>715</ele>
        <time>2016-07-31T06:33:23Z</time>
      </trkpt>
      <trkpt lat="43.8285" lon="6.11617">
        <ele>717</ele>
        <time>2016-07-31T06:33:29Z</time>
      </trkpt>
      <trkpt lat="43.82866" lon="6.11635">
        <ele>716</ele>
        <time>2016-07-31T06:33:35Z</time>
      </trkpt>
      <trkpt lat="43.82884" lon="6.1165">
        <ele>714</ele>
        <time>2016-07-31T06:33:41Z</time>
      </trkpt>
      <trkpt lat="43.82894" lon="6.11668">
        <ele>713</ele>
        <time>2016-07-31T06:33:46Z</time>
      </trkpt>
      <trkpt lat="43.82901" lon="6.11679">
        <ele>714</ele>
        <time>2016-07-31T06:33:49Z</time>
      </trkpt>
      <trkpt lat="43.82914" lon="6.11709">
        <ele>714</ele>
        <time>2016-07-31T06:33:56Z</time>
      </trkpt>
      <trkpt lat="43.82929" lon="6.1174">
        <ele>718</ele>
        <time>2016-07-31T06:34:04Z</time>
      </trkpt>
      <trkpt lat="43.82942" lon="6.11761">
        <ele>716</ele>
        <time>2016-07-31T06:34:11Z</time>
      </trkpt>
      <trkpt lat="43.82956" lon="6.11783">
        <ele>716</ele>
        <time>2016-07-31T06:34:17Z</time>
      </trkpt>
      <trkpt lat="43.82968" lon="6.11806">
        <ele>715</ele>
        <time>2016-07-31T06:34:23Z</time>
      </trkpt>
      <trkpt lat="43.82984" lon="6.11822">
        <ele>718</ele>
        <time>2016-07-31T06:34:29Z</time>
      </trkpt>
      <trkpt lat="43.83002" lon="6.11844">
        <ele>717</ele>
        <time>2016-07-31T06:34:34Z</time>
      </trkpt>
      <trkpt lat="43.83015" lon="6.11854">
        <ele>718</ele>
        <time>2016-07-31T06:34:38Z</time>
      </trkpt>
      <trkpt lat="43.83034" lon="6.11872">
        <ele>718</ele>
        <time>2016-07-31T06:34:44Z</time>
      </trkpt>
      <trkpt lat="43.83056" lon="6.11893">
        <ele>716</ele>
        <time>2016-07-31T06:34:51Z</time>
      </trkpt>
      <trkpt lat="43.83077" lon="6.11917">
        <ele>716</ele>
        <time>2016-07-31T06:34:58Z</time>
      </trkpt>
      <trkpt lat="43.83092" lon="6.11934">
        <ele>716</ele>
        <time>2016-07-31T06:35:03Z</time>
      </trkpt>
      <trkpt lat="43.83114" lon="6.11959">
        <ele>716</ele>
        <time>2016-07-31T06:35:10Z</time>
      </trkpt>
      <trkpt lat="43.83132" lon="6.1198">
        <ele>716</ele>
        <time>2016-07-31T06:35:16Z</time>
      </trkpt>
      <trkpt lat="43.8315" lon="6.12001">
        <ele>716</ele>
        <time>2016-07-31T06:35:22Z</time>
      </trkpt>
      <trkpt lat="43.83167" lon="6.12016">
        <ele>716</ele>
        <time>2016-07-31T06:35:27Z</time>
      </trkpt>
      <trkpt lat="43.83189" lon="6.12036">
        <ele>717</ele>
        <time>2016-07-31T06:35:34Z</time>
      </trkpt>
      <trkpt lat="43.83209" lon="6.12054">
        <ele>717</ele>
        <time>2016-07-31T06:35:41Z</time>
      </trkpt>
      <trkpt lat="43.83229" lon="6.12074">
        <ele>718</ele>
        <time>2016-07-31T06:35:48Z</time>
      </trkpt>
      <trkpt lat="43.83248" lon="6.12095">
        <ele>719</ele>
        <time>2016-07-31T06:35:55Z</time>
      </trkpt>
      <trkpt lat="43.83269" lon="6.12116">
        <ele>720</ele>
        <time>2016-07-31T06:36:02Z</time>
      </trkpt>
      <trkpt lat="43.83289" lon="6.12137">
        <ele>720</ele>
        <time>2016-07-31T06:36:09Z</time>
      </trkpt>
      <trkpt lat="43.833" lon="6.12149">
        <ele>721</ele>
        <time>2016-07-31T06:36:13Z</time>
      </trkpt>
      <trkpt lat="43.83314" lon="6.12164">
        <ele>721</ele>
        <time>2016-07-31T06:36:18Z</time>
      </trkpt>
      <trkpt lat="43.83322" lon="6.12178">
        <ele>721</ele>
        <time>2016-07-31T06:36:22Z</time>
      </trkpt>
      <trkpt lat="43.83307" lon="6.12202">
        <ele>720</ele>
        <time>2016-07-31T06:36:30Z</time>
      </trkpt>
      <trkpt lat="43.83294" lon="6.12219">
        <ele>721</ele>
        <time>2016-07-31T06:36:35Z</time>
      </trkpt>
      <trkpt lat="43.83288" lon="6.12233">
        <ele>723</ele>
        <time>2016-07-31T06:36:39Z</time>
      </trkpt>
      <trkpt lat="43.83273" lon="6.12255">
        <ele>725</ele>
        <time>2016-07-31T06:36:47Z</time>
      </trkpt>
      <trkpt lat="43.83257" lon="6.12275">
        <ele>724</ele>
        <time>2016-07-31T06:36:54Z</time>
      </trkpt>
      <trkpt lat="43.83239" lon="6.12301">
        <ele>716</ele>
        <time>2016-07-31T06:37:01Z</time>
      </trkpt>
      <trkpt lat="43.83218" lon="6.12322">
        <ele>715</ele>
        <time>2016-07-31T06:37:07Z</time>
      </trkpt>
      <trkpt lat="43.83198" lon="6.1235">
        <ele>711</ele>
        <time>2016-07-31T06:37:13Z</time>
      </trkpt>
      <trkpt lat="43.83174" lon="6.124">
        <ele>702</ele>
        <time>2016-07-31T06:37:20Z</time>
      </trkpt>
      <trkpt lat="43.83161" lon="6.12424">
        <ele>699</ele>
        <time>2016-07-31T06:37:26Z</time>
      </trkpt>
      <trkpt lat="43.83146" lon="6.12455">
        <ele>698</ele>
        <time>2016-07-31T06:37:31Z</time>
      </trkpt>
      <trkpt lat="43.8313" lon="6.12501">
        <ele>697</ele>
        <time>2016-07-31T06:37:36Z</time>
      </trkpt>
      <trkpt lat="43.83102" lon="6.12532">
        <ele>693</ele>
        <time>2016-07-31T06:37:42Z</time>
      </trkpt>
      <trkpt lat="43.83083" lon="6.12565">
        <ele>696</ele>
        <time>2016-07-31T06:37:47Z</time>
      </trkpt>
      <trkpt lat="43.83065" lon="6.12596">
        <ele>694</ele>
        <time>2016-07-31T06:37:52Z</time>
      </trkpt>
      <trkpt lat="43.83042" lon="6.12632">
        <ele>688</ele>
        <time>2016-07-31T06:37:57Z</time>
      </trkpt>
      <trkpt lat="43.83016" lon="6.12692">
        <ele>677</ele>
        <time>2016-07-31T06:38:06Z</time>
      </trkpt>
      <trkpt lat="43.83" lon="6.12742">
        <ele>669</ele>
        <time>2016-07-31T06:38:11Z</time>
      </trkpt>
      <trkpt lat="43.82995" lon="6.12783">
        <ele>667</ele>
        <time>2016-07-31T06:38:17Z</time>
      </trkpt>
      <trkpt lat="43.82992" lon="6.1283">
        <ele>660</ele>
        <time>2016-07-31T06:38:23Z</time>
      </trkpt>
      <trkpt lat="43.82995" lon="6.12864">
        <ele>656</ele>
        <time>2016-07-31T06:38:28Z</time>
      </trkpt>
      <trkpt lat="43.82999" lon="6.12901">
        <ele>655</ele>
        <time>2016-07-31T06:38:34Z</time>
      </trkpt>
      <trkpt lat="43.82957" lon="6.12907">
        <ele>647</ele>
        <time>2016-07-31T06:38:42Z</time>
      </trkpt>
      <trkpt lat="43.82921" lon="6.12912">
        <ele>647</ele>
        <time>2016-07-31T06:38:47Z</time>
      </trkpt>
      <trkpt lat="43.82911" lon="6.12889">
        <ele>644</ele>
        <time>2016-07-31T06:38:53Z</time>
      </trkpt>
      <trkpt lat="43.82906" lon="6.12854">
        <ele>642</ele>
        <time>2016-07-31T06:38:58Z</time>
      </trkpt>
      <trkpt lat="43.82904" lon="6.12831">
        <ele>640</ele>
        <time>2016-07-31T06:39:02Z</time>
      </trkpt>
      <trkpt lat="43.829" lon="6.12802">
        <ele>639</ele>
        <time>2016-07-31T06:39:07Z</time>
      </trkpt>
      <trkpt lat="43.82896" lon="6.12778">
        <ele>641</ele>
        <time>2016-07-31T06:39:12Z</time>
      </trkpt>
      <trkpt lat="43.82894" lon="6.1275">
        <ele>642</ele>
        <time>2016-07-31T06:39:17Z</time>
      </trkpt>
      <trkpt lat="43.82876" lon="6.12726">
        <ele>640</ele>
        <time>2016-07-31T06:39:23Z</time>
      </trkpt>
      <trkpt lat="43.82838" lon="6.12734">
        <ele>638</ele>
        <time>2016-07-31T06:39:29Z</time>
      </trkpt>
      <trkpt lat="43.82809" lon="6.12726">
        <ele>636</ele>
        <time>2016-07-31T06:39:34Z</time>
      </trkpt>
      <trkpt lat="43.82815" lon="6.12679">
        <ele>633</ele>
        <time>2016-07-31T06:39:40Z</time>
      </trkpt>
      <trkpt lat="43.8282" lon="6.12639">
        <ele>633</ele>
        <time>2016-07-31T06:39:45Z</time>
      </trkpt>
      <trkpt lat="43.82816" lon="6.12596">
        <ele>635</ele>
        <time>2016-07-31T06:39:52Z</time>
      </trkpt>
      <trkpt lat="43.82816" lon="6.12571">
        <ele>637</ele>
        <time>2016-07-31T06:39:57Z</time>
      </trkpt>
      <trkpt lat="43.8281" lon="6.12543">
        <ele>641</ele>
        <time>2016-07-31T06:40:06Z</time>
      </trkpt>
      <trkpt lat="43.82797" lon="6.12525">
        <ele>642</ele>
        <time>2016-07-31T06:40:14Z</time>
      </trkpt>
      <trkpt lat="43.82777" lon="6.12488">
        <ele>637</ele>
        <time>2016-07-31T06:40:20Z</time>
      </trkpt>
      <trkpt lat="43.82758" lon="6.12458">
        <ele>634</ele>
        <time>2016-07-31T06:40:25Z</time>
      </trkpt>
      <trkpt lat="43.82737" lon="6.12424">
        <ele>634</ele>
        <time>2016-07-31T06:40:30Z</time>
      </trkpt>
      <trkpt lat="43.8271" lon="6.12402">
        <ele>634</ele>
        <time>2016-07-31T06:40:36Z</time>
      </trkpt>
      <trkpt lat="43.8268" lon="6.1237">
        <ele>633</ele>
        <time>2016-07-31T06:40:43Z</time>
      </trkpt>
      <trkpt lat="43.82656" lon="6.12346">
        <ele>632</ele>
        <time>2016-07-31T06:40:49Z</time>
      </trkpt>
      <trkpt lat="43.82637" lon="6.1232">
        <ele>628</ele>
        <time>2016-07-31T06:40:54Z</time>
      </trkpt>
      <trkpt lat="43.82605" lon="6.12358">
        <ele>626</ele>
        <time>2016-07-31T06:41:00Z</time>
      </trkpt>
      <trkpt lat="43.82582" lon="6.12408">
        <ele>626</ele>
        <time>2016-07-31T06:41:06Z</time>
      </trkpt>
      <trkpt lat="43.82569" lon="6.12436">
        <ele>625</ele>
        <time>2016-07-31T06:41:11Z</time>
      </trkpt>
      <trkpt lat="43.82558" lon="6.12461">
        <ele>625</ele>
        <time>2016-07-31T06:41:16Z</time>
      </trkpt>
      <trkpt lat="43.8255" lon="6.12483">
        <ele>625</ele>
        <time>2016-07-31T06:41:21Z</time>
      </trkpt>
      <trkpt lat="43.82537" lon="6.12508">
        <ele>626</ele>
        <time>2016-07-31T06:41:28Z</time>
      </trkpt>
      <trkpt lat="43.82527" lon="6.12528">
        <ele>630</ele>
        <time>2016-07-31T06:41:34Z</time>
      </trkpt>
      <trkpt lat="43.82522" lon="6.12551">
        <ele>632</ele>
        <time>2016-07-31T06:41:43Z</time>
      </trkpt>
      <trkpt lat="43.82542" lon="6.12578">
        <ele>634</ele>
        <time>2016-07-31T06:41:53Z</time>
      </trkpt>
      <trkpt lat="43.82558" lon="6.12601">
        <ele>636</ele>
        <time>2016-07-31T06:42:02Z</time>
      </trkpt>
      <trkpt lat="43.82572" lon="6.12622">
        <ele>638</ele>
        <time>2016-07-31T06:42:10Z</time>
      </trkpt>
      <trkpt lat="43.82583" lon="6.12644">
        <ele>638</ele>
        <time>2016-07-31T06:42:17Z</time>
      </trkpt>
      <trkpt lat="43.82596" lon="6.12668">
        <ele>640</ele>
        <time>2016-07-31T06:42:25Z</time>
      </trkpt>
      <trkpt lat="43.82597" lon="6.12689">
        <ele>640</ele>
        <time>2016-07-31T06:42:32Z</time>
      </trkpt>
      <trkpt lat="43.82588" lon="6.12705">
        <ele>642</ele>
        <time>2016-07-31T06:42:41Z</time>
      </trkpt>
      <trkpt lat="43.82588" lon="6.12705">
        <ele>642</ele>
        <time>2016-07-31T06:42:48Z</time>
      </trkpt>
      <trkpt lat="43.82588" lon="6.12705">
        <ele>642</ele>
        <time>2016-07-31T06:42:49Z</time>
      </trkpt>
      <trkpt lat="43.82583" lon="6.1273">
        <ele>649</ele>
        <time>2016-07-31T06:42:57Z</time>
      </trkpt>
      <trkpt lat="43.82573" lon="6.12757">
        <ele>648</ele>
        <time>2016-07-31T06:43:08Z</time>
      </trkpt>
      <trkpt lat="43.82559" lon="6.12773">
        <ele>647</ele>
        <time>2016-07-31T06:43:15Z</time>
      </trkpt>
      <trkpt lat="43.82543" lon="6.12794">
        <ele>648</ele>
        <time>2016-07-31T06:43:24Z</time>
      </trkpt>
      <trkpt lat="43.82531" lon="6.12818">
        <ele>647</ele>
        <time>2016-07-31T06:43:32Z</time>
      </trkpt>
      <trkpt lat="43.82517" lon="6.12847">
        <ele>651</ele>
        <time>2016-07-31T06:43:42Z</time>
      </trkpt>
      <trkpt lat="43.82505" lon="6.12874">
        <ele>657</ele>
        <time>2016-07-31T06:43:50Z</time>
      </trkpt>
      <trkpt lat="43.82475" lon="6.12878">
        <ele>652</ele>
        <time>2016-07-31T06:43:56Z</time>
      </trkpt>
      <trkpt lat="43.82448" lon="6.12873">
        <ele>648</ele>
        <time>2016-07-31T06:44:02Z</time>
      </trkpt>
      <trkpt lat="43.82423" lon="6.12869">
        <ele>644</ele>
        <time>2016-07-31T06:44:08Z</time>
      </trkpt>
      <trkpt lat="43.82404" lon="6.1287">
        <ele>641</ele>
        <time>2016-07-31T06:44:13Z</time>
      </trkpt>
      <trkpt lat="43.82384" lon="6.12875">
        <ele>643</ele>
        <time>2016-07-31T06:44:18Z</time>
      </trkpt>
      <trkpt lat="43.82364" lon="6.12881">
        <ele>644</ele>
        <time>2016-07-31T06:44:23Z</time>
      </trkpt>
      <trkpt lat="43.82338" lon="6.12894">
        <ele>643</ele>
        <time>2016-07-31T06:44:32Z</time>
      </trkpt>
      <trkpt lat="43.82315" lon="6.12909">
        <ele>647</ele>
        <time>2016-07-31T06:44:40Z</time>
      </trkpt>
      <trkpt lat="43.82287" lon="6.12936">
        <ele>647</ele>
        <time>2016-07-31T06:44:49Z</time>
      </trkpt>
      <trkpt lat="43.82272" lon="6.12949">
        <ele>648</ele>
        <time>2016-07-31T06:44:54Z</time>
      </trkpt>
      <trkpt lat="43.82243" lon="6.12962">
        <ele>647</ele>
        <time>2016-07-31T06:45:02Z</time>
      </trkpt>
      <trkpt lat="43.82225" lon="6.12954">
        <ele>648</ele>
        <time>2016-07-31T06:45:07Z</time>
      </trkpt>
      <trkpt lat="43.822" lon="6.12953">
        <ele>650</ele>
        <time>2016-07-31T06:45:17Z</time>
      </trkpt>
      <trkpt lat="43.82179" lon="6.12963">
        <ele>649</ele>
        <time>2016-07-31T06:45:28Z</time>
      </trkpt>
      <trkpt lat="43.82162" lon="6.12976">
        <ele>650</ele>
        <time>2016-07-31T06:45:39Z</time>
      </trkpt>
      <trkpt lat="43.82138" lon="6.12993">
        <ele>646</ele>
        <time>2016-07-31T06:45:51Z</time>
      </trkpt>
      <trkpt lat="43.82121" lon="6.13004">
        <ele>646</ele>
        <time>2016-07-31T06:45:59Z</time>
      </trkpt>
      <trkpt lat="43.8211" lon="6.13022">
        <ele>657</ele>
        <time>2016-07-31T06:46:08Z</time>
      </trkpt>
      <trkpt lat="43.82097" lon="6.13043">
        <ele>660</ele>
        <time>2016-07-31T06:46:19Z</time>
      </trkpt>
      <trkpt lat="43.82081" lon="6.1306">
        <ele>662</ele>
        <time>2016-07-31T06:46:29Z</time>
      </trkpt>
      <trkpt lat="43.82064" lon="6.13075">
        <ele>666</ele>
        <time>2016-07-31T06:46:38Z</time>
      </trkpt>
      <trkpt lat="43.8204" lon="6.13092">
        <ele>659</ele>
        <time>2016-07-31T06:46:49Z</time>
      </trkpt>
      <trkpt lat="43.82029" lon="6.13101">
        <ele>659</ele>
        <time>2016-07-31T06:46:54Z</time>
      </trkpt>
      <trkpt lat="43.8201" lon="6.13119">
        <ele>663</ele>
        <time>2016-07-31T06:47:05Z</time>
      </trkpt>
      <trkpt lat="43.81998" lon="6.13133">
        <ele>664</ele>
        <time>2016-07-31T06:47:15Z</time>
      </trkpt>
      <trkpt lat="43.81976" lon="6.1315">
        <ele>668</ele>
        <time>2016-07-31T06:47:25Z</time>
      </trkpt>
      <trkpt lat="43.81956" lon="6.13168">
        <ele>669</ele>
        <time>2016-07-31T06:47:36Z</time>
      </trkpt>
      <trkpt lat="43.81932" lon="6.13178">
        <ele>665</ele>
        <time>2016-07-31T06:47:45Z</time>
      </trkpt>
      <trkpt lat="43.81911" lon="6.13189">
        <ele>666</ele>
        <time>2016-07-31T06:47:54Z</time>
      </trkpt>
      <trkpt lat="43.81894" lon="6.13199">
        <ele>669</ele>
        <time>2016-07-31T06:48:03Z</time>
      </trkpt>
      <trkpt lat="43.81884" lon="6.13207">
        <ele>672</ele>
        <time>2016-07-31T06:48:11Z</time>
      </trkpt>
      <trkpt lat="43.81867" lon="6.1322">
        <ele>678</ele>
        <time>2016-07-31T06:48:23Z</time>
      </trkpt>
      <trkpt lat="43.81846" lon="6.13231">
        <ele>676</ele>
        <time>2016-07-31T06:48:35Z</time>
      </trkpt>
      <trkpt lat="43.81831" lon="6.13241">
        <ele>674</ele>
        <time>2016-07-31T06:48:43Z</time>
      </trkpt>
      <trkpt lat="43.81808" lon="6.13256">
        <ele>670</ele>
        <time>2016-07-31T06:48:52Z</time>
      </trkpt>
      <trkpt lat="43.81793" lon="6.1327">
        <ele>671</ele>
        <time>2016-07-31T06:48:59Z</time>
      </trkpt>
      <trkpt lat="43.81774" lon="6.13289">
        <ele>672</ele>
        <time>2016-07-31T06:49:09Z</time>
      </trkpt>
      <trkpt lat="43.81757" lon="6.13307">
        <ele>674</ele>
        <time>2016-07-31T06:49:19Z</time>
      </trkpt>
      <trkpt lat="43.81742" lon="6.13326">
        <ele>678</ele>
        <time>2016-07-31T06:49:29Z</time>
      </trkpt>
      <trkpt lat="43.81735" lon="6.13344">
        <ele>680</ele>
        <time>2016-07-31T06:49:38Z</time>
      </trkpt>
      <trkpt lat="43.81719" lon="6.13366">
        <ele>681</ele>
        <time>2016-07-31T06:49:49Z</time>
      </trkpt>
      <trkpt lat="43.81714" lon="6.13391">
        <ele>682</ele>
        <time>2016-07-31T06:49:59Z</time>
      </trkpt>
      <trkpt lat="43.81703" lon="6.13413">
        <ele>680</ele>
        <time>2016-07-31T06:50:10Z</time>
      </trkpt>
      <trkpt lat="43.81697" lon="6.13429">
        <ele>681</ele>
        <time>2016-07-31T06:50:16Z</time>
      </trkpt>
      <trkpt lat="43.81684" lon="6.13455">
        <ele>681</ele>
        <time>2016-07-31T06:50:25Z</time>
      </trkpt>
      <trkpt lat="43.81667" lon="6.13475">
        <ele>681</ele>
        <time>2016-07-31T06:50:34Z</time>
      </trkpt>
      <trkpt lat="43.8165" lon="6.13487">
        <ele>683</ele>
        <time>2016-07-31T06:50:42Z</time>
      </trkpt>
      <trkpt lat="43.8163" lon="6.13503">
        <ele>686</ele>
        <time>2016-07-31T06:50:51Z</time>
      </trkpt>
      <trkpt lat="43.81619" lon="6.13511">
        <ele>687</ele>
        <time>2016-07-31T06:50:56Z</time>
      </trkpt>
      <trkpt lat="43.81608" lon="6.13535">
        <ele>697</ele>
        <time>2016-07-31T06:51:06Z</time>
      </trkpt>
      <trkpt lat="43.81608" lon="6.13558">
        <ele>697</ele>
        <time>2016-07-31T06:51:14Z</time>
      </trkpt>
      <trkpt lat="43.81612" lon="6.13571">
        <ele>699</ele>
        <time>2016-07-31T06:51:20Z</time>
      </trkpt>
      <trkpt lat="43.81617" lon="6.13605">
        <ele>701</ele>
        <time>2016-07-31T06:51:32Z</time>
      </trkpt>
      <trkpt lat="43.81616" lon="6.13633">
        <ele>703</ele>
        <time>2016-07-31T06:51:42Z</time>
      </trkpt>
      <trkpt lat="43.81609" lon="6.13658">
        <ele>707</ele>
        <time>2016-07-31T06:51:52Z</time>
      </trkpt>
      <trkpt lat="43.81607" lon="6.13672">
        <ele>712</ele>
        <time>2016-07-31T06:51:59Z</time>
      </trkpt>
      <trkpt lat="43.81585" lon="6.13697">
        <ele>708</ele>
        <time>2016-07-31T06:52:13Z</time>
      </trkpt>
      <trkpt lat="43.81576" lon="6.13715">
        <ele>714</ele>
        <time>2016-07-31T06:52:23Z</time>
      </trkpt>
      <trkpt lat="43.81552" lon="6.13733">
        <ele>715</ele>
        <time>2016-07-31T06:52:36Z</time>
      </trkpt>
      <trkpt lat="43.81532" lon="6.13748">
        <ele>712</ele>
        <time>2016-07-31T06:52:46Z</time>
      </trkpt>
      <trkpt lat="43.81514" lon="6.13762">
        <ele>714</ele>
        <time>2016-07-31T06:52:55Z</time>
      </trkpt>
      <trkpt lat="43.81496" lon="6.13775">
        <ele>709</ele>
        <time>2016-07-31T06:53:03Z</time>
      </trkpt>
      <trkpt lat="43.81483" lon="6.13786">
        <ele>709</ele>
        <time>2016-07-31T06:53:10Z</time>
      </trkpt>
      <trkpt lat="43.81461" lon="6.13822">
        <ele>709</ele>
        <time>2016-07-31T06:53:20Z</time>
      </trkpt>
      <trkpt lat="43.8145" lon="6.13842">
        <ele>711</ele>
        <time>2016-07-31T06:53:26Z</time>
      </trkpt>
      <trkpt lat="43.81443" lon="6.13865">
        <ele>713</ele>
        <time>2016-07-31T06:53:32Z</time>
      </trkpt>
      <trkpt lat="43.81431" lon="6.13895">
        <ele>713</ele>
        <time>2016-07-31T06:53:40Z</time>
      </trkpt>
      <trkpt lat="43.81423" lon="6.13926">
        <ele>713</ele>
        <time>2016-07-31T06:53:46Z</time>
      </trkpt>
      <trkpt lat="43.81418" lon="6.13951">
        <ele>716</ele>
        <time>2016-07-31T06:53:51Z</time>
      </trkpt>
      <trkpt lat="43.81403" lon="6.13984">
        <ele>712</ele>
        <time>2016-07-31T06:54:00Z</time>
      </trkpt>
      <trkpt lat="43.81392" lon="6.14021">
        <ele>712</ele>
        <time>2016-07-31T06:54:08Z</time>
      </trkpt>
      <trkpt lat="43.81382" lon="6.14045">
        <ele>712</ele>
        <time>2016-07-31T06:54:14Z</time>
      </trkpt>
      <trkpt lat="43.81374" lon="6.14072">
        <ele>712</ele>
        <time>2016-07-31T06:54:21Z</time>
      </trkpt>
      <trkpt lat="43.8137" lon="6.14094">
        <ele>717</ele>
        <time>2016-07-31T06:54:27Z</time>
      </trkpt>
      <trkpt lat="43.81366" lon="6.14105">
        <ele>717</ele>
        <time>2016-07-31T06:54:30Z</time>
      </trkpt>
      <trkpt lat="43.81358" lon="6.14129">
        <ele>717</ele>
        <time>2016-07-31T06:54:37Z</time>
      </trkpt>
      <trkpt lat="43.81354" lon="6.14137">
        <ele>717</ele>
        <time>2016-07-31T06:54:40Z</time>
      </trkpt>
      <trkpt lat="43.81342" lon="6.1416">
        <ele>718</ele>
        <time>2016-07-31T06:54:48Z</time>
      </trkpt>
      <trkpt lat="43.8133" lon="6.14181">
        <ele>716</ele>
        <time>2016-07-31T06:54:55Z</time>
      </trkpt>
      <trkpt lat="43.81311" lon="6.14211">
        <ele>714</ele>
        <time>2016-07-31T06:55:01Z</time>
      </trkpt>
      <trkpt lat="43.81293" lon="6.1424">
        <ele>714</ele>
        <time>2016-07-31T06:55:08Z</time>
      </trkpt>
      <trkpt lat="43.81278" lon="6.14264">
        <ele>713</ele>
        <time>2016-07-31T06:55:13Z</time>
      </trkpt>
      <trkpt lat="43.81261" lon="6.14291">
        <ele>714</ele>
        <time>2016-07-31T06:55:19Z</time>
      </trkpt>
      <trkpt lat="43.81247" lon="6.14313">
        <ele>712</ele>
        <time>2016-07-31T06:55:25Z</time>
      </trkpt>
      <trkpt lat="43.81231" lon="6.14336">
        <ele>709</ele>
        <time>2016-07-31T06:55:31Z</time>
      </trkpt>
      <trkpt lat="43.81213" lon="6.14362">
        <ele>713</ele>
        <time>2016-07-31T06:55:38Z</time>
      </trkpt>
      <trkpt lat="43.81196" lon="6.14388">
        <ele>719</ele>
        <time>2016-07-31T06:55:46Z</time>
      </trkpt>
      <trkpt lat="43.81186" lon="6.14404">
        <ele>721</ele>
        <time>2016-07-31T06:55:51Z</time>
      </trkpt>
      <trkpt lat="43.81168" lon="6.14421">
        <ele>716</ele>
        <time>2016-07-31T06:55:57Z</time>
      </trkpt>
      <trkpt lat="43.81151" lon="6.1444">
        <ele>713</ele>
        <time>2016-07-31T06:56:03Z</time>
      </trkpt>
      <trkpt lat="43.81134" lon="6.14467">
        <ele>715</ele>
        <time>2016-07-31T06:56:10Z</time>
      </trkpt>
      <trkpt lat="43.81116" lon="6.14495">
        <ele>713</ele>
        <time>2016-07-31T06:56:16Z</time>
      </trkpt>
      <trkpt lat="43.81105" lon="6.1452">
        <ele>714</ele>
        <time>2016-07-31T06:56:21Z</time>
      </trkpt>
      <trkpt lat="43.81092" lon="6.14547">
        <ele>713</ele>
        <time>2016-07-31T06:56:27Z</time>
      </trkpt>
      <trkpt lat="43.81083" lon="6.14564">
        <ele>713</ele>
        <time>2016-07-31T06:56:31Z</time>
      </trkpt>
      <trkpt lat="43.81076" lon="6.14592">
        <ele>714</ele>
        <time>2016-07-31T06:56:37Z</time>
      </trkpt>
      <trkpt lat="43.81073" lon="6.14611">
        <ele>715</ele>
        <time>2016-07-31T06:56:42Z</time>
      </trkpt>
      <trkpt lat="43.81069" lon="6.14638">
        <ele>718</ele>
        <time>2016-07-31T06:56:48Z</time>
      </trkpt>
      <trkpt lat="43.81064" lon="6.14671">
        <ele>719</ele>
        <time>2016-07-31T06:56:56Z</time>
      </trkpt>
      <trkpt lat="43.81063" lon="6.147">
        <ele>720</ele>
        <time>2016-07-31T06:57:04Z</time>
      </trkpt>
      <trkpt lat="43.8106" lon="6.14729">
        <ele>719</ele>
        <time>2016-07-31T06:57:12Z</time>
      </trkpt>
      <trkpt lat="43.81055" lon="6.1476">
        <ele>719</ele>
        <time>2016-07-31T06:57:19Z</time>
      </trkpt>
      <trkpt lat="43.81049" lon="6.14794">
        <ele>710</ele>
        <time>2016-07-31T06:57:26Z</time>
      </trkpt>
      <trkpt lat="43.81043" lon="6.14826">
        <ele>710</ele>
        <time>2016-07-31T06:57:32Z</time>
      </trkpt>
      <trkpt lat="43.81039" lon="6.14866">
        <ele>711</ele>
        <time>2016-07-31T06:57:40Z</time>
      </trkpt>
      <trkpt lat="43.81042" lon="6.14901">
        <ele>712</ele>
        <time>2016-07-31T06:57:47Z</time>
      </trkpt>
      <trkpt lat="43.81044" lon="6.14917">
        <ele>714</ele>
        <time>2016-07-31T06:57:50Z</time>
      </trkpt>
      <trkpt lat="43.81046" lon="6.14932">
        <ele>715</ele>
        <time>2016-07-31T06:57:53Z</time>
      </trkpt>
      <trkpt lat="43.81045" lon="6.14968">
        <ele>715</ele>
        <time>2016-07-31T06:58:00Z</time>
      </trkpt>
      <trkpt lat="43.81039" lon="6.15">
        <ele>717</ele>
        <time>2016-07-31T06:58:07Z</time>
      </trkpt>
      <trkpt lat="43.81034" lon="6.15016">
        <ele>717</ele>
        <time>2016-07-31T06:58:11Z</time>
      </trkpt>
      <trkpt lat="43.81028" lon="6.15037">
        <ele>718</ele>
        <time>2016-07-31T06:58:16Z</time>
      </trkpt>
      <trkpt lat="43.8102" lon="6.15067">
        <ele>717</ele>
        <time>2016-07-31T06:58:23Z</time>
      </trkpt>
      <trkpt lat="43.81011" lon="6.15098">
        <ele>719</ele>
        <time>2016-07-31T06:58:30Z</time>
      </trkpt>
      <trkpt lat="43.81007" lon="6.15112">
        <ele>721</ele>
        <time>2016-07-31T06:58:33Z</time>
      </trkpt>
      <trkpt lat="43.80998" lon="6.15134">
        <ele>723</ele>
        <time>2016-07-31T06:58:39Z</time>
      </trkpt>
      <trkpt lat="43.80989" lon="6.15161">
        <ele>720</ele>
        <time>2016-07-31T06:58:46Z</time>
      </trkpt>
      <trkpt lat="43.80982" lon="6.15191">
        <ele>721</ele>
        <time>2016-07-31T06:58:53Z</time>
      </trkpt>
      <trkpt lat="43.80978" lon="6.15219">
        <ele>717</ele>
        <time>2016-07-31T06:58:59Z</time>
      </trkpt>
      <trkpt lat="43.80969" lon="6.15256">
        <ele>717</ele>
        <time>2016-07-31T06:59:06Z</time>
      </trkpt>
      <trkpt lat="43.80964" lon="6.15291">
        <ele>718</ele>
        <time>2016-07-31T06:59:12Z</time>
      </trkpt>
      <trkpt lat="43.80963" lon="6.15319">
        <ele>720</ele>
        <time>2016-07-31T06:59:17Z</time>
      </trkpt>
      <trkpt lat="43.80961" lon="6.15344">
        <ele>721</ele>
        <time>2016-07-31T06:59:22Z</time>
      </trkpt>
      <trkpt lat="43.80956" lon="6.15369">
        <ele>722</ele>
        <time>2016-07-31T06:59:29Z</time>
      </trkpt>
      <trkpt lat="43.80951" lon="6.15407">
        <ele>723</ele>
        <time>2016-07-31T06:59:37Z</time>
      </trkpt>
      <trkpt lat="43.80946" lon="6.15431">
        <ele>721</ele>
        <time>2016-07-31T06:59:43Z</time>
      </trkpt>
      <trkpt lat="43.80946" lon="6.15431">
        <ele>721</ele>
        <time>2016-07-31T07:07:32Z</time>
      </trkpt>
      <trkpt lat="43.80931" lon="6.15475">
        <ele>723</ele>
        <time>2016-07-31T07:07:39Z</time>
      </trkpt>
      <trkpt lat="43.80922" lon="6.15501">
        <ele>724</ele>
        <time>2016-07-31T07:07:44Z</time>
      </trkpt>
      <trkpt lat="43.80913" lon="6.15521">
        <ele>726</ele>
        <time>2016-07-31T07:07:48Z</time>
      </trkpt>
      <trkpt lat="43.80902" lon="6.15553">
        <ele>724</ele>
        <time>2016-07-31T07:07:54Z</time>
      </trkpt>
      <trkpt lat="43.8089" lon="6.15579">
        <ele>723</ele>
        <time>2016-07-31T07:07:59Z</time>
      </trkpt>
      <trkpt lat="43.80877" lon="6.15611">
        <ele>724</ele>
        <time>2016-07-31T07:08:05Z</time>
      </trkpt>
      <trkpt lat="43.80867" lon="6.15634">
        <ele>724</ele>
        <time>2016-07-31T07:08:10Z</time>
      </trkpt>
      <trkpt lat="43.80857" lon="6.15659">
        <ele>720</ele>
        <time>2016-07-31T07:08:16Z</time>
      </trkpt>
      <trkpt lat="43.80846" lon="6.15695">
        <ele>722</ele>
        <time>2016-07-31T07:08:23Z</time>
      </trkpt>
      <trkpt lat="43.80837" lon="6.15727">
        <ele>724</ele>
        <time>2016-07-31T07:08:29Z</time>
      </trkpt>
      <trkpt lat="43.80831" lon="6.15747">
        <ele>724</ele>
        <time>2016-07-31T07:08:33Z</time>
      </trkpt>
      <trkpt lat="43.80823" lon="6.15773">
        <ele>721</ele>
        <time>2016-07-31T07:08:38Z</time>
      </trkpt>
      <trkpt lat="43.80804" lon="6.15779">
        <ele>723</ele>
        <time>2016-07-31T07:08:44Z</time>
      </trkpt>
      <trkpt lat="43.80793" lon="6.1578">
        <ele>724</ele>
        <time>2016-07-31T07:08:50Z</time>
      </trkpt>
      <trkpt lat="43.80765" lon="6.15793">
        <ele>725</ele>
        <time>2016-07-31T07:09:00Z</time>
      </trkpt>
      <trkpt lat="43.80756" lon="6.15797">
        <ele>725</ele>
        <time>2016-07-31T07:09:03Z</time>
      </trkpt>
      <trkpt lat="43.80738" lon="6.15803">
        <ele>724</ele>
        <time>2016-07-31T07:09:09Z</time>
      </trkpt>
      <trkpt lat="43.80713" lon="6.15813">
        <ele>724</ele>
        <time>2016-07-31T07:09:16Z</time>
      </trkpt>
      <trkpt lat="43.80694" lon="6.15823">
        <ele>723</ele>
        <time>2016-07-31T07:09:21Z</time>
      </trkpt>
      <trkpt lat="43.80664" lon="6.15837">
        <ele>721</ele>
        <time>2016-07-31T07:09:28Z</time>
      </trkpt>
      <trkpt lat="43.80633" lon="6.15853">
        <ele>724</ele>
        <time>2016-07-31T07:09:35Z</time>
      </trkpt>
      <trkpt lat="43.80607" lon="6.15895">
        <ele>723</ele>
        <time>2016-07-31T07:09:42Z</time>
      </trkpt>
      <trkpt lat="43.806" lon="6.15938">
        <ele>720</ele>
        <time>2016-07-31T07:09:50Z</time>
      </trkpt>
      <trkpt lat="43.80605" lon="6.15965">
        <ele>722</ele>
        <time>2016-07-31T07:09:55Z</time>
      </trkpt>
      <trkpt lat="43.80612" lon="6.15998">
        <ele>724</ele>
        <time>2016-07-31T07:10:02Z</time>
      </trkpt>
      <trkpt lat="43.80614" lon="6.16013">
        <ele>724</ele>
        <time>2016-07-31T07:10:05Z</time>
      </trkpt>
      <trkpt lat="43.80621" lon="6.16044">
        <ele>725</ele>
        <time>2016-07-31T07:10:12Z</time>
      </trkpt>
      <trkpt lat="43.80626" lon="6.16076">
        <ele>729</ele>
        <time>2016-07-31T07:10:18Z</time>
      </trkpt>
      <trkpt lat="43.80632" lon="6.16109">
        <ele>729</ele>
        <time>2016-07-31T07:10:24Z</time>
      </trkpt>
      <trkpt lat="43.80637" lon="6.16143">
        <ele>728</ele>
        <time>2016-07-31T07:10:30Z</time>
      </trkpt>
      <trkpt lat="43.80643" lon="6.16176">
        <ele>730</ele>
        <time>2016-07-31T07:10:36Z</time>
      </trkpt>
      <trkpt lat="43.8065" lon="6.16201">
        <ele>731</ele>
        <time>2016-07-31T07:10:41Z</time>
      </trkpt>
      <trkpt lat="43.80656" lon="6.16228">
        <ele>731</ele>
        <time>2016-07-31T07:10:47Z</time>
      </trkpt>
      <trkpt lat="43.80658" lon="6.16261">
        <ele>728</ele>
        <time>2016-07-31T07:10:54Z</time>
      </trkpt>
      <trkpt lat="43.80664" lon="6.16302">
        <ele>729</ele>
        <time>2016-07-31T07:11:02Z</time>
      </trkpt>
      <trkpt lat="43.80671" lon="6.16324">
        <ele>730</ele>
        <time>2016-07-31T07:11:08Z</time>
      </trkpt>
      <trkpt lat="43.80673" lon="6.16326">
        <ele>731</ele>
        <time>2016-07-31T07:11:10Z</time>
      </trkpt>
      <trkpt lat="43.80671" lon="6.16324">
        <ele>730</ele>
        <time>2016-07-31T07:11:17Z</time>
      </trkpt>
      <trkpt lat="43.8066" lon="6.1629">
        <ele>728</ele>
        <time>2016-07-31T07:11:24Z</time>
      </trkpt>
      <trkpt lat="43.80635" lon="6.16305">
        <ele>726</ele>
        <time>2016-07-31T07:11:32Z</time>
      </trkpt>
      <trkpt lat="43.80608" lon="6.1631">
        <ele>724</ele>
        <time>2016-07-31T07:11:39Z</time>
      </trkpt>
      <trkpt lat="43.80596" lon="6.16309">
        <ele>723</ele>
        <time>2016-07-31T07:11:42Z</time>
      </trkpt>
      <trkpt lat="43.80575" lon="6.16309">
        <ele>726</ele>
        <time>2016-07-31T07:11:48Z</time>
      </trkpt>
      <trkpt lat="43.80565" lon="6.16304">
        <ele>723</ele>
        <time>2016-07-31T07:11:52Z</time>
      </trkpt>
      <trkpt lat="43.80575" lon="6.16309">
        <ele>726</ele>
        <time>2016-07-31T07:11:59Z</time>
      </trkpt>
      <trkpt lat="43.80588" lon="6.16313">
        <ele>728</ele>
        <time>2016-07-31T07:12:04Z</time>
      </trkpt>
      <trkpt lat="43.80614" lon="6.16311">
        <ele>729</ele>
        <time>2016-07-31T07:12:10Z</time>
      </trkpt>
      <trkpt lat="43.80633" lon="6.16305">
        <ele>730</ele>
        <time>2016-07-31T07:12:15Z</time>
      </trkpt>
      <trkpt lat="43.80658" lon="6.16286">
        <ele>730</ele>
        <time>2016-07-31T07:12:22Z</time>
      </trkpt>
      <trkpt lat="43.80671" lon="6.16297">
        <ele>728</ele>
        <time>2016-07-31T07:12:28Z</time>
      </trkpt>
      <trkpt lat="43.80672" lon="6.16329">
        <ele>734</ele>
        <time>2016-07-31T07:12:34Z</time>
      </trkpt>
      <trkpt lat="43.80675" lon="6.16352">
        <ele>734</ele>
        <time>2016-07-31T07:12:39Z</time>
      </trkpt>
      <trkpt lat="43.80681" lon="6.16381">
        <ele>734</ele>
        <time>2016-07-31T07:12:46Z</time>
      </trkpt>
      <trkpt lat="43.80689" lon="6.16412">
        <ele>734</ele>
        <time>2016-07-31T07:12:53Z</time>
      </trkpt>
      <trkpt lat="43.80694" lon="6.1644">
        <ele>732</ele>
        <time>2016-07-31T07:12:59Z</time>
      </trkpt>
      <trkpt lat="43.80698" lon="6.16466">
        <ele>733</ele>
        <time>2016-07-31T07:13:04Z</time>
      </trkpt>
      <trkpt lat="43.80701" lon="6.16491">
        <ele>734</ele>
        <time>2016-07-31T07:13:09Z</time>
      </trkpt>
      <trkpt lat="43.80703" lon="6.16509">
        <ele>733</ele>
        <time>2016-07-31T07:13:13Z</time>
      </trkpt>
      <trkpt lat="43.80706" lon="6.16535">
        <ele>733</ele>
        <time>2016-07-31T07:13:19Z</time>
      </trkpt>
      <trkpt lat="43.80697" lon="6.16554">
        <ele>738</ele>
        <time>2016-07-31T07:13:25Z</time>
      </trkpt>
      <trkpt lat="43.80688" lon="6.16574">
        <ele>738</ele>
        <time>2016-07-31T07:13:31Z</time>
      </trkpt>
      <trkpt lat="43.80676" lon="6.16605">
        <ele>739</ele>
        <time>2016-07-31T07:13:38Z</time>
      </trkpt>
      <trkpt lat="43.80663" lon="6.16633">
        <ele>738</ele>
        <time>2016-07-31T07:13:44Z</time>
      </trkpt>
      <trkpt lat="43.80633" lon="6.16645">
        <ele>735</ele>
        <time>2016-07-31T07:13:51Z</time>
      </trkpt>
      <trkpt lat="43.80608" lon="6.16648">
        <ele>730</ele>
        <time>2016-07-31T07:13:57Z</time>
      </trkpt>
      <trkpt lat="43.80574" lon="6.16658">
        <ele>729</ele>
        <time>2016-07-31T07:14:04Z</time>
      </trkpt>
      <trkpt lat="43.80561" lon="6.16677">
        <ele>733</ele>
        <time>2016-07-31T07:14:10Z</time>
      </trkpt>
      <trkpt lat="43.80556" lon="6.16699">
        <ele>730</ele>
        <time>2016-07-31T07:14:16Z</time>
      </trkpt>
      <trkpt lat="43.80548" lon="6.16706">
        <ele>730</ele>
        <time>2016-07-31T07:14:23Z</time>
      </trkpt>
      <trkpt lat="43.80548" lon="6.16706">
        <ele>730</ele>
        <time>2016-07-31T07:14:30Z</time>
      </trkpt>
      <trkpt lat="43.80548" lon="6.16706">
        <ele>730</ele>
        <time>2016-07-31T07:14:31Z</time>
      </trkpt>
      <trkpt lat="43.80555" lon="6.16677">
        <ele>731</ele>
        <time>2016-07-31T07:14:35Z</time>
      </trkpt>
      <trkpt lat="43.80565" lon="6.16667">
        <ele>730</ele>
        <time>2016-07-31T07:14:40Z</time>
      </trkpt>
      <trkpt lat="43.80574" lon="6.16651">
        <ele>732</ele>
        <time>2016-07-31T07:14:45Z</time>
      </trkpt>
      <trkpt lat="43.80548" lon="6.16644">
        <ele>736</ele>
        <time>2016-07-31T07:14:53Z</time>
      </trkpt>
      <trkpt lat="43.8053" lon="6.16629">
        <ele>736</ele>
        <time>2016-07-31T07:14:59Z</time>
      </trkpt>
      <trkpt lat="43.80509" lon="6.16604">
        <ele>736</ele>
        <time>2016-07-31T07:15:06Z</time>
      </trkpt>
      <trkpt lat="43.80505" lon="6.16577">
        <ele>736</ele>
        <time>2016-07-31T07:15:11Z</time>
      </trkpt>
      <trkpt lat="43.80504" lon="6.16562">
        <ele>734</ele>
        <time>2016-07-31T07:15:14Z</time>
      </trkpt>
      <trkpt lat="43.80503" lon="6.1656">
        <ele>733</ele>
        <time>2016-07-31T07:15:20Z</time>
      </trkpt>
      <trkpt lat="43.80509" lon="6.16576">
        <ele>735</ele>
        <time>2016-07-31T07:15:33Z</time>
      </trkpt>
      <trkpt lat="43.80522" lon="6.16601">
        <ele>737</ele>
        <time>2016-07-31T07:15:43Z</time>
      </trkpt>
      <trkpt lat="43.80537" lon="6.16624">
        <ele>736</ele>
        <time>2016-07-31T07:15:51Z</time>
      </trkpt>
      <trkpt lat="43.80551" lon="6.16635">
        <ele>733</ele>
        <time>2016-07-31T07:15:57Z</time>
      </trkpt>
      <trkpt lat="43.80566" lon="6.16638">
        <ele>730</ele>
        <time>2016-07-31T07:16:02Z</time>
      </trkpt>
      <trkpt lat="43.80588" lon="6.16638">
        <ele>731</ele>
        <time>2016-07-31T07:16:08Z</time>
      </trkpt>
      <trkpt lat="43.806" lon="6.16638">
        <ele>729</ele>
        <time>2016-07-31T07:16:11Z</time>
      </trkpt>
      <trkpt lat="43.80626" lon="6.16632">
        <ele>735</ele>
        <time>2016-07-31T07:16:18Z</time>
      </trkpt>
      <trkpt lat="43.80643" lon="6.1663">
        <ele>734</ele>
        <time>2016-07-31T07:16:23Z</time>
      </trkpt>
      <trkpt lat="43.80662" lon="6.16619">
        <ele>733</ele>
        <time>2016-07-31T07:16:29Z</time>
      </trkpt>
      <trkpt lat="43.80674" lon="6.16604">
        <ele>730</ele>
        <time>2016-07-31T07:16:34Z</time>
      </trkpt>
      <trkpt lat="43.80682" lon="6.16583">
        <ele>729</ele>
        <time>2016-07-31T07:16:39Z</time>
      </trkpt>
      <trkpt lat="43.80694" lon="6.16554">
        <ele>731</ele>
        <time>2016-07-31T07:16:46Z</time>
      </trkpt>
      <trkpt lat="43.80708" lon="6.1654">
        <ele>730</ele>
        <time>2016-07-31T07:16:53Z</time>
      </trkpt>
      <trkpt lat="43.80712" lon="6.16565">
        <ele>730</ele>
        <time>2016-07-31T07:16:58Z</time>
      </trkpt>
      <trkpt lat="43.80717" lon="6.16592">
        <ele>731</ele>
        <time>2016-07-31T07:17:04Z</time>
      </trkpt>
      <trkpt lat="43.80722" lon="6.16619">
        <ele>733</ele>
        <time>2016-07-31T07:17:10Z</time>
      </trkpt>
      <trkpt lat="43.8073" lon="6.16645">
        <ele>736</ele>
        <time>2016-07-31T07:17:15Z</time>
      </trkpt>
      <trkpt lat="43.80735" lon="6.16678">
        <ele>735</ele>
        <time>2016-07-31T07:17:21Z</time>
      </trkpt>
      <trkpt lat="43.80742" lon="6.16704">
        <ele>739</ele>
        <time>2016-07-31T07:17:28Z</time>
      </trkpt>
      <trkpt lat="43.80773" lon="6.16691">
        <ele>738</ele>
        <time>2016-07-31T07:17:39Z</time>
      </trkpt>
      <trkpt lat="43.80799" lon="6.16704">
        <ele>737</ele>
        <time>2016-07-31T07:17:46Z</time>
      </trkpt>
      <trkpt lat="43.80823" lon="6.16708">
        <ele>734</ele>
        <time>2016-07-31T07:17:52Z</time>
      </trkpt>
      <trkpt lat="43.80852" lon="6.16724">
        <ele>732</ele>
        <time>2016-07-31T07:18:00Z</time>
      </trkpt>
      <trkpt lat="43.80861" lon="6.16748">
        <ele>732</ele>
        <time>2016-07-31T07:18:05Z</time>
      </trkpt>
      <trkpt lat="43.80873" lon="6.16774">
        <ele>734</ele>
        <time>2016-07-31T07:18:11Z</time>
      </trkpt>
      <trkpt lat="43.8089" lon="6.168">
        <ele>733</ele>
        <time>2016-07-31T07:18:19Z</time>
      </trkpt>
      <trkpt lat="43.80905" lon="6.1683">
        <ele>733</ele>
        <time>2016-07-31T07:18:25Z</time>
      </trkpt>
      <trkpt lat="43.80916" lon="6.16855">
        <ele>736</ele>
        <time>2016-07-31T07:18:31Z</time>
      </trkpt>
      <trkpt lat="43.80926" lon="6.16876">
        <ele>736</ele>
        <time>2016-07-31T07:18:36Z</time>
      </trkpt>
      <trkpt lat="43.80944" lon="6.16914">
        <ele>740</ele>
        <time>2016-07-31T07:18:45Z</time>
      </trkpt>
      <trkpt lat="43.80956" lon="6.16939">
        <ele>739</ele>
        <time>2016-07-31T07:18:51Z</time>
      </trkpt>
      <trkpt lat="43.80964" lon="6.16959">
        <ele>739</ele>
        <time>2016-07-31T07:18:56Z</time>
      </trkpt>
      <trkpt lat="43.80976" lon="6.16989">
        <ele>740</ele>
        <time>2016-07-31T07:19:03Z</time>
      </trkpt>
      <trkpt lat="43.80982" lon="6.17007">
        <ele>741</ele>
        <time>2016-07-31T07:19:07Z</time>
      </trkpt>
      <trkpt lat="43.80994" lon="6.17025">
        <ele>741</ele>
        <time>2016-07-31T07:19:12Z</time>
      </trkpt>
      <trkpt lat="43.81005" lon="6.17051">
        <ele>739</ele>
        <time>2016-07-31T07:19:18Z</time>
      </trkpt>
      <trkpt lat="43.81016" lon="6.17077">
        <ele>741</ele>
        <time>2016-07-31T07:19:25Z</time>
      </trkpt>
      <trkpt lat="43.81007" lon="6.17092">
        <ele>738</ele>
        <time>2016-07-31T07:19:33Z</time>
      </trkpt>
      <trkpt lat="43.80991" lon="6.17097">
        <ele>738</ele>
        <time>2016-07-31T07:19:38Z</time>
      </trkpt>
      <trkpt lat="43.80964" lon="6.17107">
        <ele>739</ele>
        <time>2016-07-31T07:19:45Z</time>
      </trkpt>
      <trkpt lat="43.8094" lon="6.17117">
        <ele>739</ele>
        <time>2016-07-31T07:19:51Z</time>
      </trkpt>
      <trkpt lat="43.80919" lon="6.17124">
        <ele>742</ele>
        <time>2016-07-31T07:19:56Z</time>
      </trkpt>
      <trkpt lat="43.80896" lon="6.17129">
        <ele>744</ele>
        <time>2016-07-31T07:20:02Z</time>
      </trkpt>
      <trkpt lat="43.80885" lon="6.1713">
        <ele>741</ele>
        <time>2016-07-31T07:20:05Z</time>
      </trkpt>
      <trkpt lat="43.8087" lon="6.17135">
        <ele>743</ele>
        <time>2016-07-31T07:20:09Z</time>
      </trkpt>
      <trkpt lat="43.80849" lon="6.17138">
        <ele>743</ele>
        <time>2016-07-31T07:20:14Z</time>
      </trkpt>
      <trkpt lat="43.80828" lon="6.17136">
        <ele>743</ele>
        <time>2016-07-31T07:20:19Z</time>
      </trkpt>
      <trkpt lat="43.80803" lon="6.17139">
        <ele>744</ele>
        <time>2016-07-31T07:20:25Z</time>
      </trkpt>
      <trkpt lat="43.80777" lon="6.17144">
        <ele>742</ele>
        <time>2016-07-31T07:20:31Z</time>
      </trkpt>
      <trkpt lat="43.80761" lon="6.17149">
        <ele>742</ele>
        <time>2016-07-31T07:20:35Z</time>
      </trkpt>
      <trkpt lat="43.80738" lon="6.17151">
        <ele>741</ele>
        <time>2016-07-31T07:20:40Z</time>
      </trkpt>
      <trkpt lat="43.80707" lon="6.17154">
        <ele>740</ele>
        <time>2016-07-31T07:20:47Z</time>
      </trkpt>
      <trkpt lat="43.80681" lon="6.17145">
        <ele>742</ele>
        <time>2016-07-31T07:20:53Z</time>
      </trkpt>
      <trkpt lat="43.80657" lon="6.17126">
        <ele>743</ele>
        <time>2016-07-31T07:20:59Z</time>
      </trkpt>
      <trkpt lat="43.80637" lon="6.17108">
        <ele>743</ele>
        <time>2016-07-31T07:21:04Z</time>
      </trkpt>
      <trkpt lat="43.80614" lon="6.17088">
        <ele>743</ele>
        <time>2016-07-31T07:21:10Z</time>
      </trkpt>
      <trkpt lat="43.80589" lon="6.17067">
        <ele>742</ele>
        <time>2016-07-31T07:21:16Z</time>
      </trkpt>
      <trkpt lat="43.80564" lon="6.17054">
        <ele>742</ele>
        <time>2016-07-31T07:21:22Z</time>
      </trkpt>
      <trkpt lat="43.80541" lon="6.17041">
        <ele>739</ele>
        <time>2016-07-31T07:21:28Z</time>
      </trkpt>
      <trkpt lat="43.80512" lon="6.17028">
        <ele>738</ele>
        <time>2016-07-31T07:21:34Z</time>
      </trkpt>
      <trkpt lat="43.80469" lon="6.17008">
        <ele>734</ele>
        <time>2016-07-31T07:21:41Z</time>
      </trkpt>
      <trkpt lat="43.80434" lon="6.16987">
        <ele>730</ele>
        <time>2016-07-31T07:21:46Z</time>
      </trkpt>
      <trkpt lat="43.8042" lon="6.16974">
        <ele>737</ele>
        <time>2016-07-31T07:21:54Z</time>
      </trkpt>
      <trkpt lat="43.80416" lon="6.16928">
        <ele>736</ele>
        <time>2016-07-31T07:22:06Z</time>
      </trkpt>
      <trkpt lat="43.80415" lon="6.169">
        <ele>735</ele>
        <time>2016-07-31T07:22:12Z</time>
      </trkpt>
      <trkpt lat="43.80409" lon="6.16866">
        <ele>735</ele>
        <time>2016-07-31T07:22:18Z</time>
      </trkpt>
      <trkpt lat="43.80397" lon="6.16844">
        <ele>734</ele>
        <time>2016-07-31T07:22:25Z</time>
      </trkpt>
      <trkpt lat="43.80393" lon="6.16821">
        <ele>735</ele>
        <time>2016-07-31T07:22:31Z</time>
      </trkpt>
      <trkpt lat="43.8039" lon="6.16786">
        <ele>731</ele>
        <time>2016-07-31T07:22:38Z</time>
      </trkpt>
      <trkpt lat="43.80383" lon="6.16751">
        <ele>730</ele>
        <time>2016-07-31T07:22:45Z</time>
      </trkpt>
      <trkpt lat="43.8038" lon="6.16722">
        <ele>732</ele>
        <time>2016-07-31T07:22:50Z</time>
      </trkpt>
      <trkpt lat="43.80372" lon="6.16697">
        <ele>733</ele>
        <time>2016-07-31T07:22:55Z</time>
      </trkpt>
      <trkpt lat="43.80363" lon="6.16667">
        <ele>728</ele>
        <time>2016-07-31T07:23:01Z</time>
      </trkpt>
      <trkpt lat="43.8036" lon="6.16638">
        <ele>729</ele>
        <time>2016-07-31T07:23:07Z</time>
      </trkpt>
      <trkpt lat="43.80355" lon="6.16604">
        <ele>728</ele>
        <time>2016-07-31T07:23:14Z</time>
      </trkpt>
      <trkpt lat="43.8035" lon="6.16579">
        <ele>730</ele>
        <time>2016-07-31T07:23:19Z</time>
      </trkpt>
      <trkpt lat="43.8037" lon="6.16559">
        <ele>734</ele>
        <time>2016-07-31T07:23:26Z</time>
      </trkpt>
      <trkpt lat="43.80389" lon="6.1655">
        <ele>731</ele>
        <time>2016-07-31T07:23:33Z</time>
      </trkpt>
      <trkpt lat="43.80402" lon="6.16544">
        <ele>728</ele>
        <time>2016-07-31T07:23:38Z</time>
      </trkpt>
      <trkpt lat="43.80428" lon="6.16517">
        <ele>726</ele>
        <time>2016-07-31T07:23:46Z</time>
      </trkpt>
      <trkpt lat="43.80423" lon="6.16492">
        <ele>726</ele>
        <time>2016-07-31T07:23:52Z</time>
      </trkpt>
      <trkpt lat="43.80411" lon="6.1648">
        <ele>728</ele>
        <time>2016-07-31T07:23:57Z</time>
      </trkpt>
      <trkpt lat="43.80379" lon="6.16459">
        <ele>726</ele>
        <time>2016-07-31T07:24:05Z</time>
      </trkpt>
      <trkpt lat="43.80364" lon="6.16439">
        <ele>725</ele>
        <time>2016-07-31T07:24:11Z</time>
      </trkpt>
      <trkpt lat="43.80354" lon="6.16418">
        <ele>724</ele>
        <time>2016-07-31T07:24:16Z</time>
      </trkpt>
      <trkpt lat="43.80347" lon="6.16396">
        <ele>725</ele>
        <time>2016-07-31T07:24:21Z</time>
      </trkpt>
      <trkpt lat="43.80347" lon="6.16359">
        <ele>724</ele>
        <time>2016-07-31T07:24:28Z</time>
      </trkpt>
      <trkpt lat="43.80351" lon="6.16323">
        <ele>726</ele>
        <time>2016-07-31T07:24:36Z</time>
      </trkpt>
      <trkpt lat="43.80355" lon="6.16295">
        <ele>724</ele>
        <time>2016-07-31T07:24:41Z</time>
      </trkpt>
      <trkpt lat="43.8036" lon="6.16276">
        <ele>723</ele>
        <time>2016-07-31T07:24:44Z</time>
      </trkpt>
      <trkpt lat="43.80357" lon="6.16249">
        <ele>720</ele>
        <time>2016-07-31T07:24:49Z</time>
      </trkpt>
      <trkpt lat="43.80339" lon="6.1622">
        <ele>719</ele>
        <time>2016-07-31T07:24:56Z</time>
      </trkpt>
      <trkpt lat="43.80328" lon="6.16179">
        <ele>717</ele>
        <time>2016-07-31T07:25:04Z</time>
      </trkpt>
      <trkpt lat="43.80334" lon="6.16135">
        <ele>714</ele>
        <time>2016-07-31T07:25:11Z</time>
      </trkpt>
      <trkpt lat="43.80355" lon="6.16099">
        <ele>715</ele>
        <time>2016-07-31T07:25:17Z</time>
      </trkpt>
      <trkpt lat="43.80372" lon="6.16085">
        <ele>715</ele>
        <time>2016-07-31T07:25:23Z</time>
      </trkpt>
      <trkpt lat="43.80391" lon="6.16057">
        <ele>713</ele>
        <time>2016-07-31T07:25:30Z</time>
      </trkpt>
      <trkpt lat="43.80387" lon="6.1603">
        <ele>710</ele>
        <time>2016-07-31T07:25:36Z</time>
      </trkpt>
      <trkpt lat="43.80377" lon="6.16012">
        <ele>710</ele>
        <time>2016-07-31T07:25:41Z</time>
      </trkpt>
      <trkpt lat="43.80371" lon="6.15988">
        <ele>718</ele>
        <time>2016-07-31T07:25:46Z</time>
      </trkpt>
      <trkpt lat="43.80363" lon="6.15974">
        <ele>716</ele>
        <time>2016-07-31T07:25:51Z</time>
      </trkpt>
      <trkpt lat="43.80353" lon="6.15949">
        <ele>710</ele>
        <time>2016-07-31T07:25:56Z</time>
      </trkpt>
      <trkpt lat="43.80353" lon="6.15922">
        <ele>707</ele>
        <time>2016-07-31T07:26:01Z</time>
      </trkpt>
      <trkpt lat="43.80352" lon="6.159">
        <ele>707</ele>
        <time>2016-07-31T07:26:05Z</time>
      </trkpt>
      <trkpt lat="43.80366" lon="6.15853">
        <ele>710</ele>
        <time>2016-07-31T07:26:10Z</time>
      </trkpt>
      <trkpt lat="43.80377" lon="6.15813">
        <ele>710</ele>
        <time>2016-07-31T07:26:16Z</time>
      </trkpt>
      <trkpt lat="43.80379" lon="6.15782">
        <ele>712</ele>
        <time>2016-07-31T07:26:23Z</time>
      </trkpt>
      <trkpt lat="43.80374" lon="6.15755">
        <ele>712</ele>
        <time>2016-07-31T07:26:30Z</time>
      </trkpt>
      <trkpt lat="43.80367" lon="6.15734">
        <ele>707</ele>
        <time>2016-07-31T07:26:35Z</time>
      </trkpt>
      <trkpt lat="43.80355" lon="6.15701">
        <ele>710</ele>
        <time>2016-07-31T07:26:42Z</time>
      </trkpt>
      <trkpt lat="43.80335" lon="6.15658">
        <ele>706</ele>
        <time>2016-07-31T07:26:48Z</time>
      </trkpt>
      <trkpt lat="43.80321" lon="6.15614">
        <ele>707</ele>
        <time>2016-07-31T07:26:55Z</time>
      </trkpt>
      <trkpt lat="43.80314" lon="6.15577">
        <ele>702</ele>
        <time>2016-07-31T07:27:02Z</time>
      </trkpt>
      <trkpt lat="43.803" lon="6.15548">
        <ele>706</ele>
        <time>2016-07-31T07:27:09Z</time>
      </trkpt>
      <trkpt lat="43.80297" lon="6.15515">
        <ele>705</ele>
        <time>2016-07-31T07:27:15Z</time>
      </trkpt>
      <trkpt lat="43.80309" lon="6.15477">
        <ele>702</ele>
        <time>2016-07-31T07:27:20Z</time>
      </trkpt>
      <trkpt lat="43.80311" lon="6.15444">
        <ele>704</ele>
        <time>2016-07-31T07:27:26Z</time>
      </trkpt>
      <trkpt lat="43.80302" lon="6.15408">
        <ele>702</ele>
        <time>2016-07-31T07:27:31Z</time>
      </trkpt>
      <trkpt lat="43.80313" lon="6.15365">
        <ele>700</ele>
        <time>2016-07-31T07:27:38Z</time>
      </trkpt>
      <trkpt lat="43.80325" lon="6.15326">
        <ele>698</ele>
        <time>2016-07-31T07:27:44Z</time>
      </trkpt>
      <trkpt lat="43.80328" lon="6.15299">
        <ele>700</ele>
        <time>2016-07-31T07:27:49Z</time>
      </trkpt>
      <trkpt lat="43.80334" lon="6.15279">
        <ele>700</ele>
        <time>2016-07-31T07:27:53Z</time>
      </trkpt>
      <trkpt lat="43.8034" lon="6.15251">
        <ele>697</ele>
        <time>2016-07-31T07:27:58Z</time>
      </trkpt>
      <trkpt lat="43.80344" lon="6.15234">
        <ele>697</ele>
        <time>2016-07-31T07:28:01Z</time>
      </trkpt>
      <trkpt lat="43.80351" lon="6.15206">
        <ele>696</ele>
        <time>2016-07-31T07:28:06Z</time>
      </trkpt>
      <trkpt lat="43.80353" lon="6.15179">
        <ele>694</ele>
        <time>2016-07-31T07:28:12Z</time>
      </trkpt>
      <trkpt lat="43.8035" lon="6.1515">
        <ele>698</ele>
        <time>2016-07-31T07:28:20Z</time>
      </trkpt>
      <trkpt lat="43.80351" lon="6.15127">
        <ele>702</ele>
        <time>2016-07-31T07:28:29Z</time>
      </trkpt>
      <trkpt lat="43.80345" lon="6.15098">
        <ele>707</ele>
        <time>2016-07-31T07:28:41Z</time>
      </trkpt>
      <trkpt lat="43.80324" lon="6.15062">
        <ele>704</ele>
        <time>2016-07-31T07:28:55Z</time>
      </trkpt>
      <trkpt lat="43.80318" lon="6.15046">
        <ele>705</ele>
        <time>2016-07-31T07:29:00Z</time>
      </trkpt>
      <trkpt lat="43.8031" lon="6.15032">
        <ele>711</ele>
        <time>2016-07-31T07:29:06Z</time>
      </trkpt>
      <trkpt lat="43.80306" lon="6.15013">
        <ele>708</ele>
        <time>2016-07-31T07:29:12Z</time>
      </trkpt>
      <trkpt lat="43.80301" lon="6.14993">
        <ele>707</ele>
        <time>2016-07-31T07:29:18Z</time>
      </trkpt>
      <trkpt lat="43.80301" lon="6.14966">
        <ele>709</ele>
        <time>2016-07-31T07:29:26Z</time>
      </trkpt>
      <trkpt lat="43.80305" lon="6.14937">
        <ele>710</ele>
        <time>2016-07-31T07:29:34Z</time>
      </trkpt>
      <trkpt lat="43.80309" lon="6.14912">
        <ele>714</ele>
        <time>2016-07-31T07:29:42Z</time>
      </trkpt>
      <trkpt lat="43.8031" lon="6.14885">
        <ele>718</ele>
        <time>2016-07-31T07:29:51Z</time>
      </trkpt>
      <trkpt lat="43.80305" lon="6.14855">
        <ele>714</ele>
        <time>2016-07-31T07:30:01Z</time>
      </trkpt>
      <trkpt lat="43.80299" lon="6.14842">
        <ele>714</ele>
        <time>2016-07-31T07:30:06Z</time>
      </trkpt>
      <trkpt lat="43.80283" lon="6.14827">
        <ele>714</ele>
        <time>2016-07-31T07:30:15Z</time>
      </trkpt>
      <trkpt lat="43.80261" lon="6.14834">
        <ele>716</ele>
        <time>2016-07-31T07:30:26Z</time>
      </trkpt>
      <trkpt lat="43.80247" lon="6.14842">
        <ele>716</ele>
        <time>2016-07-31T07:30:32Z</time>
      </trkpt>
      <trkpt lat="43.80227" lon="6.14852">
        <ele>717</ele>
        <time>2016-07-31T07:30:39Z</time>
      </trkpt>
      <trkpt lat="43.80208" lon="6.14863">
        <ele>720</ele>
        <time>2016-07-31T07:30:45Z</time>
      </trkpt>
      <trkpt lat="43.8018" lon="6.14876">
        <ele>723</ele>
        <time>2016-07-31T07:30:53Z</time>
      </trkpt>
      <trkpt lat="43.80158" lon="6.14886">
        <ele>721</ele>
        <time>2016-07-31T07:30:59Z</time>
      </trkpt>
      <trkpt lat="43.80139" lon="6.14895">
        <ele>722</ele>
        <time>2016-07-31T07:31:04Z</time>
      </trkpt>
      <trkpt lat="43.80117" lon="6.14903">
        <ele>718</ele>
        <time>2016-07-31T07:31:10Z</time>
      </trkpt>
      <trkpt lat="43.80096" lon="6.14912">
        <ele>719</ele>
        <time>2016-07-31T07:31:16Z</time>
      </trkpt>
      <trkpt lat="43.80072" lon="6.14924">
        <ele>722</ele>
        <time>2016-07-31T07:31:23Z</time>
      </trkpt>
      <trkpt lat="43.80054" lon="6.14934">
        <ele>722</ele>
        <time>2016-07-31T07:31:28Z</time>
      </trkpt>
      <trkpt lat="43.80028" lon="6.14945">
        <ele>722</ele>
        <time>2016-07-31T07:31:35Z</time>
      </trkpt>
      <trkpt lat="43.80009" lon="6.14951">
        <ele>722</ele>
        <time>2016-07-31T07:31:40Z</time>
      </trkpt>
      <trkpt lat="43.79982" lon="6.14957">
        <ele>720</ele>
        <time>2016-07-31T07:31:47Z</time>
      </trkpt>
      <trkpt lat="43.79962" lon="6.14965">
        <ele>721</ele>
        <time>2016-07-31T07:31:53Z</time>
      </trkpt>
      <trkpt lat="43.79931" lon="6.14974">
        <ele>721</ele>
        <time>2016-07-31T07:31:59Z</time>
      </trkpt>
      <trkpt lat="43.79904" lon="6.14975">
        <ele>716</ele>
        <time>2016-07-31T07:32:05Z</time>
      </trkpt>
      <trkpt lat="43.79883" lon="6.1498">
        <ele>716</ele>
        <time>2016-07-31T07:32:10Z</time>
      </trkpt>
      <trkpt lat="43.79859" lon="6.14987">
        <ele>720</ele>
        <time>2016-07-31T07:32:16Z</time>
      </trkpt>
      <trkpt lat="43.79847" lon="6.1499">
        <ele>720</ele>
        <time>2016-07-31T07:32:19Z</time>
      </trkpt>
      <trkpt lat="43.79828" lon="6.14997">
        <ele>723</ele>
        <time>2016-07-31T07:32:24Z</time>
      </trkpt>
      <trkpt lat="43.79805" lon="6.15002">
        <ele>723</ele>
        <time>2016-07-31T07:32:30Z</time>
      </trkpt>
      <trkpt lat="43.79778" lon="6.15008">
        <ele>723</ele>
        <time>2016-07-31T07:32:38Z</time>
      </trkpt>
      <trkpt lat="43.79754" lon="6.15015">
        <ele>723</ele>
        <time>2016-07-31T07:32:44Z</time>
      </trkpt>
      <trkpt lat="43.79725" lon="6.15024">
        <ele>723</ele>
        <time>2016-07-31T07:32:51Z</time>
      </trkpt>
      <trkpt lat="43.79702" lon="6.15032">
        <ele>725</ele>
        <time>2016-07-31T07:32:56Z</time>
      </trkpt>
      <trkpt lat="43.79671" lon="6.15041">
        <ele>728</ele>
        <time>2016-07-31T07:33:03Z</time>
      </trkpt>
      <trkpt lat="43.79644" lon="6.15049">
        <ele>728</ele>
        <time>2016-07-31T07:33:09Z</time>
      </trkpt>
      <trkpt lat="43.79612" lon="6.15056">
        <ele>727</ele>
        <time>2016-07-31T07:33:16Z</time>
      </trkpt>
      <trkpt lat="43.79592" lon="6.15073">
        <ele>724</ele>
        <time>2016-07-31T07:33:22Z</time>
      </trkpt>
      <trkpt lat="43.79568" lon="6.15094">
        <ele>723</ele>
        <time>2016-07-31T07:33:28Z</time>
      </trkpt>
      <trkpt lat="43.79556" lon="6.15106">
        <ele>723</ele>
        <time>2016-07-31T07:33:31Z</time>
      </trkpt>
      <trkpt lat="43.79546" lon="6.1512">
        <ele>721</ele>
        <time>2016-07-31T07:33:34Z</time>
      </trkpt>
      <trkpt lat="43.79527" lon="6.1514">
        <ele>719</ele>
        <time>2016-07-31T07:33:40Z</time>
      </trkpt>
      <trkpt lat="43.7951" lon="6.1516">
        <ele>722</ele>
        <time>2016-07-31T07:33:45Z</time>
      </trkpt>
      <trkpt lat="43.79488" lon="6.15184">
        <ele>722</ele>
        <time>2016-07-31T07:33:52Z</time>
      </trkpt>
      <trkpt lat="43.79471" lon="6.15201">
        <ele>721</ele>
        <time>2016-07-31T07:33:58Z</time>
      </trkpt>
      <trkpt lat="43.79453" lon="6.15222">
        <ele>721</ele>
        <time>2016-07-31T07:34:04Z</time>
      </trkpt>
      <trkpt lat="43.79437" lon="6.1524">
        <ele>719</ele>
        <time>2016-07-31T07:34:09Z</time>
      </trkpt>
      <trkpt lat="43.79417" lon="6.1526">
        <ele>717</ele>
        <time>2016-07-31T07:34:15Z</time>
      </trkpt>
      <trkpt lat="43.79407" lon="6.15271">
        <ele>719</ele>
        <time>2016-07-31T07:34:18Z</time>
      </trkpt>
      <trkpt lat="43.79387" lon="6.15292">
        <ele>719</ele>
        <time>2016-07-31T07:34:24Z</time>
      </trkpt>
      <trkpt lat="43.79369" lon="6.15313">
        <ele>722</ele>
        <time>2016-07-31T07:34:30Z</time>
      </trkpt>
      <trkpt lat="43.7935" lon="6.15333">
        <ele>720</ele>
        <time>2016-07-31T07:34:36Z</time>
      </trkpt>
      <trkpt lat="43.79334" lon="6.15351">
        <ele>720</ele>
        <time>2016-07-31T07:34:41Z</time>
      </trkpt>
      <trkpt lat="43.79318" lon="6.15368">
        <ele>721</ele>
        <time>2016-07-31T07:34:46Z</time>
      </trkpt>
      <trkpt lat="43.79302" lon="6.15384">
        <ele>720</ele>
        <time>2016-07-31T07:34:51Z</time>
      </trkpt>
      <trkpt lat="43.79288" lon="6.15398">
        <ele>720</ele>
        <time>2016-07-31T07:34:55Z</time>
      </trkpt>
      <trkpt lat="43.79279" lon="6.1541">
        <ele>720</ele>
        <time>2016-07-31T07:34:58Z</time>
      </trkpt>
      <trkpt lat="43.79253" lon="6.15438">
        <ele>722</ele>
        <time>2016-07-31T07:35:05Z</time>
      </trkpt>
      <trkpt lat="43.79235" lon="6.1546">
        <ele>721</ele>
        <time>2016-07-31T07:35:11Z</time>
      </trkpt>
      <trkpt lat="43.79213" lon="6.15484">
        <ele>720</ele>
        <time>2016-07-31T07:35:18Z</time>
      </trkpt>
      <trkpt lat="43.79196" lon="6.15503">
        <ele>720</ele>
        <time>2016-07-31T07:35:23Z</time>
      </trkpt>
      <trkpt lat="43.79174" lon="6.15525">
        <ele>720</ele>
        <time>2016-07-31T07:35:28Z</time>
      </trkpt>
      <trkpt lat="43.79155" lon="6.1555">
        <ele>718</ele>
        <time>2016-07-31T07:35:33Z</time>
      </trkpt>
      <trkpt lat="43.79128" lon="6.15579">
        <ele>715</ele>
        <time>2016-07-31T07:35:39Z</time>
      </trkpt>
      <trkpt lat="43.79137" lon="6.15614">
        <ele>715</ele>
        <time>2016-07-31T07:35:45Z</time>
      </trkpt>
      <trkpt lat="43.79152" lon="6.15644">
        <ele>716</ele>
        <time>2016-07-31T07:35:52Z</time>
      </trkpt>
      <trkpt lat="43.79166" lon="6.15669">
        <ele>715</ele>
        <time>2016-07-31T07:35:57Z</time>
      </trkpt>
      <trkpt lat="43.79177" lon="6.15692">
        <ele>717</ele>
        <time>2016-07-31T07:36:02Z</time>
      </trkpt>
      <trkpt lat="43.7919" lon="6.1572">
        <ele>718</ele>
        <time>2016-07-31T07:36:09Z</time>
      </trkpt>
      <trkpt lat="43.79195" lon="6.15732">
        <ele>720</ele>
        <time>2016-07-31T07:36:12Z</time>
      </trkpt>
      <trkpt lat="43.79206" lon="6.1575">
        <ele>718</ele>
        <time>2016-07-31T07:36:18Z</time>
      </trkpt>
      <trkpt lat="43.79217" lon="6.1577">
        <ele>719</ele>
        <time>2016-07-31T07:36:24Z</time>
      </trkpt>
      <trkpt lat="43.79227" lon="6.15789">
        <ele>719</ele>
        <time>2016-07-31T07:36:30Z</time>
      </trkpt>
      <trkpt lat="43.79242" lon="6.15815">
        <ele>720</ele>
        <time>2016-07-31T07:36:38Z</time>
      </trkpt>
      <trkpt lat="43.79247" lon="6.15827">
        <ele>719</ele>
        <time>2016-07-31T07:36:41Z</time>
      </trkpt>
      <trkpt lat="43.79252" lon="6.1584">
        <ele>720</ele>
        <time>2016-07-31T07:36:44Z</time>
      </trkpt>
      <trkpt lat="43.79258" lon="6.15852">
        <ele>720</ele>
        <time>2016-07-31T07:36:47Z</time>
      </trkpt>
      <trkpt lat="43.79264" lon="6.15864">
        <ele>720</ele>
        <time>2016-07-31T07:36:50Z</time>
      </trkpt>
      <trkpt lat="43.7927" lon="6.15877">
        <ele>720</ele>
        <time>2016-07-31T07:36:53Z</time>
      </trkpt>
      <trkpt lat="43.79286" lon="6.15905">
        <ele>721</ele>
        <time>2016-07-31T07:37:00Z</time>
      </trkpt>
      <trkpt lat="43.79304" lon="6.15931">
        <ele>722</ele>
        <time>2016-07-31T07:37:07Z</time>
      </trkpt>
      <trkpt lat="43.79314" lon="6.15946">
        <ele>724</ele>
        <time>2016-07-31T07:37:11Z</time>
      </trkpt>
      <trkpt lat="43.7933" lon="6.15973">
        <ele>724</ele>
        <time>2016-07-31T07:37:18Z</time>
      </trkpt>
      <trkpt lat="43.7933" lon="6.16005">
        <ele>723</ele>
        <time>2016-07-31T07:37:25Z</time>
      </trkpt>
      <trkpt lat="43.7932" lon="6.16032">
        <ele>724</ele>
        <time>2016-07-31T07:37:31Z</time>
      </trkpt>
      <trkpt lat="43.79315" lon="6.16055">
        <ele>724</ele>
        <time>2016-07-31T07:37:41Z</time>
      </trkpt>
      <trkpt lat="43.79315" lon="6.16055">
        <ele>724</ele>
        <time>2016-07-31T07:37:48Z</time>
      </trkpt>
      <trkpt lat="43.79315" lon="6.16055">
        <ele>724</ele>
        <time>2016-07-31T07:37:49Z</time>
      </trkpt>
      <trkpt lat="43.79313" lon="6.16076">
        <ele>725</ele>
        <time>2016-07-31T07:38:12Z</time>
      </trkpt>
      <trkpt lat="43.79308" lon="6.16103">
        <ele>725</ele>
        <time>2016-07-31T07:38:18Z</time>
      </trkpt>
      <trkpt lat="43.79303" lon="6.16136">
        <ele>725</ele>
        <time>2016-07-31T07:38:25Z</time>
      </trkpt>
      <trkpt lat="43.79299" lon="6.16159">
        <ele>724</ele>
        <time>2016-07-31T07:38:30Z</time>
      </trkpt>
      <trkpt lat="43.79292" lon="6.16195">
        <ele>725</ele>
        <time>2016-07-31T07:38:37Z</time>
      </trkpt>
      <trkpt lat="43.79286" lon="6.16226">
        <ele>725</ele>
        <time>2016-07-31T07:38:43Z</time>
      </trkpt>
      <trkpt lat="43.79282" lon="6.16254">
        <ele>725</ele>
        <time>2016-07-31T07:38:49Z</time>
      </trkpt>
      <trkpt lat="43.79282" lon="6.16265">
        <ele>727</ele>
        <time>2016-07-31T07:38:52Z</time>
      </trkpt>
      <trkpt lat="43.79282" lon="6.16263">
        <ele>727</ele>
        <time>2016-07-31T07:38:58Z</time>
      </trkpt>
      <trkpt lat="43.79282" lon="6.16237">
        <ele>727</ele>
        <time>2016-07-31T07:39:48Z</time>
      </trkpt>
      <trkpt lat="43.7929" lon="6.16191">
        <ele>720</ele>
        <time>2016-07-31T07:39:56Z</time>
      </trkpt>
      <trkpt lat="43.79294" lon="6.16164">
        <ele>714</ele>
        <time>2016-07-31T07:40:01Z</time>
      </trkpt>
      <trkpt lat="43.79298" lon="6.16136">
        <ele>715</ele>
        <time>2016-07-31T07:40:06Z</time>
      </trkpt>
      <trkpt lat="43.79303" lon="6.16108">
        <ele>719</ele>
        <time>2016-07-31T07:40:11Z</time>
      </trkpt>
      <trkpt lat="43.79309" lon="6.16075">
        <ele>715</ele>
        <time>2016-07-31T07:40:17Z</time>
      </trkpt>
      <trkpt lat="43.79313" lon="6.16053">
        <ele>714</ele>
        <time>2016-07-31T07:40:21Z</time>
      </trkpt>
      <trkpt lat="43.7932" lon="6.16025">
        <ele>714</ele>
        <time>2016-07-31T07:40:26Z</time>
      </trkpt>
      <trkpt lat="43.79332" lon="6.16">
        <ele>713</ele>
        <time>2016-07-31T07:40:31Z</time>
      </trkpt>
      <trkpt lat="43.79348" lon="6.16016">
        <ele>716</ele>
        <time>2016-07-31T07:40:39Z</time>
      </trkpt>
      <trkpt lat="43.7936" lon="6.16039">
        <ele>720</ele>
        <time>2016-07-31T07:40:45Z</time>
      </trkpt>
      <trkpt lat="43.79375" lon="6.16062">
        <ele>726</ele>
        <time>2016-07-31T07:40:51Z</time>
      </trkpt>
      <trkpt lat="43.79391" lon="6.16093">
        <ele>725</ele>
        <time>2016-07-31T07:40:58Z</time>
      </trkpt>
      <trkpt lat="43.79407" lon="6.16115">
        <ele>726</ele>
        <time>2016-07-31T07:41:04Z</time>
      </trkpt>
      <trkpt lat="43.79423" lon="6.16138">
        <ele>728</ele>
        <time>2016-07-31T07:41:10Z</time>
      </trkpt>
      <trkpt lat="43.79436" lon="6.16158">
        <ele>727</ele>
        <time>2016-07-31T07:41:15Z</time>
      </trkpt>
      <trkpt lat="43.79453" lon="6.16182">
        <ele>731</ele>
        <time>2016-07-31T07:41:21Z</time>
      </trkpt>
      <trkpt lat="43.7947" lon="6.16204">
        <ele>732</ele>
        <time>2016-07-31T07:41:27Z</time>
      </trkpt>
      <trkpt lat="43.79481" lon="6.1623">
        <ele>729</ele>
        <time>2016-07-31T07:41:34Z</time>
      </trkpt>
      <trkpt lat="43.79493" lon="6.16255">
        <ele>730</ele>
        <time>2016-07-31T07:41:41Z</time>
      </trkpt>
      <trkpt lat="43.79507" lon="6.16285">
        <ele>726</ele>
        <time>2016-07-31T07:41:48Z</time>
      </trkpt>
      <trkpt lat="43.79518" lon="6.16305">
        <ele>727</ele>
        <time>2016-07-31T07:41:53Z</time>
      </trkpt>
      <trkpt lat="43.79525" lon="6.16317">
        <ele>728</ele>
        <time>2016-07-31T07:41:56Z</time>
      </trkpt>
      <trkpt lat="43.79532" lon="6.1633">
        <ele>728</ele>
        <time>2016-07-31T07:41:59Z</time>
      </trkpt>
      <trkpt lat="43.7955" lon="6.16366">
        <ele>730</ele>
        <time>2016-07-31T07:42:07Z</time>
      </trkpt>
      <trkpt lat="43.79564" lon="6.16392">
        <ele>729</ele>
        <time>2016-07-31T07:42:13Z</time>
      </trkpt>
      <trkpt lat="43.79575" lon="6.16414">
        <ele>728</ele>
        <time>2016-07-31T07:42:18Z</time>
      </trkpt>
      <trkpt lat="43.79588" lon="6.16443">
        <ele>729</ele>
        <time>2016-07-31T07:42:25Z</time>
      </trkpt>
      <trkpt lat="43.79601" lon="6.16474">
        <ele>729</ele>
        <time>2016-07-31T07:42:32Z</time>
      </trkpt>
      <trkpt lat="43.79615" lon="6.16502">
        <ele>728</ele>
        <time>2016-07-31T07:42:39Z</time>
      </trkpt>
      <trkpt lat="43.7962" lon="6.16514">
        <ele>728</ele>
        <time>2016-07-31T07:42:42Z</time>
      </trkpt>
      <trkpt lat="43.79631" lon="6.16539">
        <ele>727</ele>
        <time>2016-07-31T07:42:48Z</time>
      </trkpt>
      <trkpt lat="43.79643" lon="6.16568">
        <ele>725</ele>
        <time>2016-07-31T07:42:55Z</time>
      </trkpt>
      <trkpt lat="43.79654" lon="6.16599">
        <ele>727</ele>
        <time>2016-07-31T07:43:02Z</time>
      </trkpt>
      <trkpt lat="43.79666" lon="6.16625">
        <ele>729</ele>
        <time>2016-07-31T07:43:08Z</time>
      </trkpt>
      <trkpt lat="43.79678" lon="6.16654">
        <ele>728</ele>
        <time>2016-07-31T07:43:15Z</time>
      </trkpt>
      <trkpt lat="43.79688" lon="6.16679">
        <ele>729</ele>
        <time>2016-07-31T07:43:21Z</time>
      </trkpt>
      <trkpt lat="43.79697" lon="6.167">
        <ele>730</ele>
        <time>2016-07-31T07:43:26Z</time>
      </trkpt>
      <trkpt lat="43.79709" lon="6.16733">
        <ele>733</ele>
        <time>2016-07-31T07:43:33Z</time>
      </trkpt>
      <trkpt lat="43.7972" lon="6.16761">
        <ele>734</ele>
        <time>2016-07-31T07:43:39Z</time>
      </trkpt>
      <trkpt lat="43.79725" lon="6.16775">
        <ele>734</ele>
        <time>2016-07-31T07:43:42Z</time>
      </trkpt>
      <trkpt lat="43.79737" lon="6.16801">
        <ele>736</ele>
        <time>2016-07-31T07:43:48Z</time>
      </trkpt>
      <trkpt lat="43.79745" lon="6.16817">
        <ele>737</ele>
        <time>2016-07-31T07:43:52Z</time>
      </trkpt>
      <trkpt lat="43.79754" lon="6.16837">
        <ele>737</ele>
        <time>2016-07-31T07:43:57Z</time>
      </trkpt>
      <trkpt lat="43.79763" lon="6.16867">
        <ele>737</ele>
        <time>2016-07-31T07:44:04Z</time>
      </trkpt>
      <trkpt lat="43.79771" lon="6.16882">
        <ele>737</ele>
        <time>2016-07-31T07:44:08Z</time>
      </trkpt>
      <trkpt lat="43.79785" lon="6.16907">
        <ele>736</ele>
        <time>2016-07-31T07:44:15Z</time>
      </trkpt>
      <trkpt lat="43.79795" lon="6.16926">
        <ele>737</ele>
        <time>2016-07-31T07:44:20Z</time>
      </trkpt>
      <trkpt lat="43.798" lon="6.16939">
        <ele>738</ele>
        <time>2016-07-31T07:44:23Z</time>
      </trkpt>
      <trkpt lat="43.79811" lon="6.16964">
        <ele>736</ele>
        <time>2016-07-31T07:44:29Z</time>
      </trkpt>
      <trkpt lat="43.79824" lon="6.1699">
        <ele>735</ele>
        <time>2016-07-31T07:44:35Z</time>
      </trkpt>
      <trkpt lat="43.7984" lon="6.17021">
        <ele>737</ele>
        <time>2016-07-31T07:44:42Z</time>
      </trkpt>
      <trkpt lat="43.79849" lon="6.17037">
        <ele>736</ele>
        <time>2016-07-31T07:44:46Z</time>
      </trkpt>
      <trkpt lat="43.79856" lon="6.17049">
        <ele>737</ele>
        <time>2016-07-31T07:44:49Z</time>
      </trkpt>
      <trkpt lat="43.79862" lon="6.17061">
        <ele>736</ele>
        <time>2016-07-31T07:44:52Z</time>
      </trkpt>
      <trkpt lat="43.79873" lon="6.17082">
        <ele>736</ele>
        <time>2016-07-31T07:44:57Z</time>
      </trkpt>
      <trkpt lat="43.79881" lon="6.17099">
        <ele>736</ele>
        <time>2016-07-31T07:45:01Z</time>
      </trkpt>
      <trkpt lat="43.79887" lon="6.17112">
        <ele>737</ele>
        <time>2016-07-31T07:45:04Z</time>
      </trkpt>
      <trkpt lat="43.79901" lon="6.17139">
        <ele>736</ele>
        <time>2016-07-31T07:45:11Z</time>
      </trkpt>
      <trkpt lat="43.79908" lon="6.17155">
        <ele>737</ele>
        <time>2016-07-31T07:45:15Z</time>
      </trkpt>
      <trkpt lat="43.7992" lon="6.17179">
        <ele>739</ele>
        <time>2016-07-31T07:45:21Z</time>
      </trkpt>
      <trkpt lat="43.79935" lon="6.17206">
        <ele>741</ele>
        <time>2016-07-31T07:45:28Z</time>
      </trkpt>
      <trkpt lat="43.79949" lon="6.17235">
        <ele>741</ele>
        <time>2016-07-31T07:45:35Z</time>
      </trkpt>
      <trkpt lat="43.7996" lon="6.17259">
        <ele>742</ele>
        <time>2016-07-31T07:45:41Z</time>
      </trkpt>
      <trkpt lat="43.79971" lon="6.17285">
        <ele>743</ele>
        <time>2016-07-31T07:45:47Z</time>
      </trkpt>
      <trkpt lat="43.79982" lon="6.17306">
        <ele>742</ele>
        <time>2016-07-31T07:45:52Z</time>
      </trkpt>
      <trkpt lat="43.79994" lon="6.17331">
        <ele>744</ele>
        <time>2016-07-31T07:45:58Z</time>
      </trkpt>
      <trkpt lat="43.80008" lon="6.17357">
        <ele>744</ele>
        <time>2016-07-31T07:46:05Z</time>
      </trkpt>
      <trkpt lat="43.80016" lon="6.17372">
        <ele>742</ele>
        <time>2016-07-31T07:46:10Z</time>
      </trkpt>
      <trkpt lat="43.80021" lon="6.17381">
        <ele>742</ele>
        <time>2016-07-31T07:46:13Z</time>
      </trkpt>
      <trkpt lat="43.80039" lon="6.17408">
        <ele>743</ele>
        <time>2016-07-31T07:46:21Z</time>
      </trkpt>
      <trkpt lat="43.80054" lon="6.17434">
        <ele>743</ele>
        <time>2016-07-31T07:46:28Z</time>
      </trkpt>
      <trkpt lat="43.80064" lon="6.17451">
        <ele>743</ele>
        <time>2016-07-31T07:46:33Z</time>
      </trkpt>
      <trkpt lat="43.80075" lon="6.17466">
        <ele>742</ele>
        <time>2016-07-31T07:46:38Z</time>
      </trkpt>
      <trkpt lat="43.80089" lon="6.17491">
        <ele>743</ele>
        <time>2016-07-31T07:46:45Z</time>
      </trkpt>
      <trkpt lat="43.80095" lon="6.17502">
        <ele>743</ele>
        <time>2016-07-31T07:46:48Z</time>
      </trkpt>
      <trkpt lat="43.80102" lon="6.17512">
        <ele>742</ele>
        <time>2016-07-31T07:46:51Z</time>
      </trkpt>
      <trkpt lat="43.80108" lon="6.17523">
        <ele>741</ele>
        <time>2016-07-31T07:46:54Z</time>
      </trkpt>
      <trkpt lat="43.80121" lon="6.17544">
        <ele>744</ele>
        <time>2016-07-31T07:47:00Z</time>
      </trkpt>
      <trkpt lat="43.80137" lon="6.17568">
        <ele>746</ele>
        <time>2016-07-31T07:47:07Z</time>
      </trkpt>
      <trkpt lat="43.8015" lon="6.17595">
        <ele>744</ele>
        <time>2016-07-31T07:47:14Z</time>
      </trkpt>
      <trkpt lat="43.80165" lon="6.17615">
        <ele>745</ele>
        <time>2016-07-31T07:47:20Z</time>
      </trkpt>
      <trkpt lat="43.8018" lon="6.17637">
        <ele>744</ele>
        <time>2016-07-31T07:47:26Z</time>
      </trkpt>
      <trkpt lat="43.80199" lon="6.17661">
        <ele>745</ele>
        <time>2016-07-31T07:47:33Z</time>
      </trkpt>
      <trkpt lat="43.80219" lon="6.1769">
        <ele>743</ele>
        <time>2016-07-31T07:47:41Z</time>
      </trkpt>
      <trkpt lat="43.80237" lon="6.17711">
        <ele>742</ele>
        <time>2016-07-31T07:47:48Z</time>
      </trkpt>
      <trkpt lat="43.80258" lon="6.17738">
        <ele>743</ele>
        <time>2016-07-31T07:47:56Z</time>
      </trkpt>
      <trkpt lat="43.80275" lon="6.17759">
        <ele>746</ele>
        <time>2016-07-31T07:48:02Z</time>
      </trkpt>
      <trkpt lat="43.80292" lon="6.17782">
        <ele>747</ele>
        <time>2016-07-31T07:48:08Z</time>
      </trkpt>
      <trkpt lat="43.80308" lon="6.17804">
        <ele>747</ele>
        <time>2016-07-31T07:48:14Z</time>
      </trkpt>
      <trkpt lat="43.80325" lon="6.17826">
        <ele>747</ele>
        <time>2016-07-31T07:48:20Z</time>
      </trkpt>
      <trkpt lat="43.80339" lon="6.17842">
        <ele>747</ele>
        <time>2016-07-31T07:48:25Z</time>
      </trkpt>
      <trkpt lat="43.80354" lon="6.17863">
        <ele>747</ele>
        <time>2016-07-31T07:48:31Z</time>
      </trkpt>
      <trkpt lat="43.80363" lon="6.17877">
        <ele>747</ele>
        <time>2016-07-31T07:48:35Z</time>
      </trkpt>
      <trkpt lat="43.80372" lon="6.17893">
        <ele>748</ele>
        <time>2016-07-31T07:48:39Z</time>
      </trkpt>
      <trkpt lat="43.80378" lon="6.17905">
        <ele>747</ele>
        <time>2016-07-31T07:48:42Z</time>
      </trkpt>
      <trkpt lat="43.80395" lon="6.17932">
        <ele>748</ele>
        <time>2016-07-31T07:48:49Z</time>
      </trkpt>
      <trkpt lat="43.80408" lon="6.17957">
        <ele>750</ele>
        <time>2016-07-31T07:48:55Z</time>
      </trkpt>
      <trkpt lat="43.80423" lon="6.17985">
        <ele>750</ele>
        <time>2016-07-31T07:49:02Z</time>
      </trkpt>
      <trkpt lat="43.80435" lon="6.18008">
        <ele>749</ele>
        <time>2016-07-31T07:49:08Z</time>
      </trkpt>
      <trkpt lat="43.80447" lon="6.18031">
        <ele>747</ele>
        <time>2016-07-31T07:49:14Z</time>
      </trkpt>
      <trkpt lat="43.80461" lon="6.18067">
        <ele>749</ele>
        <time>2016-07-31T07:49:22Z</time>
      </trkpt>
      <trkpt lat="43.80469" lon="6.18089">
        <ele>749</ele>
        <time>2016-07-31T07:49:27Z</time>
      </trkpt>
      <trkpt lat="43.80477" lon="6.18111">
        <ele>748</ele>
        <time>2016-07-31T07:49:32Z</time>
      </trkpt>
      <trkpt lat="43.80488" lon="6.18141">
        <ele>747</ele>
        <time>2016-07-31T07:49:39Z</time>
      </trkpt>
      <trkpt lat="43.8051" lon="6.18162">
        <ele>747</ele>
        <time>2016-07-31T07:49:46Z</time>
      </trkpt>
      <trkpt lat="43.80534" lon="6.18169">
        <ele>747</ele>
        <time>2016-07-31T07:49:54Z</time>
      </trkpt>
      <trkpt lat="43.80555" lon="6.18178">
        <ele>746</ele>
        <time>2016-07-31T07:50:01Z</time>
      </trkpt>
      <trkpt lat="43.80565" lon="6.18183">
        <ele>744</ele>
        <time>2016-07-31T07:50:04Z</time>
      </trkpt>
      <trkpt lat="43.80588" lon="6.18192">
        <ele>743</ele>
        <time>2016-07-31T07:50:11Z</time>
      </trkpt>
      <trkpt lat="43.80612" lon="6.18205">
        <ele>743</ele>
        <time>2016-07-31T07:50:18Z</time>
      </trkpt>
      <trkpt lat="43.80632" lon="6.18214">
        <ele>743</ele>
        <time>2016-07-31T07:50:24Z</time>
      </trkpt>
      <trkpt lat="43.80651" lon="6.18222">
        <ele>745</ele>
        <time>2016-07-31T07:50:30Z</time>
      </trkpt>
      <trkpt lat="43.80675" lon="6.1823">
        <ele>746</ele>
        <time>2016-07-31T07:50:37Z</time>
      </trkpt>
      <trkpt lat="43.80695" lon="6.18236">
        <ele>747</ele>
        <time>2016-07-31T07:50:43Z</time>
      </trkpt>
      <trkpt lat="43.80719" lon="6.18243">
        <ele>747</ele>
        <time>2016-07-31T07:50:50Z</time>
      </trkpt>
      <trkpt lat="43.80743" lon="6.18254">
        <ele>752</ele>
        <time>2016-07-31T07:50:57Z</time>
      </trkpt>
      <trkpt lat="43.80769" lon="6.18269">
        <ele>753</ele>
        <time>2016-07-31T07:51:05Z</time>
      </trkpt>
      <trkpt lat="43.80785" lon="6.1828">
        <ele>752</ele>
        <time>2016-07-31T07:51:10Z</time>
      </trkpt>
      <trkpt lat="43.80805" lon="6.18302">
        <ele>751</ele>
        <time>2016-07-31T07:51:17Z</time>
      </trkpt>
      <trkpt lat="43.8082" lon="6.18314">
        <ele>752</ele>
        <time>2016-07-31T07:51:22Z</time>
      </trkpt>
      <trkpt lat="43.80836" lon="6.1833">
        <ele>755</ele>
        <time>2016-07-31T07:51:28Z</time>
      </trkpt>
      <trkpt lat="43.80849" lon="6.18343">
        <ele>756</ele>
        <time>2016-07-31T07:51:33Z</time>
      </trkpt>
      <trkpt lat="43.80871" lon="6.18366">
        <ele>756</ele>
        <time>2016-07-31T07:51:41Z</time>
      </trkpt>
      <trkpt lat="43.8089" lon="6.18385">
        <ele>758</ele>
        <time>2016-07-31T07:51:48Z</time>
      </trkpt>
      <trkpt lat="43.80907" lon="6.18401">
        <ele>758</ele>
        <time>2016-07-31T07:51:54Z</time>
      </trkpt>
      <trkpt lat="43.80918" lon="6.18412">
        <ele>759</ele>
        <time>2016-07-31T07:51:58Z</time>
      </trkpt>
      <trkpt lat="43.80938" lon="6.18434">
        <ele>759</ele>
        <time>2016-07-31T07:52:05Z</time>
      </trkpt>
      <trkpt lat="43.80958" lon="6.18457">
        <ele>759</ele>
        <time>2016-07-31T07:52:12Z</time>
      </trkpt>
      <trkpt lat="43.80977" lon="6.18476">
        <ele>759</ele>
        <time>2016-07-31T07:52:19Z</time>
      </trkpt>
      <trkpt lat="43.80996" lon="6.18494">
        <ele>760</ele>
        <time>2016-07-31T07:52:26Z</time>
      </trkpt>
      <trkpt lat="43.81011" lon="6.1851">
        <ele>761</ele>
        <time>2016-07-31T07:52:32Z</time>
      </trkpt>
      <trkpt lat="43.81023" lon="6.18522">
        <ele>760</ele>
        <time>2016-07-31T07:52:37Z</time>
      </trkpt>
      <trkpt lat="43.81038" lon="6.18537">
        <ele>762</ele>
        <time>2016-07-31T07:52:44Z</time>
      </trkpt>
      <trkpt lat="43.8105" lon="6.18544">
        <ele>762</ele>
        <time>2016-07-31T07:52:50Z</time>
      </trkpt>
      <trkpt lat="43.81052" lon="6.18541">
        <ele>763</ele>
        <time>2016-07-31T07:52:57Z</time>
      </trkpt>
      <trkpt lat="43.81063" lon="6.18527">
        <ele>766</ele>
        <time>2016-07-31T07:53:46Z</time>
      </trkpt>
      <trkpt lat="43.8107" lon="6.18485">
        <ele>766</ele>
        <time>2016-07-31T07:53:56Z</time>
      </trkpt>
      <trkpt lat="43.81075" lon="6.18457">
        <ele>765</ele>
        <time>2016-07-31T07:54:02Z</time>
      </trkpt>
      <trkpt lat="43.8108" lon="6.18429">
        <ele>766</ele>
        <time>2016-07-31T07:54:08Z</time>
      </trkpt>
      <trkpt lat="43.81083" lon="6.18416">
        <ele>767</ele>
        <time>2016-07-31T07:54:11Z</time>
      </trkpt>
      <trkpt lat="43.81091" lon="6.18381">
        <ele>764</ele>
        <time>2016-07-31T07:54:20Z</time>
      </trkpt>
      <trkpt lat="43.81091" lon="6.18381">
        <ele>764</ele>
        <time>2016-07-31T07:54:25Z</time>
      </trkpt>
      <trkpt lat="43.81091" lon="6.18381">
        <ele>764</ele>
        <time>2016-07-31T07:54:26Z</time>
      </trkpt>
      <trkpt lat="43.81091" lon="6.18381">
        <ele>709</ele>
        <time>2016-07-31T07:54:54Z</time>
      </trkpt>
      <trkpt lat="43.81091" lon="6.18381">
        <ele>709</ele>
        <time>2016-07-31T08:00:32Z</time>
      </trkpt>
      <trkpt lat="43.81094" lon="6.18386">
        <ele>759</ele>
        <time>2016-07-31T08:00:34Z</time>
      </trkpt>
      <trkpt lat="43.81084" lon="6.18424">
        <ele>762</ele>
        <time>2016-07-31T08:01:53Z</time>
      </trkpt>
      <trkpt lat="43.81076" lon="6.18457">
        <ele>761</ele>
        <time>2016-07-31T08:02:02Z</time>
      </trkpt>
      <trkpt lat="43.81069" lon="6.18494">
        <ele>761</ele>
        <time>2016-07-31T08:02:10Z</time>
      </trkpt>
      <trkpt lat="43.81063" lon="6.18528">
        <ele>760</ele>
        <time>2016-07-31T08:02:17Z</time>
      </trkpt>
      <trkpt lat="43.81059" lon="6.18554">
        <ele>761</ele>
        <time>2016-07-31T08:02:23Z</time>
      </trkpt>
      <trkpt lat="43.81056" lon="6.18587">
        <ele>762</ele>
        <time>2016-07-31T08:02:31Z</time>
      </trkpt>
      <trkpt lat="43.81054" lon="6.18615">
        <ele>763</ele>
        <time>2016-07-31T08:02:37Z</time>
      </trkpt>
      <trkpt lat="43.81051" lon="6.18639">
        <ele>763</ele>
        <time>2016-07-31T08:02:43Z</time>
      </trkpt>
      <trkpt lat="43.81047" lon="6.18666">
        <ele>764</ele>
        <time>2016-07-31T08:02:50Z</time>
      </trkpt>
      <trkpt lat="43.81043" lon="6.187">
        <ele>766</ele>
        <time>2016-07-31T08:02:58Z</time>
      </trkpt>
      <trkpt lat="43.8104" lon="6.18736">
        <ele>767</ele>
        <time>2016-07-31T08:03:06Z</time>
      </trkpt>
      <trkpt lat="43.81037" lon="6.18764">
        <ele>768</ele>
        <time>2016-07-31T08:03:12Z</time>
      </trkpt>
      <trkpt lat="43.81033" lon="6.18778">
        <ele>768</ele>
        <time>2016-07-31T08:03:15Z</time>
      </trkpt>
      <trkpt lat="43.81025" lon="6.18804">
        <ele>769</ele>
        <time>2016-07-31T08:03:21Z</time>
      </trkpt>
      <trkpt lat="43.81021" lon="6.18821">
        <ele>770</ele>
        <time>2016-07-31T08:03:25Z</time>
      </trkpt>
      <trkpt lat="43.81014" lon="6.18849">
        <ele>772</ele>
        <time>2016-07-31T08:03:32Z</time>
      </trkpt>
      <trkpt lat="43.81009" lon="6.18866">
        <ele>771</ele>
        <time>2016-07-31T08:03:36Z</time>
      </trkpt>
      <trkpt lat="43.81002" lon="6.18896">
        <ele>770</ele>
        <time>2016-07-31T08:03:43Z</time>
      </trkpt>
      <trkpt lat="43.80998" lon="6.18911">
        <ele>770</ele>
        <time>2016-07-31T08:03:46Z</time>
      </trkpt>
      <trkpt lat="43.80992" lon="6.18936">
        <ele>770</ele>
        <time>2016-07-31T08:03:51Z</time>
      </trkpt>
      <trkpt lat="43.80985" lon="6.1896">
        <ele>771</ele>
        <time>2016-07-31T08:03:56Z</time>
      </trkpt>
      <trkpt lat="43.80975" lon="6.18995">
        <ele>772</ele>
        <time>2016-07-31T08:04:04Z</time>
      </trkpt>
      <trkpt lat="43.80968" lon="6.19021">
        <ele>772</ele>
        <time>2016-07-31T08:04:10Z</time>
      </trkpt>
      <trkpt lat="43.80959" lon="6.19052">
        <ele>773</ele>
        <time>2016-07-31T08:04:17Z</time>
      </trkpt>
      <trkpt lat="43.80954" lon="6.19066">
        <ele>773</ele>
        <time>2016-07-31T08:04:20Z</time>
      </trkpt>
      <trkpt lat="43.80944" lon="6.19097">
        <ele>775</ele>
        <time>2016-07-31T08:04:27Z</time>
      </trkpt>
      <trkpt lat="43.80935" lon="6.1913">
        <ele>775</ele>
        <time>2016-07-31T08:04:34Z</time>
      </trkpt>
      <trkpt lat="43.80926" lon="6.19165">
        <ele>775</ele>
        <time>2016-07-31T08:04:41Z</time>
      </trkpt>
      <trkpt lat="43.8092" lon="6.19186">
        <ele>776</ele>
        <time>2016-07-31T08:04:45Z</time>
      </trkpt>
      <trkpt lat="43.80911" lon="6.19219">
        <ele>776</ele>
        <time>2016-07-31T08:04:51Z</time>
      </trkpt>
      <trkpt lat="43.80911" lon="6.19258">
        <ele>776</ele>
        <time>2016-07-31T08:04:58Z</time>
      </trkpt>
      <trkpt lat="43.80925" lon="6.19287">
        <ele>777</ele>
        <time>2016-07-31T08:05:05Z</time>
      </trkpt>
      <trkpt lat="43.80914" lon="6.19314">
        <ele>776</ele>
        <time>2016-07-31T08:05:11Z</time>
      </trkpt>
      <trkpt lat="43.80891" lon="6.19335">
        <ele>776</ele>
        <time>2016-07-31T08:05:16Z</time>
      </trkpt>
      <trkpt lat="43.80861" lon="6.19368">
        <ele>773</ele>
        <time>2016-07-31T08:05:21Z</time>
      </trkpt>
      <trkpt lat="43.80825" lon="6.19397">
        <ele>772</ele>
        <time>2016-07-31T08:05:27Z</time>
      </trkpt>
      <trkpt lat="43.80798" lon="6.19405">
        <ele>773</ele>
        <time>2016-07-31T08:05:34Z</time>
      </trkpt>
      <trkpt lat="43.80779" lon="6.19411">
        <ele>773</ele>
        <time>2016-07-31T08:05:39Z</time>
      </trkpt>
      <trkpt lat="43.80752" lon="6.19418">
        <ele>772</ele>
        <time>2016-07-31T08:05:45Z</time>
      </trkpt>
      <trkpt lat="43.80738" lon="6.19421">
        <ele>772</ele>
        <time>2016-07-31T08:05:48Z</time>
      </trkpt>
      <trkpt lat="43.80724" lon="6.19421">
        <ele>771</ele>
        <time>2016-07-31T08:05:51Z</time>
      </trkpt>
      <trkpt lat="43.80696" lon="6.19429">
        <ele>774</ele>
        <time>2016-07-31T08:05:58Z</time>
      </trkpt>
      <trkpt lat="43.80668" lon="6.19438">
        <ele>776</ele>
        <time>2016-07-31T08:06:05Z</time>
      </trkpt>
      <trkpt lat="43.80645" lon="6.19445">
        <ele>775</ele>
        <time>2016-07-31T08:06:11Z</time>
      </trkpt>
      <trkpt lat="43.80616" lon="6.19454">
        <ele>775</ele>
        <time>2016-07-31T08:06:18Z</time>
      </trkpt>
      <trkpt lat="43.80587" lon="6.19463">
        <ele>776</ele>
        <time>2016-07-31T08:06:24Z</time>
      </trkpt>
      <trkpt lat="43.80573" lon="6.19466">
        <ele>776</ele>
        <time>2016-07-31T08:06:27Z</time>
      </trkpt>
      <trkpt lat="43.80547" lon="6.19474">
        <ele>775</ele>
        <time>2016-07-31T08:06:33Z</time>
      </trkpt>
      <trkpt lat="43.8052" lon="6.1948">
        <ele>773</ele>
        <time>2016-07-31T08:06:39Z</time>
      </trkpt>
      <trkpt lat="43.80492" lon="6.19485">
        <ele>772</ele>
        <time>2016-07-31T08:06:45Z</time>
      </trkpt>
      <trkpt lat="43.8047" lon="6.19487">
        <ele>770</ele>
        <time>2016-07-31T08:06:49Z</time>
      </trkpt>
      <trkpt lat="43.80456" lon="6.1949">
        <ele>771</ele>
        <time>2016-07-31T08:06:52Z</time>
      </trkpt>
      <trkpt lat="43.80427" lon="6.195">
        <ele>771</ele>
        <time>2016-07-31T08:06:57Z</time>
      </trkpt>
      <trkpt lat="43.80391" lon="6.19509">
        <ele>772</ele>
        <time>2016-07-31T08:07:03Z</time>
      </trkpt>
      <trkpt lat="43.80362" lon="6.19516">
        <ele>773</ele>
        <time>2016-07-31T08:07:08Z</time>
      </trkpt>
      <trkpt lat="43.80329" lon="6.19522">
        <ele>770</ele>
        <time>2016-07-31T08:07:14Z</time>
      </trkpt>
      <trkpt lat="43.80313" lon="6.19527">
        <ele>771</ele>
        <time>2016-07-31T08:07:17Z</time>
      </trkpt>
      <trkpt lat="43.80276" lon="6.19536">
        <ele>769</ele>
        <time>2016-07-31T08:07:24Z</time>
      </trkpt>
      <trkpt lat="43.80238" lon="6.19545">
        <ele>769</ele>
        <time>2016-07-31T08:07:31Z</time>
      </trkpt>
      <trkpt lat="43.80212" lon="6.19551">
        <ele>767</ele>
        <time>2016-07-31T08:07:36Z</time>
      </trkpt>
      <trkpt lat="43.80183" lon="6.19555">
        <ele>765</ele>
        <time>2016-07-31T08:07:41Z</time>
      </trkpt>
      <trkpt lat="43.80156" lon="6.19559">
        <ele>762</ele>
        <time>2016-07-31T08:07:46Z</time>
      </trkpt>
      <trkpt lat="43.80123" lon="6.19566">
        <ele>761</ele>
        <time>2016-07-31T08:07:52Z</time>
      </trkpt>
      <trkpt lat="43.80092" lon="6.19554">
        <ele>760</ele>
        <time>2016-07-31T08:07:58Z</time>
      </trkpt>
      <trkpt lat="43.80067" lon="6.19535">
        <ele>758</ele>
        <time>2016-07-31T08:08:03Z</time>
      </trkpt>
      <trkpt lat="43.80038" lon="6.1951">
        <ele>759</ele>
        <time>2016-07-31T08:08:09Z</time>
      </trkpt>
      <trkpt lat="43.80013" lon="6.19492">
        <ele>755</ele>
        <time>2016-07-31T08:08:14Z</time>
      </trkpt>
      <trkpt lat="43.79981" lon="6.19463">
        <ele>757</ele>
        <time>2016-07-31T08:08:21Z</time>
      </trkpt>
      <trkpt lat="43.79957" lon="6.19439">
        <ele>757</ele>
        <time>2016-07-31T08:08:27Z</time>
      </trkpt>
      <trkpt lat="43.79935" lon="6.19417">
        <ele>756</ele>
        <time>2016-07-31T08:08:32Z</time>
      </trkpt>
      <trkpt lat="43.79911" lon="6.19389">
        <ele>755</ele>
        <time>2016-07-31T08:08:38Z</time>
      </trkpt>
      <trkpt lat="43.79888" lon="6.19355">
        <ele>754</ele>
        <time>2016-07-31T08:08:44Z</time>
      </trkpt>
      <trkpt lat="43.7986" lon="6.19325">
        <ele>752</ele>
        <time>2016-07-31T08:08:50Z</time>
      </trkpt>
      <trkpt lat="43.79842" lon="6.19304">
        <ele>753</ele>
        <time>2016-07-31T08:08:54Z</time>
      </trkpt>
      <trkpt lat="43.79815" lon="6.19272">
        <ele>753</ele>
        <time>2016-07-31T08:09:00Z</time>
      </trkpt>
      <trkpt lat="43.79787" lon="6.19241">
        <ele>754</ele>
        <time>2016-07-31T08:09:06Z</time>
      </trkpt>
      <trkpt lat="43.79761" lon="6.19213">
        <ele>752</ele>
        <time>2016-07-31T08:09:11Z</time>
      </trkpt>
      <trkpt lat="43.79737" lon="6.19185">
        <ele>751</ele>
        <time>2016-07-31T08:09:16Z</time>
      </trkpt>
      <trkpt lat="43.79713" lon="6.19156">
        <ele>750</ele>
        <time>2016-07-31T08:09:21Z</time>
      </trkpt>
      <trkpt lat="43.7968" lon="6.19118">
        <ele>750</ele>
        <time>2016-07-31T08:09:28Z</time>
      </trkpt>
      <trkpt lat="43.79652" lon="6.19085">
        <ele>747</ele>
        <time>2016-07-31T08:09:34Z</time>
      </trkpt>
      <trkpt lat="43.79629" lon="6.19057">
        <ele>745</ele>
        <time>2016-07-31T08:09:39Z</time>
      </trkpt>
      <trkpt lat="43.79598" lon="6.19022">
        <ele>746</ele>
        <time>2016-07-31T08:09:46Z</time>
      </trkpt>
      <trkpt lat="43.79571" lon="6.1899">
        <ele>744</ele>
        <time>2016-07-31T08:09:52Z</time>
      </trkpt>
      <trkpt lat="43.79544" lon="6.18958">
        <ele>744</ele>
        <time>2016-07-31T08:09:58Z</time>
      </trkpt>
      <trkpt lat="43.79522" lon="6.1893">
        <ele>743</ele>
        <time>2016-07-31T08:10:04Z</time>
      </trkpt>
      <trkpt lat="43.79512" lon="6.18915">
        <ele>742</ele>
        <time>2016-07-31T08:10:07Z</time>
      </trkpt>
      <trkpt lat="43.79503" lon="6.18901">
        <ele>742</ele>
        <time>2016-07-31T08:10:10Z</time>
      </trkpt>
      <trkpt lat="43.79487" lon="6.18885">
        <ele>740</ele>
        <time>2016-07-31T08:10:17Z</time>
      </trkpt>
      <trkpt lat="43.79487" lon="6.18885">
        <ele>740</ele>
        <time>2016-07-31T08:10:23Z</time>
      </trkpt>
      <trkpt lat="43.79487" lon="6.18885">
        <ele>740</ele>
        <time>2016-07-31T08:10:24Z</time>
      </trkpt>
      <trkpt lat="43.79487" lon="6.18885">
        <ele>692.7</ele>
        <time>2016-07-31T08:10:58Z</time>
      </trkpt>
      <trkpt lat="43.79487" lon="6.18885">
        <ele>692.7</ele>
        <time>2016-07-31T08:17:55Z</time>
      </trkpt>
      <trkpt lat="43.79485" lon="6.18889">
        <ele>748</ele>
        <time>2016-07-31T08:17:56Z</time>
      </trkpt>
      <trkpt lat="43.79469" lon="6.18872">
        <ele>747</ele>
        <time>2016-07-31T08:18:44Z</time>
      </trkpt>
      <trkpt lat="43.79447" lon="6.18842">
        <ele>745</ele>
        <time>2016-07-31T08:18:51Z</time>
      </trkpt>
      <trkpt lat="43.79438" lon="6.18824">
        <ele>744</ele>
        <time>2016-07-31T08:18:54Z</time>
      </trkpt>
      <trkpt lat="43.79426" lon="6.18808">
        <ele>744</ele>
        <time>2016-07-31T08:18:58Z</time>
      </trkpt>
      <trkpt lat="43.79409" lon="6.18787">
        <ele>744</ele>
        <time>2016-07-31T08:19:03Z</time>
      </trkpt>
      <trkpt lat="43.79405" lon="6.18781">
        <ele>744</ele>
        <time>2016-07-31T08:19:05Z</time>
      </trkpt>
      <trkpt lat="43.79405" lon="6.1878">
        <ele>745</ele>
        <time>2016-07-31T08:19:11Z</time>
      </trkpt>
      <trkpt lat="43.79405" lon="6.1878">
        <ele>688.1</ele>
        <time>2016-07-31T08:19:49Z</time>
      </trkpt>
      <trkpt lat="43.79405" lon="6.1878">
        <ele>688.1</ele>
        <time>2016-07-31T08:20:34Z</time>
      </trkpt>
      <trkpt lat="43.79404" lon="6.1878">
        <ele>745</ele>
        <time>2016-07-31T08:20:34Z</time>
      </trkpt>
      <trkpt lat="43.79396" lon="6.18762">
        <ele>746</ele>
        <time>2016-07-31T08:21:11Z</time>
      </trkpt>
      <trkpt lat="43.79376" lon="6.18744">
        <ele>744</ele>
        <time>2016-07-31T08:21:18Z</time>
      </trkpt>
      <trkpt lat="43.79361" lon="6.18733">
        <ele>744</ele>
        <time>2016-07-31T08:21:21Z</time>
      </trkpt>
      <trkpt lat="43.79337" lon="6.18717">
        <ele>744</ele>
        <time>2016-07-31T08:21:26Z</time>
      </trkpt>
      <trkpt lat="43.79307" lon="6.18699">
        <ele>743</ele>
        <time>2016-07-31T08:21:32Z</time>
      </trkpt>
      <trkpt lat="43.79276" lon="6.18691">
        <ele>742</ele>
        <time>2016-07-31T08:21:38Z</time>
      </trkpt>
      <trkpt lat="43.79254" lon="6.18688">
        <ele>741</ele>
        <time>2016-07-31T08:21:42Z</time>
      </trkpt>
      <trkpt lat="43.79216" lon="6.18684">
        <ele>738</ele>
        <time>2016-07-31T08:21:48Z</time>
      </trkpt>
      <trkpt lat="43.79183" lon="6.18682">
        <ele>737</ele>
        <time>2016-07-31T08:21:53Z</time>
      </trkpt>
      <trkpt lat="43.7914" lon="6.18679">
        <ele>739</ele>
        <time>2016-07-31T08:22:00Z</time>
      </trkpt>
      <trkpt lat="43.79108" lon="6.18676">
        <ele>737</ele>
        <time>2016-07-31T08:22:05Z</time>
      </trkpt>
      <trkpt lat="43.79071" lon="6.18667">
        <ele>736</ele>
        <time>2016-07-31T08:22:11Z</time>
      </trkpt>
      <trkpt lat="43.79045" lon="6.18642">
        <ele>737</ele>
        <time>2016-07-31T08:22:17Z</time>
      </trkpt>
      <trkpt lat="43.79024" lon="6.18612">
        <ele>737</ele>
        <time>2016-07-31T08:22:22Z</time>
      </trkpt>
      <trkpt lat="43.7901" lon="6.18597">
        <ele>736</ele>
        <time>2016-07-31T08:22:25Z</time>
      </trkpt>
      <trkpt lat="43.78997" lon="6.18581">
        <ele>737</ele>
        <time>2016-07-31T08:22:28Z</time>
      </trkpt>
      <trkpt lat="43.78974" lon="6.18555">
        <ele>735</ele>
        <time>2016-07-31T08:22:33Z</time>
      </trkpt>
      <trkpt lat="43.78948" lon="6.18522">
        <ele>732</ele>
        <time>2016-07-31T08:22:39Z</time>
      </trkpt>
      <trkpt lat="43.78926" lon="6.18495">
        <ele>731</ele>
        <time>2016-07-31T08:22:44Z</time>
      </trkpt>
      <trkpt lat="43.78897" lon="6.18462">
        <ele>731</ele>
        <time>2016-07-31T08:22:50Z</time>
      </trkpt>
      <trkpt lat="43.78875" lon="6.18435">
        <ele>731</ele>
        <time>2016-07-31T08:22:55Z</time>
      </trkpt>
      <trkpt lat="43.78863" lon="6.18417">
        <ele>732</ele>
        <time>2016-07-31T08:22:58Z</time>
      </trkpt>
      <trkpt lat="43.78844" lon="6.18396">
        <ele>732</ele>
        <time>2016-07-31T08:23:02Z</time>
      </trkpt>
      <trkpt lat="43.78812" lon="6.18357">
        <ele>729</ele>
        <time>2016-07-31T08:23:09Z</time>
      </trkpt>
      <trkpt lat="43.78785" lon="6.18324">
        <ele>729</ele>
        <time>2016-07-31T08:23:15Z</time>
      </trkpt>
      <trkpt lat="43.78758" lon="6.18289">
        <ele>727</ele>
        <time>2016-07-31T08:23:21Z</time>
      </trkpt>
      <trkpt lat="43.78744" lon="6.18274">
        <ele>728</ele>
        <time>2016-07-31T08:23:24Z</time>
      </trkpt>
      <trkpt lat="43.78718" lon="6.18246">
        <ele>730</ele>
        <time>2016-07-31T08:23:30Z</time>
      </trkpt>
      <trkpt lat="43.78697" lon="6.1822">
        <ele>731</ele>
        <time>2016-07-31T08:23:35Z</time>
      </trkpt>
      <trkpt lat="43.78673" lon="6.1819">
        <ele>732</ele>
        <time>2016-07-31T08:23:41Z</time>
      </trkpt>
      <trkpt lat="43.78647" lon="6.18159">
        <ele>731</ele>
        <time>2016-07-31T08:23:47Z</time>
      </trkpt>
      <trkpt lat="43.78622" lon="6.18132">
        <ele>733</ele>
        <time>2016-07-31T08:23:53Z</time>
      </trkpt>
      <trkpt lat="43.78596" lon="6.18103">
        <ele>732</ele>
        <time>2016-07-31T08:23:59Z</time>
      </trkpt>
      <trkpt lat="43.78575" lon="6.18075">
        <ele>730</ele>
        <time>2016-07-31T08:24:04Z</time>
      </trkpt>
      <trkpt lat="43.78552" lon="6.18049">
        <ele>729</ele>
        <time>2016-07-31T08:24:09Z</time>
      </trkpt>
      <trkpt lat="43.78524" lon="6.18017">
        <ele>730</ele>
        <time>2016-07-31T08:24:15Z</time>
      </trkpt>
      <trkpt lat="43.78502" lon="6.17989">
        <ele>729</ele>
        <time>2016-07-31T08:24:20Z</time>
      </trkpt>
      <trkpt lat="43.78487" lon="6.17973">
        <ele>730</ele>
        <time>2016-07-31T08:24:23Z</time>
      </trkpt>
      <trkpt lat="43.78459" lon="6.17938">
        <ele>729</ele>
        <time>2016-07-31T08:24:29Z</time>
      </trkpt>
      <trkpt lat="43.78431" lon="6.17905">
        <ele>727</ele>
        <time>2016-07-31T08:24:35Z</time>
      </trkpt>
      <trkpt lat="43.78408" lon="6.17877">
        <ele>728</ele>
        <time>2016-07-31T08:24:40Z</time>
      </trkpt>
      <trkpt lat="43.78384" lon="6.17849">
        <ele>726</ele>
        <time>2016-07-31T08:24:45Z</time>
      </trkpt>
      <trkpt lat="43.78355" lon="6.17811">
        <ele>728</ele>
        <time>2016-07-31T08:24:51Z</time>
      </trkpt>
      <trkpt lat="43.78332" lon="6.17783">
        <ele>729</ele>
        <time>2016-07-31T08:24:56Z</time>
      </trkpt>
      <trkpt lat="43.78305" lon="6.1775">
        <ele>727</ele>
        <time>2016-07-31T08:25:02Z</time>
      </trkpt>
      <trkpt lat="43.7827" lon="6.1771">
        <ele>726</ele>
        <time>2016-07-31T08:25:10Z</time>
      </trkpt>
      <trkpt lat="43.78246" lon="6.17674">
        <ele>725</ele>
        <time>2016-07-31T08:25:16Z</time>
      </trkpt>
      <trkpt lat="43.78221" lon="6.17638">
        <ele>725</ele>
        <time>2016-07-31T08:25:22Z</time>
      </trkpt>
      <trkpt lat="43.78214" lon="6.17615">
        <ele>725</ele>
        <time>2016-07-31T08:25:27Z</time>
      </trkpt>
      <trkpt lat="43.78232" lon="6.17593">
        <ele>726</ele>
        <time>2016-07-31T08:25:32Z</time>
      </trkpt>
      <trkpt lat="43.78252" lon="6.17565">
        <ele>728</ele>
        <time>2016-07-31T08:25:38Z</time>
      </trkpt>
      <trkpt lat="43.78279" lon="6.17538">
        <ele>727</ele>
        <time>2016-07-31T08:25:44Z</time>
      </trkpt>
      <trkpt lat="43.78301" lon="6.17512">
        <ele>727</ele>
        <time>2016-07-31T08:25:49Z</time>
      </trkpt>
      <trkpt lat="43.78315" lon="6.17496">
        <ele>727</ele>
        <time>2016-07-31T08:25:52Z</time>
      </trkpt>
      <trkpt lat="43.78332" lon="6.17467">
        <ele>727</ele>
        <time>2016-07-31T08:25:58Z</time>
      </trkpt>
      <trkpt lat="43.78361" lon="6.17424">
        <ele>726</ele>
        <time>2016-07-31T08:26:04Z</time>
      </trkpt>
      <trkpt lat="43.784" lon="6.17389">
        <ele>718</ele>
        <time>2016-07-31T08:26:11Z</time>
      </trkpt>
      <trkpt lat="43.78426" lon="6.17361">
        <ele>719</ele>
        <time>2016-07-31T08:26:17Z</time>
      </trkpt>
      <trkpt lat="43.78441" lon="6.17348">
        <ele>719</ele>
        <time>2016-07-31T08:26:20Z</time>
      </trkpt>
      <trkpt lat="43.78473" lon="6.17311">
        <ele>719</ele>
        <time>2016-07-31T08:26:28Z</time>
      </trkpt>
      <trkpt lat="43.78498" lon="6.17285">
        <ele>720</ele>
        <time>2016-07-31T08:26:34Z</time>
      </trkpt>
      <trkpt lat="43.78524" lon="6.17258">
        <ele>722</ele>
        <time>2016-07-31T08:26:40Z</time>
      </trkpt>
      <trkpt lat="43.78543" lon="6.17235">
        <ele>722</ele>
        <time>2016-07-31T08:26:45Z</time>
      </trkpt>
      <trkpt lat="43.78565" lon="6.1721">
        <ele>722</ele>
        <time>2016-07-31T08:26:50Z</time>
      </trkpt>
      <trkpt lat="43.78577" lon="6.17196">
        <ele>722</ele>
        <time>2016-07-31T08:26:53Z</time>
      </trkpt>
      <trkpt lat="43.78609" lon="6.17163">
        <ele>722</ele>
        <time>2016-07-31T08:27:00Z</time>
      </trkpt>
      <trkpt lat="43.7863" lon="6.17138">
        <ele>723</ele>
        <time>2016-07-31T08:27:05Z</time>
      </trkpt>
      <trkpt lat="43.78653" lon="6.17101">
        <ele>722</ele>
        <time>2016-07-31T08:27:11Z</time>
      </trkpt>
      <trkpt lat="43.78648" lon="6.17056">
        <ele>733</ele>
        <time>2016-07-31T08:27:18Z</time>
      </trkpt>
      <trkpt lat="43.78652" lon="6.17008">
        <ele>727</ele>
        <time>2016-07-31T08:27:24Z</time>
      </trkpt>
      <trkpt lat="43.7865" lon="6.16964">
        <ele>727</ele>
        <time>2016-07-31T08:27:29Z</time>
      </trkpt>
      <trkpt lat="43.78649" lon="6.16935">
        <ele>724</ele>
        <time>2016-07-31T08:27:32Z</time>
      </trkpt>
      <trkpt lat="43.78648" lon="6.16903">
        <ele>722</ele>
        <time>2016-07-31T08:27:36Z</time>
      </trkpt>
      <trkpt lat="43.78649" lon="6.16854">
        <ele>723</ele>
        <time>2016-07-31T08:27:42Z</time>
      </trkpt>
      <trkpt lat="43.78651" lon="6.16803">
        <ele>721</ele>
        <time>2016-07-31T08:27:48Z</time>
      </trkpt>
      <trkpt lat="43.78654" lon="6.16755">
        <ele>720</ele>
        <time>2016-07-31T08:27:54Z</time>
      </trkpt>
      <trkpt lat="43.78653" lon="6.16713">
        <ele>721</ele>
        <time>2016-07-31T08:28:00Z</time>
      </trkpt>
      <trkpt lat="43.78654" lon="6.16687">
        <ele>719</ele>
        <time>2016-07-31T08:28:04Z</time>
      </trkpt>
      <trkpt lat="43.78662" lon="6.16659">
        <ele>718</ele>
        <time>2016-07-31T08:28:09Z</time>
      </trkpt>
      <trkpt lat="43.78664" lon="6.1664">
        <ele>717</ele>
        <time>2016-07-31T08:28:12Z</time>
      </trkpt>
      <trkpt lat="43.78667" lon="6.1662">
        <ele>717</ele>
        <time>2016-07-31T08:28:15Z</time>
      </trkpt>
      <trkpt lat="43.7867" lon="6.16599">
        <ele>717</ele>
        <time>2016-07-31T08:28:18Z</time>
      </trkpt>
      <trkpt lat="43.78673" lon="6.1656">
        <ele>717</ele>
        <time>2016-07-31T08:28:24Z</time>
      </trkpt>
      <trkpt lat="43.78683" lon="6.16527">
        <ele>718</ele>
        <time>2016-07-31T08:28:29Z</time>
      </trkpt>
      <trkpt lat="43.78693" lon="6.16495">
        <ele>717</ele>
        <time>2016-07-31T08:28:34Z</time>
      </trkpt>
      <trkpt lat="43.78699" lon="6.16456">
        <ele>720</ele>
        <time>2016-07-31T08:28:40Z</time>
      </trkpt>
      <trkpt lat="43.78714" lon="6.16421">
        <ele>720</ele>
        <time>2016-07-31T08:28:46Z</time>
      </trkpt>
      <trkpt lat="43.7873" lon="6.16388">
        <ele>718</ele>
        <time>2016-07-31T08:28:52Z</time>
      </trkpt>
      <trkpt lat="43.78743" lon="6.16358">
        <ele>718</ele>
        <time>2016-07-31T08:28:57Z</time>
      </trkpt>
      <trkpt lat="43.78757" lon="6.16328">
        <ele>719</ele>
        <time>2016-07-31T08:29:02Z</time>
      </trkpt>
      <trkpt lat="43.78768" lon="6.16283">
        <ele>718</ele>
        <time>2016-07-31T08:29:08Z</time>
      </trkpt>
      <trkpt lat="43.78771" lon="6.1626">
        <ele>716</ele>
        <time>2016-07-31T08:29:11Z</time>
      </trkpt>
      <trkpt lat="43.78775" lon="6.16215">
        <ele>717</ele>
        <time>2016-07-31T08:29:17Z</time>
      </trkpt>
      <trkpt lat="43.78775" lon="6.16193">
        <ele>717</ele>
        <time>2016-07-31T08:29:20Z</time>
      </trkpt>
      <trkpt lat="43.78771" lon="6.16141">
        <ele>716</ele>
        <time>2016-07-31T08:29:27Z</time>
      </trkpt>
      <trkpt lat="43.78764" lon="6.16105">
        <ele>718</ele>
        <time>2016-07-31T08:29:32Z</time>
      </trkpt>
      <trkpt lat="43.78753" lon="6.16072">
        <ele>718</ele>
        <time>2016-07-31T08:29:37Z</time>
      </trkpt>
      <trkpt lat="43.78735" lon="6.1604">
        <ele>720</ele>
        <time>2016-07-31T08:29:43Z</time>
      </trkpt>
      <trkpt lat="43.78717" lon="6.1602">
        <ele>716</ele>
        <time>2016-07-31T08:29:48Z</time>
      </trkpt>
      <trkpt lat="43.78709" lon="6.15983">
        <ele>718</ele>
        <time>2016-07-31T08:29:54Z</time>
      </trkpt>
      <trkpt lat="43.78704" lon="6.1596">
        <ele>717</ele>
        <time>2016-07-31T08:29:57Z</time>
      </trkpt>
      <trkpt lat="43.78706" lon="6.15912">
        <ele>716</ele>
        <time>2016-07-31T08:30:03Z</time>
      </trkpt>
      <trkpt lat="43.78709" lon="6.15876">
        <ele>715</ele>
        <time>2016-07-31T08:30:08Z</time>
      </trkpt>
      <trkpt lat="43.78712" lon="6.15853">
        <ele>713</ele>
        <time>2016-07-31T08:30:12Z</time>
      </trkpt>
      <trkpt lat="43.78725" lon="6.15826">
        <ele>712</ele>
        <time>2016-07-31T08:30:18Z</time>
      </trkpt>
      <trkpt lat="43.78736" lon="6.15794">
        <ele>710</ele>
        <time>2016-07-31T08:30:24Z</time>
      </trkpt>
      <trkpt lat="43.78744" lon="6.15764">
        <ele>710</ele>
        <time>2016-07-31T08:30:30Z</time>
      </trkpt>
      <trkpt lat="43.78761" lon="6.15737">
        <ele>711</ele>
        <time>2016-07-31T08:30:37Z</time>
      </trkpt>
      <trkpt lat="43.78773" lon="6.15719">
        <ele>711</ele>
        <time>2016-07-31T08:30:43Z</time>
      </trkpt>
      <trkpt lat="43.78773" lon="6.15719">
        <ele>711</ele>
        <time>2016-07-31T08:30:48Z</time>
      </trkpt>
      <trkpt lat="43.78773" lon="6.15719">
        <ele>711</ele>
        <time>2016-07-31T08:30:49Z</time>
      </trkpt>
      <trkpt lat="43.78786" lon="6.15701">
        <ele>706</ele>
        <time>2016-07-31T08:31:50Z</time>
      </trkpt>
      <trkpt lat="43.78805" lon="6.15683">
        <ele>704</ele>
        <time>2016-07-31T08:31:57Z</time>
      </trkpt>
      <trkpt lat="43.78825" lon="6.15664">
        <ele>707</ele>
        <time>2016-07-31T08:32:03Z</time>
      </trkpt>
      <trkpt lat="43.78837" lon="6.15645">
        <ele>710</ele>
        <time>2016-07-31T08:32:08Z</time>
      </trkpt>
      <trkpt lat="43.78852" lon="6.15629">
        <ele>707</ele>
        <time>2016-07-31T08:32:14Z</time>
      </trkpt>
      <trkpt lat="43.7888" lon="6.156">
        <ele>708</ele>
        <time>2016-07-31T08:32:21Z</time>
      </trkpt>
      <trkpt lat="43.78888" lon="6.15576">
        <ele>712</ele>
        <time>2016-07-31T08:32:25Z</time>
      </trkpt>
      <trkpt lat="43.78901" lon="6.15537">
        <ele>712</ele>
        <time>2016-07-31T08:32:31Z</time>
      </trkpt>
      <trkpt lat="43.78915" lon="6.15512">
        <ele>712</ele>
        <time>2016-07-31T08:32:37Z</time>
      </trkpt>
      <trkpt lat="43.78933" lon="6.15474">
        <ele>711</ele>
        <time>2016-07-31T08:32:43Z</time>
      </trkpt>
      <trkpt lat="43.78932" lon="6.15453">
        <ele>710</ele>
        <time>2016-07-31T08:32:48Z</time>
      </trkpt>
      <trkpt lat="43.78935" lon="6.15426">
        <ele>708</ele>
        <time>2016-07-31T08:32:55Z</time>
      </trkpt>
      <trkpt lat="43.78951" lon="6.15375">
        <ele>708</ele>
        <time>2016-07-31T08:33:03Z</time>
      </trkpt>
      <trkpt lat="43.7896" lon="6.15338">
        <ele>706</ele>
        <time>2016-07-31T08:33:08Z</time>
      </trkpt>
      <trkpt lat="43.78964" lon="6.15306">
        <ele>703</ele>
        <time>2016-07-31T08:33:15Z</time>
      </trkpt>
      <trkpt lat="43.78974" lon="6.15318">
        <ele>703</ele>
        <time>2016-07-31T08:33:23Z</time>
      </trkpt>
      <trkpt lat="43.7898" lon="6.15328">
        <ele>704</ele>
        <time>2016-07-31T08:33:30Z</time>
      </trkpt>
      <trkpt lat="43.78995" lon="6.15351">
        <ele>707</ele>
        <time>2016-07-31T08:33:42Z</time>
      </trkpt>
      <trkpt lat="43.79012" lon="6.15384">
        <ele>709</ele>
        <time>2016-07-31T08:33:50Z</time>
      </trkpt>
      <trkpt lat="43.79022" lon="6.15402">
        <ele>710</ele>
        <time>2016-07-31T08:33:54Z</time>
      </trkpt>
      <trkpt lat="43.7903" lon="6.15417">
        <ele>711</ele>
        <time>2016-07-31T08:33:57Z</time>
      </trkpt>
      <trkpt lat="43.79046" lon="6.15448">
        <ele>713</ele>
        <time>2016-07-31T08:34:03Z</time>
      </trkpt>
      <trkpt lat="43.79058" lon="6.15471">
        <ele>714</ele>
        <time>2016-07-31T08:34:07Z</time>
      </trkpt>
      <trkpt lat="43.79066" lon="6.15488">
        <ele>715</ele>
        <time>2016-07-31T08:34:10Z</time>
      </trkpt>
      <trkpt lat="43.79081" lon="6.15518">
        <ele>715</ele>
        <time>2016-07-31T08:34:15Z</time>
      </trkpt>
      <trkpt lat="43.79101" lon="6.15552">
        <ele>714</ele>
        <time>2016-07-31T08:34:21Z</time>
      </trkpt>
      <trkpt lat="43.79112" lon="6.15566">
        <ele>716</ele>
        <time>2016-07-31T08:34:24Z</time>
      </trkpt>
      <trkpt lat="43.79138" lon="6.15571">
        <ele>716</ele>
        <time>2016-07-31T08:34:30Z</time>
      </trkpt>
      <trkpt lat="43.79157" lon="6.15551">
        <ele>716</ele>
        <time>2016-07-31T08:34:36Z</time>
      </trkpt>
      <trkpt lat="43.79171" lon="6.15532">
        <ele>716</ele>
        <time>2016-07-31T08:34:41Z</time>
      </trkpt>
      <trkpt lat="43.7919" lon="6.15514">
        <ele>716</ele>
        <time>2016-07-31T08:34:47Z</time>
      </trkpt>
      <trkpt lat="43.79209" lon="6.15492">
        <ele>716</ele>
        <time>2016-07-31T08:34:53Z</time>
      </trkpt>
      <trkpt lat="43.79218" lon="6.15481">
        <ele>715</ele>
        <time>2016-07-31T08:34:56Z</time>
      </trkpt>
      <trkpt lat="43.79236" lon="6.15459">
        <ele>716</ele>
        <time>2016-07-31T08:35:02Z</time>
      </trkpt>
      <trkpt lat="43.79245" lon="6.15448">
        <ele>716</ele>
        <time>2016-07-31T08:35:05Z</time>
      </trkpt>
      <trkpt lat="43.79268" lon="6.15427">
        <ele>718</ele>
        <time>2016-07-31T08:35:11Z</time>
      </trkpt>
      <trkpt lat="43.79279" lon="6.15415">
        <ele>719</ele>
        <time>2016-07-31T08:35:14Z</time>
      </trkpt>
      <trkpt lat="43.79289" lon="6.15402">
        <ele>719</ele>
        <time>2016-07-31T08:35:17Z</time>
      </trkpt>
      <trkpt lat="43.79301" lon="6.15389">
        <ele>719</ele>
        <time>2016-07-31T08:35:20Z</time>
      </trkpt>
      <trkpt lat="43.79332" lon="6.15354">
        <ele>719</ele>
        <time>2016-07-31T08:35:28Z</time>
      </trkpt>
      <trkpt lat="43.79359" lon="6.1533">
        <ele>717</ele>
        <time>2016-07-31T08:35:34Z</time>
      </trkpt>
      <trkpt lat="43.79382" lon="6.15302">
        <ele>717</ele>
        <time>2016-07-31T08:35:40Z</time>
      </trkpt>
      <trkpt lat="43.79409" lon="6.15269">
        <ele>718</ele>
        <time>2016-07-31T08:35:47Z</time>
      </trkpt>
      <trkpt lat="43.79434" lon="6.15242">
        <ele>720</ele>
        <time>2016-07-31T08:35:53Z</time>
      </trkpt>
      <trkpt lat="43.79459" lon="6.15213">
        <ele>718</ele>
        <time>2016-07-31T08:35:59Z</time>
      </trkpt>
      <trkpt lat="43.79478" lon="6.15192">
        <ele>718</ele>
        <time>2016-07-31T08:36:04Z</time>
      </trkpt>
      <trkpt lat="43.79501" lon="6.15163">
        <ele>718</ele>
        <time>2016-07-31T08:36:10Z</time>
      </trkpt>
      <trkpt lat="43.79522" lon="6.15136">
        <ele>718</ele>
        <time>2016-07-31T08:36:15Z</time>
      </trkpt>
      <trkpt lat="43.79549" lon="6.15108">
        <ele>718</ele>
        <time>2016-07-31T08:36:21Z</time>
      </trkpt>
      <trkpt lat="43.79574" lon="6.15082">
        <ele>719</ele>
        <time>2016-07-31T08:36:27Z</time>
      </trkpt>
      <trkpt lat="43.79592" lon="6.15061">
        <ele>719</ele>
        <time>2016-07-31T08:36:32Z</time>
      </trkpt>
      <trkpt lat="43.79613" lon="6.15038">
        <ele>717</ele>
        <time>2016-07-31T08:36:38Z</time>
      </trkpt>
      <trkpt lat="43.79602" lon="6.15021">
        <ele>720</ele>
        <time>2016-07-31T08:36:43Z</time>
      </trkpt>
      <trkpt lat="43.79589" lon="6.14985">
        <ele>715</ele>
        <time>2016-07-31T08:36:49Z</time>
      </trkpt>
      <trkpt lat="43.79579" lon="6.14954">
        <ele>714</ele>
        <time>2016-07-31T08:36:54Z</time>
      </trkpt>
      <trkpt lat="43.7957" lon="6.14913">
        <ele>711</ele>
        <time>2016-07-31T08:37:00Z</time>
      </trkpt>
      <trkpt lat="43.79557" lon="6.14874">
        <ele>715</ele>
        <time>2016-07-31T08:37:06Z</time>
      </trkpt>
      <trkpt lat="43.79544" lon="6.14831">
        <ele>720</ele>
        <time>2016-07-31T08:37:13Z</time>
      </trkpt>
      <trkpt lat="43.79536" lon="6.14799">
        <ele>722</ele>
        <time>2016-07-31T08:37:18Z</time>
      </trkpt>
      <trkpt lat="43.79531" lon="6.14784">
        <ele>721</ele>
        <time>2016-07-31T08:37:21Z</time>
      </trkpt>
      <trkpt lat="43.79517" lon="6.14745">
        <ele>718</ele>
        <time>2016-07-31T08:37:28Z</time>
      </trkpt>
      <trkpt lat="43.79502" lon="6.14691">
        <ele>725</ele>
        <time>2016-07-31T08:37:35Z</time>
      </trkpt>
      <trkpt lat="43.79487" lon="6.14658">
        <ele>726</ele>
        <time>2016-07-31T08:37:41Z</time>
      </trkpt>
      <trkpt lat="43.79479" lon="6.14639">
        <ele>726</ele>
        <time>2016-07-31T08:37:44Z</time>
      </trkpt>
      <trkpt lat="43.79468" lon="6.14597">
        <ele>721</ele>
        <time>2016-07-31T08:37:50Z</time>
      </trkpt>
      <trkpt lat="43.79453" lon="6.14565">
        <ele>721</ele>
        <time>2016-07-31T08:37:55Z</time>
      </trkpt>
      <trkpt lat="43.79442" lon="6.14523">
        <ele>720</ele>
        <time>2016-07-31T08:38:01Z</time>
      </trkpt>
      <trkpt lat="43.79429" lon="6.14496">
        <ele>716</ele>
        <time>2016-07-31T08:38:06Z</time>
      </trkpt>
      <trkpt lat="43.79414" lon="6.14465">
        <ele>713</ele>
        <time>2016-07-31T08:38:11Z</time>
      </trkpt>
      <trkpt lat="43.79398" lon="6.14428">
        <ele>712</ele>
        <time>2016-07-31T08:38:16Z</time>
      </trkpt>
      <trkpt lat="43.79381" lon="6.14393">
        <ele>712</ele>
        <time>2016-07-31T08:38:22Z</time>
      </trkpt>
      <trkpt lat="43.79369" lon="6.14354">
        <ele>709</ele>
        <time>2016-07-31T08:38:27Z</time>
      </trkpt>
      <trkpt lat="43.79354" lon="6.14315">
        <ele>712</ele>
        <time>2016-07-31T08:38:33Z</time>
      </trkpt>
      <trkpt lat="43.7934" lon="6.14283">
        <ele>714</ele>
        <time>2016-07-31T08:38:38Z</time>
      </trkpt>
      <trkpt lat="43.79324" lon="6.14242">
        <ele>712</ele>
        <time>2016-07-31T08:38:44Z</time>
      </trkpt>
      <trkpt lat="43.79318" lon="6.14221">
        <ele>710</ele>
        <time>2016-07-31T08:38:47Z</time>
      </trkpt>
      <trkpt lat="43.7931" lon="6.14191">
        <ele>709</ele>
        <time>2016-07-31T08:38:51Z</time>
      </trkpt>
      <trkpt lat="43.79298" lon="6.14156">
        <ele>709</ele>
        <time>2016-07-31T08:38:57Z</time>
      </trkpt>
      <trkpt lat="43.79283" lon="6.14115">
        <ele>709</ele>
        <time>2016-07-31T08:39:02Z</time>
      </trkpt>
      <trkpt lat="43.7927" lon="6.14073">
        <ele>710</ele>
        <time>2016-07-31T08:39:08Z</time>
      </trkpt>
      <trkpt lat="43.79256" lon="6.14035">
        <ele>709</ele>
        <time>2016-07-31T08:39:15Z</time>
      </trkpt>
      <trkpt lat="43.79243" lon="6.14003">
        <ele>708</ele>
        <time>2016-07-31T08:39:21Z</time>
      </trkpt>
      <trkpt lat="43.79228" lon="6.13982">
        <ele>710</ele>
        <time>2016-07-31T08:39:26Z</time>
      </trkpt>
      <trkpt lat="43.79202" lon="6.13957">
        <ele>709</ele>
        <time>2016-07-31T08:39:34Z</time>
      </trkpt>
      <trkpt lat="43.79197" lon="6.1395">
        <ele>708</ele>
        <time>2016-07-31T08:39:37Z</time>
      </trkpt>
      <trkpt lat="43.79213" lon="6.13962">
        <ele>707</ele>
        <time>2016-07-31T08:39:49Z</time>
      </trkpt>
      <trkpt lat="43.79236" lon="6.13993">
        <ele>709</ele>
        <time>2016-07-31T08:39:57Z</time>
      </trkpt>
      <trkpt lat="43.79253" lon="6.13994">
        <ele>710</ele>
        <time>2016-07-31T08:40:02Z</time>
      </trkpt>
      <trkpt lat="43.7926" lon="6.13968">
        <ele>711</ele>
        <time>2016-07-31T08:40:05Z</time>
      </trkpt>
      <trkpt lat="43.79271" lon="6.13936">
        <ele>711</ele>
        <time>2016-07-31T08:40:10Z</time>
      </trkpt>
      <trkpt lat="43.79282" lon="6.13897">
        <ele>710</ele>
        <time>2016-07-31T08:40:16Z</time>
      </trkpt>
      <trkpt lat="43.79297" lon="6.13872">
        <ele>708</ele>
        <time>2016-07-31T08:40:20Z</time>
      </trkpt>
      <trkpt lat="43.79308" lon="6.13838">
        <ele>708</ele>
        <time>2016-07-31T08:40:25Z</time>
      </trkpt>
      <trkpt lat="43.7932" lon="6.13807">
        <ele>708</ele>
        <time>2016-07-31T08:40:30Z</time>
      </trkpt>
      <trkpt lat="43.79328" lon="6.13774">
        <ele>709</ele>
        <time>2016-07-31T08:40:35Z</time>
      </trkpt>
      <trkpt lat="43.7933" lon="6.13753">
        <ele>708</ele>
        <time>2016-07-31T08:40:38Z</time>
      </trkpt>
      <trkpt lat="43.7933" lon="6.1371">
        <ele>710</ele>
        <time>2016-07-31T08:40:44Z</time>
      </trkpt>
      <trkpt lat="43.79346" lon="6.13673">
        <ele>708</ele>
        <time>2016-07-31T08:40:51Z</time>
      </trkpt>
      <trkpt lat="43.79374" lon="6.13664">
        <ele>709</ele>
        <time>2016-07-31T08:40:59Z</time>
      </trkpt>
      <trkpt lat="43.79397" lon="6.13653">
        <ele>705</ele>
        <time>2016-07-31T08:41:06Z</time>
      </trkpt>
      <trkpt lat="43.79415" lon="6.13647">
        <ele>705</ele>
        <time>2016-07-31T08:41:11Z</time>
      </trkpt>
      <trkpt lat="43.79434" lon="6.13642">
        <ele>706</ele>
        <time>2016-07-31T08:41:16Z</time>
      </trkpt>
      <trkpt lat="43.79461" lon="6.13635">
        <ele>711</ele>
        <time>2016-07-31T08:41:23Z</time>
      </trkpt>
      <trkpt lat="43.79492" lon="6.13622">
        <ele>711</ele>
        <time>2016-07-31T08:41:31Z</time>
      </trkpt>
      <trkpt lat="43.79511" lon="6.13619">
        <ele>711</ele>
        <time>2016-07-31T08:41:36Z</time>
      </trkpt>
      <trkpt lat="43.79533" lon="6.13618">
        <ele>712</ele>
        <time>2016-07-31T08:41:42Z</time>
      </trkpt>
      <trkpt lat="43.79545" lon="6.13616">
        <ele>711</ele>
        <time>2016-07-31T08:41:45Z</time>
      </trkpt>
      <trkpt lat="43.7956" lon="6.13614">
        <ele>712</ele>
        <time>2016-07-31T08:41:49Z</time>
      </trkpt>
      <trkpt lat="43.79587" lon="6.13612">
        <ele>706</ele>
        <time>2016-07-31T08:41:55Z</time>
      </trkpt>
      <trkpt lat="43.79599" lon="6.13609">
        <ele>706</ele>
        <time>2016-07-31T08:41:58Z</time>
      </trkpt>
      <trkpt lat="43.79622" lon="6.13606">
        <ele>706</ele>
        <time>2016-07-31T08:42:04Z</time>
      </trkpt>
      <trkpt lat="43.79634" lon="6.13586">
        <ele>715</ele>
        <time>2016-07-31T08:42:11Z</time>
      </trkpt>
      <trkpt lat="43.79639" lon="6.13532">
        <ele>708</ele>
        <time>2016-07-31T08:42:19Z</time>
      </trkpt>
      <trkpt lat="43.79636" lon="6.13499">
        <ele>704</ele>
        <time>2016-07-31T08:42:25Z</time>
      </trkpt>
      <trkpt lat="43.7964" lon="6.13462">
        <ele>706</ele>
        <time>2016-07-31T08:42:32Z</time>
      </trkpt>
      <trkpt lat="43.7964" lon="6.13435">
        <ele>707</ele>
        <time>2016-07-31T08:42:37Z</time>
      </trkpt>
      <trkpt lat="43.79639" lon="6.13386">
        <ele>710</ele>
        <time>2016-07-31T08:42:44Z</time>
      </trkpt>
      <trkpt lat="43.79644" lon="6.13343">
        <ele>711</ele>
        <time>2016-07-31T08:42:50Z</time>
      </trkpt>
      <trkpt lat="43.79646" lon="6.13302">
        <ele>710</ele>
        <time>2016-07-31T08:42:57Z</time>
      </trkpt>
      <trkpt lat="43.79645" lon="6.13273">
        <ele>714</ele>
        <time>2016-07-31T08:43:02Z</time>
      </trkpt>
      <trkpt lat="43.79649" lon="6.13234">
        <ele>716</ele>
        <time>2016-07-31T08:43:08Z</time>
      </trkpt>
      <trkpt lat="43.79653" lon="6.13189">
        <ele>713</ele>
        <time>2016-07-31T08:43:15Z</time>
      </trkpt>
      <trkpt lat="43.79661" lon="6.13153">
        <ele>713</ele>
        <time>2016-07-31T08:43:21Z</time>
      </trkpt>
      <trkpt lat="43.79665" lon="6.13129">
        <ele>713</ele>
        <time>2016-07-31T08:43:25Z</time>
      </trkpt>
      <trkpt lat="43.79671" lon="6.13091">
        <ele>713</ele>
        <time>2016-07-31T08:43:32Z</time>
      </trkpt>
      <trkpt lat="43.79659" lon="6.13074">
        <ele>711</ele>
        <time>2016-07-31T08:43:37Z</time>
      </trkpt>
      <trkpt lat="43.79636" lon="6.13064">
        <ele>711</ele>
        <time>2016-07-31T08:43:43Z</time>
      </trkpt>
      <trkpt lat="43.79609" lon="6.13053">
        <ele>708</ele>
        <time>2016-07-31T08:43:49Z</time>
      </trkpt>
      <trkpt lat="43.79583" lon="6.13033">
        <ele>706</ele>
        <time>2016-07-31T08:43:55Z</time>
      </trkpt>
      <trkpt lat="43.79559" lon="6.13023">
        <ele>705</ele>
        <time>2016-07-31T08:44:01Z</time>
      </trkpt>
      <trkpt lat="43.79536" lon="6.13003">
        <ele>705</ele>
        <time>2016-07-31T08:44:08Z</time>
      </trkpt>
      <trkpt lat="43.79519" lon="6.1297">
        <ele>704</ele>
        <time>2016-07-31T08:44:15Z</time>
      </trkpt>
      <trkpt lat="43.79504" lon="6.12939">
        <ele>704</ele>
        <time>2016-07-31T08:44:21Z</time>
      </trkpt>
      <trkpt lat="43.79492" lon="6.12912">
        <ele>705</ele>
        <time>2016-07-31T08:44:27Z</time>
      </trkpt>
      <trkpt lat="43.79479" lon="6.12891">
        <ele>705</ele>
        <time>2016-07-31T08:44:32Z</time>
      </trkpt>
      <trkpt lat="43.79465" lon="6.1287">
        <ele>704</ele>
        <time>2016-07-31T08:44:37Z</time>
      </trkpt>
      <trkpt lat="43.79454" lon="6.12838">
        <ele>706</ele>
        <time>2016-07-31T08:44:43Z</time>
      </trkpt>
      <trkpt lat="43.79451" lon="6.12807">
        <ele>706</ele>
        <time>2016-07-31T08:44:48Z</time>
      </trkpt>
      <trkpt lat="43.79452" lon="6.12772">
        <ele>704</ele>
        <time>2016-07-31T08:44:53Z</time>
      </trkpt>
      <trkpt lat="43.79445" lon="6.12735">
        <ele>703</ele>
        <time>2016-07-31T08:44:59Z</time>
      </trkpt>
      <trkpt lat="43.79438" lon="6.12689">
        <ele>708</ele>
        <time>2016-07-31T08:45:06Z</time>
      </trkpt>
      <trkpt lat="43.79434" lon="6.12656">
        <ele>708</ele>
        <time>2016-07-31T08:45:11Z</time>
      </trkpt>
      <trkpt lat="43.79431" lon="6.12616">
        <ele>704</ele>
        <time>2016-07-31T08:45:17Z</time>
      </trkpt>
      <trkpt lat="43.79423" lon="6.12575">
        <ele>703</ele>
        <time>2016-07-31T08:45:25Z</time>
      </trkpt>
      <trkpt lat="43.79418" lon="6.12542">
        <ele>702</ele>
        <time>2016-07-31T08:45:31Z</time>
      </trkpt>
      <trkpt lat="43.79414" lon="6.12507">
        <ele>702</ele>
        <time>2016-07-31T08:45:37Z</time>
      </trkpt>
      <trkpt lat="43.7941" lon="6.12477">
        <ele>702</ele>
        <time>2016-07-31T08:45:42Z</time>
      </trkpt>
      <trkpt lat="43.79408" lon="6.12459">
        <ele>706</ele>
        <time>2016-07-31T08:45:45Z</time>
      </trkpt>
      <trkpt lat="43.79406" lon="6.12441">
        <ele>707</ele>
        <time>2016-07-31T08:45:48Z</time>
      </trkpt>
      <trkpt lat="43.79405" lon="6.1241">
        <ele>704</ele>
        <time>2016-07-31T08:45:53Z</time>
      </trkpt>
      <trkpt lat="43.7941" lon="6.12366">
        <ele>705</ele>
        <time>2016-07-31T08:46:00Z</time>
      </trkpt>
      <trkpt lat="43.79411" lon="6.12327">
        <ele>707</ele>
        <time>2016-07-31T08:46:06Z</time>
      </trkpt>
      <trkpt lat="43.79414" lon="6.12295">
        <ele>709</ele>
        <time>2016-07-31T08:46:11Z</time>
      </trkpt>
      <trkpt lat="43.79418" lon="6.12257">
        <ele>710</ele>
        <time>2016-07-31T08:46:17Z</time>
      </trkpt>
      <trkpt lat="43.79418" lon="6.12236">
        <ele>709</ele>
        <time>2016-07-31T08:46:20Z</time>
      </trkpt>
      <trkpt lat="43.79424" lon="6.122">
        <ele>706</ele>
        <time>2016-07-31T08:46:25Z</time>
      </trkpt>
      <trkpt lat="43.79431" lon="6.12161">
        <ele>708</ele>
        <time>2016-07-31T08:46:31Z</time>
      </trkpt>
      <trkpt lat="43.79434" lon="6.12111">
        <ele>709</ele>
        <time>2016-07-31T08:46:38Z</time>
      </trkpt>
      <trkpt lat="43.79439" lon="6.12069">
        <ele>708</ele>
        <time>2016-07-31T08:46:44Z</time>
      </trkpt>
      <trkpt lat="43.79436" lon="6.12046">
        <ele>708</ele>
        <time>2016-07-31T08:46:47Z</time>
      </trkpt>
      <trkpt lat="43.79439" lon="6.12003">
        <ele>707</ele>
        <time>2016-07-31T08:46:53Z</time>
      </trkpt>
      <trkpt lat="43.7944" lon="6.11965">
        <ele>709</ele>
        <time>2016-07-31T08:46:59Z</time>
      </trkpt>
      <trkpt lat="43.79446" lon="6.11921">
        <ele>707</ele>
        <time>2016-07-31T08:47:05Z</time>
      </trkpt>
      <trkpt lat="43.79451" lon="6.11899">
        <ele>705</ele>
        <time>2016-07-31T08:47:08Z</time>
      </trkpt>
      <trkpt lat="43.79458" lon="6.11855">
        <ele>702</ele>
        <time>2016-07-31T08:47:14Z</time>
      </trkpt>
      <trkpt lat="43.79464" lon="6.11823">
        <ele>703</ele>
        <time>2016-07-31T08:47:19Z</time>
      </trkpt>
      <trkpt lat="43.79472" lon="6.11789">
        <ele>703</ele>
        <time>2016-07-31T08:47:24Z</time>
      </trkpt>
      <trkpt lat="43.79476" lon="6.11747">
        <ele>704</ele>
        <time>2016-07-31T08:47:30Z</time>
      </trkpt>
      <trkpt lat="43.79486" lon="6.11715">
        <ele>703</ele>
        <time>2016-07-31T08:47:35Z</time>
      </trkpt>
      <trkpt lat="43.79486" lon="6.11693">
        <ele>704</ele>
        <time>2016-07-31T08:47:38Z</time>
      </trkpt>
      <trkpt lat="43.79491" lon="6.11652">
        <ele>705</ele>
        <time>2016-07-31T08:47:44Z</time>
      </trkpt>
      <trkpt lat="43.79503" lon="6.11611">
        <ele>705</ele>
        <time>2016-07-31T08:47:50Z</time>
      </trkpt>
      <trkpt lat="43.79505" lon="6.11569">
        <ele>704</ele>
        <time>2016-07-31T08:47:56Z</time>
      </trkpt>
      <trkpt lat="43.79507" lon="6.11536">
        <ele>704</ele>
        <time>2016-07-31T08:48:01Z</time>
      </trkpt>
      <trkpt lat="43.79511" lon="6.11492">
        <ele>699</ele>
        <time>2016-07-31T08:48:07Z</time>
      </trkpt>
      <trkpt lat="43.79513" lon="6.11454">
        <ele>701</ele>
        <time>2016-07-31T08:48:12Z</time>
      </trkpt>
      <trkpt lat="43.79519" lon="6.11407">
        <ele>698</ele>
        <time>2016-07-31T08:48:18Z</time>
      </trkpt>
      <trkpt lat="43.79521" lon="6.11371">
        <ele>695</ele>
        <time>2016-07-31T08:48:23Z</time>
      </trkpt>
      <trkpt lat="43.79522" lon="6.1134">
        <ele>696</ele>
        <time>2016-07-31T08:48:27Z</time>
      </trkpt>
      <trkpt lat="43.79512" lon="6.11327">
        <ele>695</ele>
        <time>2016-07-31T08:48:30Z</time>
      </trkpt>
      <trkpt lat="43.79487" lon="6.11325">
        <ele>698</ele>
        <time>2016-07-31T08:48:37Z</time>
      </trkpt>
      <trkpt lat="43.79462" lon="6.11324">
        <ele>698</ele>
        <time>2016-07-31T08:48:45Z</time>
      </trkpt>
      <trkpt lat="43.79435" lon="6.1132">
        <ele>694</ele>
        <time>2016-07-31T08:48:52Z</time>
      </trkpt>
      <trkpt lat="43.79424" lon="6.11319">
        <ele>697</ele>
        <time>2016-07-31T08:48:55Z</time>
      </trkpt>
      <trkpt lat="43.79399" lon="6.11315">
        <ele>697</ele>
        <time>2016-07-31T08:49:01Z</time>
      </trkpt>
      <trkpt lat="43.79375" lon="6.11313">
        <ele>697</ele>
        <time>2016-07-31T08:49:07Z</time>
      </trkpt>
      <trkpt lat="43.79345" lon="6.11307">
        <ele>696</ele>
        <time>2016-07-31T08:49:14Z</time>
      </trkpt>
      <trkpt lat="43.79319" lon="6.11303">
        <ele>695</ele>
        <time>2016-07-31T08:49:20Z</time>
      </trkpt>
      <trkpt lat="43.7929" lon="6.11299">
        <ele>695</ele>
        <time>2016-07-31T08:49:26Z</time>
      </trkpt>
      <trkpt lat="43.79272" lon="6.11283">
        <ele>695</ele>
        <time>2016-07-31T08:49:31Z</time>
      </trkpt>
      <trkpt lat="43.7928" lon="6.11219">
        <ele>689</ele>
        <time>2016-07-31T08:49:37Z</time>
      </trkpt>
      <trkpt lat="43.79278" lon="6.11174">
        <ele>688</ele>
        <time>2016-07-31T08:49:44Z</time>
      </trkpt>
      <trkpt lat="43.79269" lon="6.11123">
        <ele>687</ele>
        <time>2016-07-31T08:49:51Z</time>
      </trkpt>
      <trkpt lat="43.79266" lon="6.11075">
        <ele>689</ele>
        <time>2016-07-31T08:49:57Z</time>
      </trkpt>
      <trkpt lat="43.79267" lon="6.11043">
        <ele>700</ele>
        <time>2016-07-31T08:50:02Z</time>
      </trkpt>
      <trkpt lat="43.79268" lon="6.11001">
        <ele>696</ele>
        <time>2016-07-31T08:50:08Z</time>
      </trkpt>
      <trkpt lat="43.79274" lon="6.10962">
        <ele>692</ele>
        <time>2016-07-31T08:50:14Z</time>
      </trkpt>
      <trkpt lat="43.79277" lon="6.10924">
        <ele>691</ele>
        <time>2016-07-31T08:50:20Z</time>
      </trkpt>
      <trkpt lat="43.79279" lon="6.10893">
        <ele>690</ele>
        <time>2016-07-31T08:50:25Z</time>
      </trkpt>
      <trkpt lat="43.79279" lon="6.10893">
        <ele>690</ele>
        <time>2016-07-31T08:50:30Z</time>
      </trkpt>
      <trkpt lat="43.79279" lon="6.10893">
        <ele>690</ele>
        <time>2016-07-31T08:50:31Z</time>
      </trkpt>
      <trkpt lat="43.7928" lon="6.10874">
        <ele>691</ele>
        <time>2016-07-31T08:51:42Z</time>
      </trkpt>
      <trkpt lat="43.79281" lon="6.10829">
        <ele>690</ele>
        <time>2016-07-31T08:51:50Z</time>
      </trkpt>
      <trkpt lat="43.79291" lon="6.10786">
        <ele>687</ele>
        <time>2016-07-31T08:51:55Z</time>
      </trkpt>
      <trkpt lat="43.79299" lon="6.10749">
        <ele>685</ele>
        <time>2016-07-31T08:52:00Z</time>
      </trkpt>
      <trkpt lat="43.79319" lon="6.10704">
        <ele>684</ele>
        <time>2016-07-31T08:52:06Z</time>
      </trkpt>
      <trkpt lat="43.79336" lon="6.10666">
        <ele>687</ele>
        <time>2016-07-31T08:52:12Z</time>
      </trkpt>
      <trkpt lat="43.79347" lon="6.10634">
        <ele>686</ele>
        <time>2016-07-31T08:52:17Z</time>
      </trkpt>
      <trkpt lat="43.79358" lon="6.10592">
        <ele>687</ele>
        <time>2016-07-31T08:52:23Z</time>
      </trkpt>
      <trkpt lat="43.79369" lon="6.10558">
        <ele>690</ele>
        <time>2016-07-31T08:52:29Z</time>
      </trkpt>
      <trkpt lat="43.79384" lon="6.10523">
        <ele>689</ele>
        <time>2016-07-31T08:52:36Z</time>
      </trkpt>
      <trkpt lat="43.7941" lon="6.10497">
        <ele>688</ele>
        <time>2016-07-31T08:52:41Z</time>
      </trkpt>
      <trkpt lat="43.79437" lon="6.10503">
        <ele>688</ele>
        <time>2016-07-31T08:52:46Z</time>
      </trkpt>
      <trkpt lat="43.79467" lon="6.10508">
        <ele>688</ele>
        <time>2016-07-31T08:52:52Z</time>
      </trkpt>
      <trkpt lat="43.79482" lon="6.10507">
        <ele>686</ele>
        <time>2016-07-31T08:52:55Z</time>
      </trkpt>
      <trkpt lat="43.79498" lon="6.10489">
        <ele>687</ele>
        <time>2016-07-31T08:53:00Z</time>
      </trkpt>
      <trkpt lat="43.79499" lon="6.1045">
        <ele>691</ele>
        <time>2016-07-31T08:53:07Z</time>
      </trkpt>
      <trkpt lat="43.79499" lon="6.1042">
        <ele>690</ele>
        <time>2016-07-31T08:53:12Z</time>
      </trkpt>
      <trkpt lat="43.79502" lon="6.10381">
        <ele>691</ele>
        <time>2016-07-31T08:53:18Z</time>
      </trkpt>
      <trkpt lat="43.79503" lon="6.1036">
        <ele>691</ele>
        <time>2016-07-31T08:53:21Z</time>
      </trkpt>
      <trkpt lat="43.79505" lon="6.10318">
        <ele>691</ele>
        <time>2016-07-31T08:53:27Z</time>
      </trkpt>
      <trkpt lat="43.79508" lon="6.10285">
        <ele>691</ele>
        <time>2016-07-31T08:53:32Z</time>
      </trkpt>
      <trkpt lat="43.79509" lon="6.10244">
        <ele>693</ele>
        <time>2016-07-31T08:53:38Z</time>
      </trkpt>
      <trkpt lat="43.79511" lon="6.10207">
        <ele>691</ele>
        <time>2016-07-31T08:53:43Z</time>
      </trkpt>
      <trkpt lat="43.79514" lon="6.10179">
        <ele>689</ele>
        <time>2016-07-31T08:53:47Z</time>
      </trkpt>
      <trkpt lat="43.79515" lon="6.10158">
        <ele>689</ele>
        <time>2016-07-31T08:53:50Z</time>
      </trkpt>
      <trkpt lat="43.79519" lon="6.10118">
        <ele>688</ele>
        <time>2016-07-31T08:53:56Z</time>
      </trkpt>
      <trkpt lat="43.79522" lon="6.1007">
        <ele>686</ele>
        <time>2016-07-31T08:54:03Z</time>
      </trkpt>
      <trkpt lat="43.79525" lon="6.10034">
        <ele>683</ele>
        <time>2016-07-31T08:54:08Z</time>
      </trkpt>
      <trkpt lat="43.79525" lon="6.10013">
        <ele>687</ele>
        <time>2016-07-31T08:54:11Z</time>
      </trkpt>
      <trkpt lat="43.79527" lon="6.0997">
        <ele>686</ele>
        <time>2016-07-31T08:54:17Z</time>
      </trkpt>
      <trkpt lat="43.79529" lon="6.09934">
        <ele>687</ele>
        <time>2016-07-31T08:54:22Z</time>
      </trkpt>
      <trkpt lat="43.79532" lon="6.09892">
        <ele>685</ele>
        <time>2016-07-31T08:54:28Z</time>
      </trkpt>
      <trkpt lat="43.79537" lon="6.09851">
        <ele>682</ele>
        <time>2016-07-31T08:54:34Z</time>
      </trkpt>
      <trkpt lat="43.7954" lon="6.09812">
        <ele>680</ele>
        <time>2016-07-31T08:54:40Z</time>
      </trkpt>
      <trkpt lat="43.79542" lon="6.0978">
        <ele>681</ele>
        <time>2016-07-31T08:54:45Z</time>
      </trkpt>
      <trkpt lat="43.79559" lon="6.09761">
        <ele>686</ele>
        <time>2016-07-31T08:54:51Z</time>
      </trkpt>
      <trkpt lat="43.79578" lon="6.09769">
        <ele>686</ele>
        <time>2016-07-31T08:54:55Z</time>
      </trkpt>
      <trkpt lat="43.79608" lon="6.0978">
        <ele>687</ele>
        <time>2016-07-31T08:55:02Z</time>
      </trkpt>
      <trkpt lat="43.79642" lon="6.09786">
        <ele>686</ele>
        <time>2016-07-31T08:55:09Z</time>
      </trkpt>
      <trkpt lat="43.79669" lon="6.09794">
        <ele>683</ele>
        <time>2016-07-31T08:55:14Z</time>
      </trkpt>
      <trkpt lat="43.79707" lon="6.09806">
        <ele>680</ele>
        <time>2016-07-31T08:55:20Z</time>
      </trkpt>
      <trkpt lat="43.79734" lon="6.09811">
        <ele>682</ele>
        <time>2016-07-31T08:55:26Z</time>
      </trkpt>
      <trkpt lat="43.79743" lon="6.09783">
        <ele>685</ele>
        <time>2016-07-31T08:55:32Z</time>
      </trkpt>
      <trkpt lat="43.79741" lon="6.09742">
        <ele>682</ele>
        <time>2016-07-31T08:55:38Z</time>
      </trkpt>
      <trkpt lat="43.79746" lon="6.09711">
        <ele>684</ele>
        <time>2016-07-31T08:55:44Z</time>
      </trkpt>
      <trkpt lat="43.79757" lon="6.0966">
        <ele>684</ele>
        <time>2016-07-31T08:55:53Z</time>
      </trkpt>
      <trkpt lat="43.79763" lon="6.09621">
        <ele>685</ele>
        <time>2016-07-31T08:55:59Z</time>
      </trkpt>
      <trkpt lat="43.7977" lon="6.09583">
        <ele>688</ele>
        <time>2016-07-31T08:56:05Z</time>
      </trkpt>
      <trkpt lat="43.79772" lon="6.09551">
        <ele>681</ele>
        <time>2016-07-31T08:56:10Z</time>
      </trkpt>
      <trkpt lat="43.79775" lon="6.09512">
        <ele>682</ele>
        <time>2016-07-31T08:56:17Z</time>
      </trkpt>
      <trkpt lat="43.79787" lon="6.09509">
        <ele>682</ele>
        <time>2016-07-31T08:56:23Z</time>
      </trkpt>
      <trkpt lat="43.7981" lon="6.09518">
        <ele>684</ele>
        <time>2016-07-31T08:56:33Z</time>
      </trkpt>
      <trkpt lat="43.79824" lon="6.09522">
        <ele>685</ele>
        <time>2016-07-31T08:56:39Z</time>
      </trkpt>
      <trkpt lat="43.79858" lon="6.09529">
        <ele>680</ele>
        <time>2016-07-31T08:56:50Z</time>
      </trkpt>
      <trkpt lat="43.7987" lon="6.09535">
        <ele>681</ele>
        <time>2016-07-31T08:56:58Z</time>
      </trkpt>
      <trkpt lat="43.7988" lon="6.09533">
        <ele>682</ele>
        <time>2016-07-31T08:57:07Z</time>
      </trkpt>
      <trkpt lat="43.7988" lon="6.09533">
        <ele>682</ele>
        <time>2016-07-31T08:57:15Z</time>
      </trkpt>
      <trkpt lat="43.79891" lon="6.09531">
        <ele>681</ele>
        <time>2016-07-31T08:57:18Z</time>
      </trkpt>
      <trkpt lat="43.79907" lon="6.09538">
        <ele>683</ele>
        <time>2016-07-31T08:57:23Z</time>
      </trkpt>
      <trkpt lat="43.79931" lon="6.09552">
        <ele>674</ele>
        <time>2016-07-31T08:57:30Z</time>
      </trkpt>
      <trkpt lat="43.79961" lon="6.09554">
        <ele>671</ele>
        <time>2016-07-31T08:57:37Z</time>
      </trkpt>
      <trkpt lat="43.79977" lon="6.09537">
        <ele>672</ele>
        <time>2016-07-31T08:57:42Z</time>
      </trkpt>
      <trkpt lat="43.79975" lon="6.09516">
        <ele>672</ele>
        <time>2016-07-31T08:57:48Z</time>
      </trkpt>
      <trkpt lat="43.79995" lon="6.09476">
        <ele>675</ele>
        <time>2016-07-31T08:57:58Z</time>
      </trkpt>
      <trkpt lat="43.8002" lon="6.09471">
        <ele>672</ele>
        <time>2016-07-31T08:58:04Z</time>
      </trkpt>
      <trkpt lat="43.80046" lon="6.09482">
        <ele>671</ele>
        <time>2016-07-31T08:58:10Z</time>
      </trkpt>
      <trkpt lat="43.80073" lon="6.09483">
        <ele>672</ele>
        <time>2016-07-31T08:58:17Z</time>
      </trkpt>
      <trkpt lat="43.80099" lon="6.0949">
        <ele>672</ele>
        <time>2016-07-31T08:58:22Z</time>
      </trkpt>
      <trkpt lat="43.80128" lon="6.095">
        <ele>671</ele>
        <time>2016-07-31T08:58:28Z</time>
      </trkpt>
      <trkpt lat="43.80143" lon="6.09507">
        <ele>670</ele>
        <time>2016-07-31T08:58:31Z</time>
      </trkpt>
      <trkpt lat="43.80168" lon="6.09512">
        <ele>674</ele>
        <time>2016-07-31T08:58:37Z</time>
      </trkpt>
      <trkpt lat="43.8018" lon="6.09531">
        <ele>676</ele>
        <time>2016-07-31T08:58:45Z</time>
      </trkpt>
      <trkpt lat="43.80177" lon="6.09553">
        <ele>683</ele>
        <time>2016-07-31T08:58:53Z</time>
      </trkpt>
      <trkpt lat="43.80188" lon="6.09521">
        <ele>680</ele>
        <time>2016-07-31T08:59:09Z</time>
      </trkpt>
      <trkpt lat="43.80215" lon="6.09529">
        <ele>680</ele>
        <time>2016-07-31T08:59:17Z</time>
      </trkpt>
      <trkpt lat="43.80238" lon="6.09546">
        <ele>677</ele>
        <time>2016-07-31T08:59:23Z</time>
      </trkpt>
      <trkpt lat="43.80258" lon="6.09555">
        <ele>676</ele>
        <time>2016-07-31T08:59:30Z</time>
      </trkpt>
      <trkpt lat="43.80271" lon="6.09558">
        <ele>676</ele>
        <time>2016-07-31T08:59:42Z</time>
      </trkpt>
      <trkpt lat="43.80285" lon="6.09577">
        <ele>676</ele>
        <time>2016-07-31T08:59:49Z</time>
      </trkpt>
      <trkpt lat="43.80294" lon="6.09588">
        <ele>677</ele>
        <time>2016-07-31T08:59:54Z</time>
      </trkpt>
      <trkpt lat="43.80302" lon="6.096">
        <ele>676</ele>
        <time>2016-07-31T08:59:59Z</time>
      </trkpt>
      <trkpt lat="43.80312" lon="6.09643">
        <ele>666</ele>
        <time>2016-07-31T09:00:09Z</time>
      </trkpt>
      <trkpt lat="43.80329" lon="6.09643">
        <ele>671</ele>
        <time>2016-07-31T09:00:16Z</time>
      </trkpt>
      <trkpt lat="43.80344" lon="6.0966">
        <ele>669</ele>
        <time>2016-07-31T09:00:31Z</time>
      </trkpt>
      <trkpt lat="43.80371" lon="6.09676">
        <ele>664</ele>
        <time>2016-07-31T09:00:42Z</time>
      </trkpt>
      <trkpt lat="43.8039" lon="6.09684">
        <ele>662</ele>
        <time>2016-07-31T09:00:48Z</time>
      </trkpt>
      <trkpt lat="43.80413" lon="6.09737">
        <ele>662</ele>
        <time>2016-07-31T09:00:54Z</time>
      </trkpt>
      <trkpt lat="43.8043" lon="6.09761">
        <ele>666</ele>
        <time>2016-07-31T09:01:01Z</time>
      </trkpt>
      <trkpt lat="43.80442" lon="6.09767">
        <ele>670</ele>
        <time>2016-07-31T09:01:06Z</time>
      </trkpt>
      <trkpt lat="43.80461" lon="6.09779">
        <ele>665</ele>
        <time>2016-07-31T09:01:15Z</time>
      </trkpt>
      <trkpt lat="43.8047" lon="6.09776">
        <ele>668</ele>
        <time>2016-07-31T09:01:20Z</time>
      </trkpt>
      <trkpt lat="43.80472" lon="6.0978">
        <ele>669</ele>
        <time>2016-07-31T09:01:26Z</time>
      </trkpt>
      <trkpt lat="43.80472" lon="6.0978">
        <ele>610.2</ele>
        <time>2016-07-31T09:01:49Z</time>
      </trkpt>
      <trkpt lat="43.80472" lon="6.0978">
        <ele>610.2</ele>
        <time>2016-07-31T09:01:51Z</time>
      </trkpt>
    </trkseg>
  </trk>
</gpx>